<?xml version="1.0" encoding="UTF-8" standalone="no" ?>
<gpx xmlns="http://www.topografix.com/GPX/1/1" xmlns:xsi="http://www.w3.org/2001/XMLSchema-instance" xsi:schemaLocation="http://www.topografix.com/GPX/1/1 http://www.topografix.com/GPX/1/1/gpx.xsd" version="1.1" creator="VisuGPX - https://www.visugpx.com">
  <metadata>
    <name>Etang d appy fin d hiver </name>
    <desc><![CDATA[Tres belles randonnée de fin d hiber à faire sous un beau soleil]]></desc>
  </metadata>
  <trk>
    <name><![CDATA[2015-03-29 15:01:50]]></name>
    <trkseg>
      <trkpt lat="42.79171" lon="1.733">
        <ele>910.99</ele>
        <time>2015-03-29T07:43:22Z</time>
      </trkpt>
      <trkpt lat="42.79172" lon="1.73299">
        <ele>916.75</ele>
        <time>2015-03-29T07:43:24Z</time>
      </trkpt>
      <trkpt lat="42.79171" lon="1.73299">
        <ele>922.04</ele>
        <time>2015-03-29T07:43:26Z</time>
      </trkpt>
      <trkpt lat="42.79171" lon="1.73299">
        <ele>924.93</ele>
        <time>2015-03-29T07:43:28Z</time>
      </trkpt>
      <trkpt lat="42.79171" lon="1.73299">
        <ele>932.14</ele>
        <time>2015-03-29T07:43:29Z</time>
      </trkpt>
      <trkpt lat="42.79172" lon="1.73298">
        <ele>932.14</ele>
        <time>2015-03-29T07:43:30Z</time>
      </trkpt>
      <trkpt lat="42.79172" lon="1.73298">
        <ele>935.98</ele>
        <time>2015-03-29T07:43:32Z</time>
      </trkpt>
      <trkpt lat="42.79172" lon="1.73298">
        <ele>940.31</ele>
        <time>2015-03-29T07:43:34Z</time>
      </trkpt>
      <trkpt lat="42.79172" lon="1.73297">
        <ele>943.19</ele>
        <time>2015-03-29T07:43:36Z</time>
      </trkpt>
      <trkpt lat="42.79173" lon="1.73297">
        <ele>946.56</ele>
        <time>2015-03-29T07:43:38Z</time>
      </trkpt>
      <trkpt lat="42.79173" lon="1.73297">
        <ele>949.92</ele>
        <time>2015-03-29T07:43:40Z</time>
      </trkpt>
      <trkpt lat="42.79173" lon="1.73297">
        <ele>953.28</ele>
        <time>2015-03-29T07:43:42Z</time>
      </trkpt>
      <trkpt lat="42.79173" lon="1.73297">
        <ele>957.13</ele>
        <time>2015-03-29T07:43:45Z</time>
      </trkpt>
      <trkpt lat="42.79172" lon="1.73296">
        <ele>961.46</ele>
        <time>2015-03-29T07:43:48Z</time>
      </trkpt>
      <trkpt lat="42.79172" lon="1.73297">
        <ele>963.86</ele>
        <time>2015-03-29T07:43:51Z</time>
      </trkpt>
      <trkpt lat="42.79171" lon="1.73297">
        <ele>967.22</ele>
        <time>2015-03-29T07:43:54Z</time>
      </trkpt>
      <trkpt lat="42.79171" lon="1.73297">
        <ele>970.59</ele>
        <time>2015-03-29T07:43:57Z</time>
      </trkpt>
      <trkpt lat="42.79172" lon="1.73296">
        <ele>973.47</ele>
        <time>2015-03-29T07:44:01Z</time>
      </trkpt>
      <trkpt lat="42.79172" lon="1.73295">
        <ele>977.32</ele>
        <time>2015-03-29T07:44:06Z</time>
      </trkpt>
      <trkpt lat="42.79173" lon="1.73295">
        <ele>980.2</ele>
        <time>2015-03-29T07:44:11Z</time>
      </trkpt>
      <trkpt lat="42.79172" lon="1.73295">
        <ele>982.6</ele>
        <time>2015-03-29T07:44:16Z</time>
      </trkpt>
      <trkpt lat="42.79174" lon="1.73295">
        <ele>985.49</ele>
        <time>2015-03-29T07:44:25Z</time>
      </trkpt>
      <trkpt lat="42.79176" lon="1.73296">
        <ele>988.85</ele>
        <time>2015-03-29T07:44:36Z</time>
      </trkpt>
      <trkpt lat="42.79175" lon="1.73295">
        <ele>991.74</ele>
        <time>2015-03-29T07:44:53Z</time>
      </trkpt>
      <trkpt lat="42.79172" lon="1.73295">
        <ele>992.7</ele>
        <time>2015-03-29T07:45:27Z</time>
      </trkpt>
      <trkpt lat="42.79172" lon="1.73296">
        <ele>995.58</ele>
        <time>2015-03-29T07:45:31Z</time>
      </trkpt>
      <trkpt lat="42.79173" lon="1.73293">
        <ele>993.66</ele>
        <time>2015-03-29T07:45:53Z</time>
      </trkpt>
      <trkpt lat="42.79174" lon="1.73296">
        <ele>994.14</ele>
        <time>2015-03-29T07:46:37Z</time>
      </trkpt>
      <trkpt lat="42.79171" lon="1.73297">
        <ele>994.14</ele>
        <time>2015-03-29T07:46:53Z</time>
      </trkpt>
      <trkpt lat="42.79174" lon="1.73296">
        <ele>994.62</ele>
        <time>2015-03-29T07:47:08Z</time>
      </trkpt>
      <trkpt lat="42.79172" lon="1.73293">
        <ele>994.62</ele>
        <time>2015-03-29T07:47:11Z</time>
      </trkpt>
      <trkpt lat="42.79168" lon="1.73279">
        <ele>994.14</ele>
        <time>2015-03-29T07:47:26Z</time>
      </trkpt>
      <trkpt lat="42.7917" lon="1.73274">
        <ele>994.14</ele>
        <time>2015-03-29T07:47:38Z</time>
      </trkpt>
      <trkpt lat="42.79175" lon="1.73277">
        <ele>994.62</ele>
        <time>2015-03-29T07:47:49Z</time>
      </trkpt>
      <trkpt lat="42.7918" lon="1.73278">
        <ele>995.1</ele>
        <time>2015-03-29T07:48:00Z</time>
      </trkpt>
      <trkpt lat="42.7918" lon="1.73279">
        <ele>995.1</ele>
        <time>2015-03-29T07:48:01Z</time>
      </trkpt>
      <trkpt lat="42.79182" lon="1.73287">
        <ele>996.06</ele>
        <time>2015-03-29T07:48:07Z</time>
      </trkpt>
      <trkpt lat="42.79184" lon="1.73288">
        <ele>996.06</ele>
        <time>2015-03-29T07:48:09Z</time>
      </trkpt>
      <trkpt lat="42.79188" lon="1.73296">
        <ele>997.02</ele>
        <time>2015-03-29T07:48:20Z</time>
      </trkpt>
      <trkpt lat="42.7919" lon="1.73304">
        <ele>997.51</ele>
        <time>2015-03-29T07:48:28Z</time>
      </trkpt>
      <trkpt lat="42.79194" lon="1.73315">
        <ele>997.99</ele>
        <time>2015-03-29T07:48:39Z</time>
      </trkpt>
      <trkpt lat="42.79199" lon="1.73329">
        <ele>999.43</ele>
        <time>2015-03-29T07:48:52Z</time>
      </trkpt>
      <trkpt lat="42.79205" lon="1.7334">
        <ele>1000.39</ele>
        <time>2015-03-29T07:49:05Z</time>
      </trkpt>
      <trkpt lat="42.79211" lon="1.73353">
        <ele>1001.35</ele>
        <time>2015-03-29T07:49:17Z</time>
      </trkpt>
      <trkpt lat="42.79216" lon="1.7336">
        <ele>1001.83</ele>
        <time>2015-03-29T07:49:25Z</time>
      </trkpt>
      <trkpt lat="42.79225" lon="1.73371">
        <ele>1003.27</ele>
        <time>2015-03-29T07:49:39Z</time>
      </trkpt>
      <trkpt lat="42.79235" lon="1.73384">
        <ele>1004.72</ele>
        <time>2015-03-29T07:49:52Z</time>
      </trkpt>
      <trkpt lat="42.79247" lon="1.73394">
        <ele>1006.64</ele>
        <time>2015-03-29T07:50:08Z</time>
      </trkpt>
      <trkpt lat="42.79256" lon="1.73397">
        <ele>1008.56</ele>
        <time>2015-03-29T07:50:21Z</time>
      </trkpt>
      <trkpt lat="42.7926" lon="1.73395">
        <ele>1009.04</ele>
        <time>2015-03-29T07:50:38Z</time>
      </trkpt>
      <trkpt lat="42.79268" lon="1.73398">
        <ele>1010.48</ele>
        <time>2015-03-29T07:50:50Z</time>
      </trkpt>
      <trkpt lat="42.79279" lon="1.73399">
        <ele>1013.37</ele>
        <time>2015-03-29T07:51:05Z</time>
      </trkpt>
      <trkpt lat="42.79285" lon="1.73408">
        <ele>1016.25</ele>
        <time>2015-03-29T07:51:20Z</time>
      </trkpt>
      <trkpt lat="42.7929" lon="1.73419">
        <ele>1018.17</ele>
        <time>2015-03-29T07:51:34Z</time>
      </trkpt>
      <trkpt lat="42.79296" lon="1.73424">
        <ele>1020.1</ele>
        <time>2015-03-29T07:51:48Z</time>
      </trkpt>
      <trkpt lat="42.79298" lon="1.73421">
        <ele>1020.1</ele>
        <time>2015-03-29T07:51:51Z</time>
      </trkpt>
      <trkpt lat="42.793" lon="1.73405">
        <ele>1021.06</ele>
        <time>2015-03-29T07:52:05Z</time>
      </trkpt>
      <trkpt lat="42.79307" lon="1.734">
        <ele>1022.98</ele>
        <time>2015-03-29T07:52:18Z</time>
      </trkpt>
      <trkpt lat="42.79315" lon="1.73397">
        <ele>1025.86</ele>
        <time>2015-03-29T07:52:32Z</time>
      </trkpt>
      <trkpt lat="42.79323" lon="1.73394">
        <ele>1028.27</ele>
        <time>2015-03-29T07:52:46Z</time>
      </trkpt>
      <trkpt lat="42.79333" lon="1.73393">
        <ele>1031.15</ele>
        <time>2015-03-29T07:53:01Z</time>
      </trkpt>
      <trkpt lat="42.7934" lon="1.73397">
        <ele>1033.07</ele>
        <time>2015-03-29T07:53:16Z</time>
      </trkpt>
      <trkpt lat="42.79348" lon="1.734">
        <ele>1035.48</ele>
        <time>2015-03-29T07:53:31Z</time>
      </trkpt>
      <trkpt lat="42.79358" lon="1.73401">
        <ele>1037.4</ele>
        <time>2015-03-29T07:53:45Z</time>
      </trkpt>
      <trkpt lat="42.79367" lon="1.73398">
        <ele>1039.32</ele>
        <time>2015-03-29T07:53:58Z</time>
      </trkpt>
      <trkpt lat="42.79375" lon="1.73398">
        <ele>1041.25</ele>
        <time>2015-03-29T07:54:12Z</time>
      </trkpt>
      <trkpt lat="42.79378" lon="1.73398">
        <ele>1041.73</ele>
        <time>2015-03-29T07:54:16Z</time>
      </trkpt>
      <trkpt lat="42.79389" lon="1.734">
        <ele>1043.65</ele>
        <time>2015-03-29T07:54:31Z</time>
      </trkpt>
      <trkpt lat="42.79401" lon="1.73399">
        <ele>1045.57</ele>
        <time>2015-03-29T07:54:46Z</time>
      </trkpt>
      <trkpt lat="42.79405" lon="1.73399">
        <ele>1046.53</ele>
        <time>2015-03-29T07:55:01Z</time>
      </trkpt>
      <trkpt lat="42.79401" lon="1.73397">
        <ele>1043.17</ele>
        <time>2015-03-29T07:55:13Z</time>
      </trkpt>
      <trkpt lat="42.79401" lon="1.73393">
        <ele>1046.53</ele>
        <time>2015-03-29T07:55:34Z</time>
      </trkpt>
      <trkpt lat="42.79396" lon="1.73393">
        <ele>1045.57</ele>
        <time>2015-03-29T07:56:02Z</time>
      </trkpt>
      <trkpt lat="42.79402" lon="1.73398">
        <ele>1046.53</ele>
        <time>2015-03-29T07:56:21Z</time>
      </trkpt>
      <trkpt lat="42.79406" lon="1.73401">
        <ele>1047.01</ele>
        <time>2015-03-29T07:56:38Z</time>
      </trkpt>
      <trkpt lat="42.79416" lon="1.73398">
        <ele>1047.49</ele>
        <time>2015-03-29T07:56:50Z</time>
      </trkpt>
      <trkpt lat="42.79423" lon="1.73398">
        <ele>1047.97</ele>
        <time>2015-03-29T07:56:56Z</time>
      </trkpt>
      <trkpt lat="42.79435" lon="1.7339">
        <ele>1050.38</ele>
        <time>2015-03-29T07:57:11Z</time>
      </trkpt>
      <trkpt lat="42.79443" lon="1.7339">
        <ele>1052.78</ele>
        <time>2015-03-29T07:57:24Z</time>
      </trkpt>
      <trkpt lat="42.79447" lon="1.73391">
        <ele>1054.22</ele>
        <time>2015-03-29T07:57:35Z</time>
      </trkpt>
      <trkpt lat="42.79451" lon="1.73393">
        <ele>1055.18</ele>
        <time>2015-03-29T07:57:48Z</time>
      </trkpt>
      <trkpt lat="42.79457" lon="1.73399">
        <ele>1056.15</ele>
        <time>2015-03-29T07:58:00Z</time>
      </trkpt>
      <trkpt lat="42.79458" lon="1.73407">
        <ele>1057.11</ele>
        <time>2015-03-29T07:58:11Z</time>
      </trkpt>
      <trkpt lat="42.7946" lon="1.7341">
        <ele>1058.55</ele>
        <time>2015-03-29T07:58:25Z</time>
      </trkpt>
      <trkpt lat="42.79458" lon="1.73416">
        <ele>1059.03</ele>
        <time>2015-03-29T07:58:34Z</time>
      </trkpt>
      <trkpt lat="42.79457" lon="1.73439">
        <ele>1060.47</ele>
        <time>2015-03-29T07:58:51Z</time>
      </trkpt>
      <trkpt lat="42.79459" lon="1.73457">
        <ele>1061.91</ele>
        <time>2015-03-29T07:59:05Z</time>
      </trkpt>
      <trkpt lat="42.79464" lon="1.73468">
        <ele>1063.84</ele>
        <time>2015-03-29T07:59:18Z</time>
      </trkpt>
      <trkpt lat="42.79466" lon="1.73477">
        <ele>1066.24</ele>
        <time>2015-03-29T07:59:30Z</time>
      </trkpt>
      <trkpt lat="42.79469" lon="1.7349">
        <ele>1068.64</ele>
        <time>2015-03-29T07:59:44Z</time>
      </trkpt>
      <trkpt lat="42.79471" lon="1.73501">
        <ele>1070.57</ele>
        <time>2015-03-29T07:59:58Z</time>
      </trkpt>
      <trkpt lat="42.7947" lon="1.73511">
        <ele>1072.01</ele>
        <time>2015-03-29T08:00:10Z</time>
      </trkpt>
      <trkpt lat="42.79472" lon="1.73522">
        <ele>1074.41</ele>
        <time>2015-03-29T08:00:22Z</time>
      </trkpt>
      <trkpt lat="42.79473" lon="1.73536">
        <ele>1076.81</ele>
        <time>2015-03-29T08:00:36Z</time>
      </trkpt>
      <trkpt lat="42.79473" lon="1.73538">
        <ele>1076.81</ele>
        <time>2015-03-29T08:00:39Z</time>
      </trkpt>
      <trkpt lat="42.79475" lon="1.7355">
        <ele>1079.7</ele>
        <time>2015-03-29T08:00:51Z</time>
      </trkpt>
      <trkpt lat="42.79475" lon="1.73561">
        <ele>1082.1</ele>
        <time>2015-03-29T08:01:04Z</time>
      </trkpt>
      <trkpt lat="42.79476" lon="1.73574">
        <ele>1084.02</ele>
        <time>2015-03-29T08:01:18Z</time>
      </trkpt>
      <trkpt lat="42.79477" lon="1.73582">
        <ele>1086.43</ele>
        <time>2015-03-29T08:01:29Z</time>
      </trkpt>
      <trkpt lat="42.79482" lon="1.73582">
        <ele>1087.39</ele>
        <time>2015-03-29T08:01:42Z</time>
      </trkpt>
      <trkpt lat="42.79487" lon="1.73571">
        <ele>1088.35</ele>
        <time>2015-03-29T08:01:56Z</time>
      </trkpt>
      <trkpt lat="42.79493" lon="1.73567">
        <ele>1090.75</ele>
        <time>2015-03-29T08:02:09Z</time>
      </trkpt>
      <trkpt lat="42.79496" lon="1.73569">
        <ele>1091.71</ele>
        <time>2015-03-29T08:02:20Z</time>
      </trkpt>
      <trkpt lat="42.79497" lon="1.73568">
        <ele>1093.16</ele>
        <time>2015-03-29T08:02:23Z</time>
      </trkpt>
      <trkpt lat="42.79503" lon="1.7356">
        <ele>1094.6</ele>
        <time>2015-03-29T08:02:36Z</time>
      </trkpt>
      <trkpt lat="42.7951" lon="1.73557">
        <ele>1097.96</ele>
        <time>2015-03-29T08:02:50Z</time>
      </trkpt>
      <trkpt lat="42.79515" lon="1.73555">
        <ele>1099.89</ele>
        <time>2015-03-29T08:03:02Z</time>
      </trkpt>
      <trkpt lat="42.79521" lon="1.73548">
        <ele>1101.81</ele>
        <time>2015-03-29T08:03:15Z</time>
      </trkpt>
      <trkpt lat="42.79526" lon="1.73542">
        <ele>1104.21</ele>
        <time>2015-03-29T08:03:28Z</time>
      </trkpt>
      <trkpt lat="42.7953" lon="1.73537">
        <ele>1105.17</ele>
        <time>2015-03-29T08:03:38Z</time>
      </trkpt>
      <trkpt lat="42.79533" lon="1.73543">
        <ele>1107.1</ele>
        <time>2015-03-29T08:03:51Z</time>
      </trkpt>
      <trkpt lat="42.79533" lon="1.7355">
        <ele>1108.54</ele>
        <time>2015-03-29T08:04:03Z</time>
      </trkpt>
      <trkpt lat="42.79534" lon="1.7356">
        <ele>1110.46</ele>
        <time>2015-03-29T08:04:17Z</time>
      </trkpt>
      <trkpt lat="42.79534" lon="1.73567">
        <ele>1112.86</ele>
        <time>2015-03-29T08:04:28Z</time>
      </trkpt>
      <trkpt lat="42.7954" lon="1.73564">
        <ele>1114.79</ele>
        <time>2015-03-29T08:04:40Z</time>
      </trkpt>
      <trkpt lat="42.79541" lon="1.73572">
        <ele>1116.71</ele>
        <time>2015-03-29T08:04:52Z</time>
      </trkpt>
      <trkpt lat="42.79545" lon="1.73578">
        <ele>1119.11</ele>
        <time>2015-03-29T08:05:05Z</time>
      </trkpt>
      <trkpt lat="42.79546" lon="1.73585">
        <ele>1121.03</ele>
        <time>2015-03-29T08:05:18Z</time>
      </trkpt>
      <trkpt lat="42.7955" lon="1.73593">
        <ele>1122.96</ele>
        <time>2015-03-29T08:05:31Z</time>
      </trkpt>
      <trkpt lat="42.79549" lon="1.73599">
        <ele>1125.36</ele>
        <time>2015-03-29T08:05:43Z</time>
      </trkpt>
      <trkpt lat="42.79551" lon="1.73606">
        <ele>1126.8</ele>
        <time>2015-03-29T08:05:55Z</time>
      </trkpt>
      <trkpt lat="42.79548" lon="1.73614">
        <ele>1128.24</ele>
        <time>2015-03-29T08:06:08Z</time>
      </trkpt>
      <trkpt lat="42.7955" lon="1.73626">
        <ele>1130.17</ele>
        <time>2015-03-29T08:06:23Z</time>
      </trkpt>
      <trkpt lat="42.79554" lon="1.73634">
        <ele>1132.57</ele>
        <time>2015-03-29T08:06:38Z</time>
      </trkpt>
      <trkpt lat="42.79553" lon="1.73643">
        <ele>1134.49</ele>
        <time>2015-03-29T08:06:51Z</time>
      </trkpt>
      <trkpt lat="42.79551" lon="1.73655">
        <ele>1135.45</ele>
        <time>2015-03-29T08:07:04Z</time>
      </trkpt>
      <trkpt lat="42.79551" lon="1.73665">
        <ele>1137.38</ele>
        <time>2015-03-29T08:07:16Z</time>
      </trkpt>
      <trkpt lat="42.79549" lon="1.73676">
        <ele>1138.82</ele>
        <time>2015-03-29T08:07:29Z</time>
      </trkpt>
      <trkpt lat="42.79547" lon="1.73687">
        <ele>1140.74</ele>
        <time>2015-03-29T08:07:43Z</time>
      </trkpt>
      <trkpt lat="42.79545" lon="1.73697">
        <ele>1142.18</ele>
        <time>2015-03-29T08:07:56Z</time>
      </trkpt>
      <trkpt lat="42.79542" lon="1.73705">
        <ele>1143.63</ele>
        <time>2015-03-29T08:08:10Z</time>
      </trkpt>
      <trkpt lat="42.79539" lon="1.73712">
        <ele>1144.11</ele>
        <time>2015-03-29T08:08:21Z</time>
      </trkpt>
      <trkpt lat="42.79538" lon="1.7372">
        <ele>1146.03</ele>
        <time>2015-03-29T08:08:32Z</time>
      </trkpt>
      <trkpt lat="42.79536" lon="1.73727">
        <ele>1147.95</ele>
        <time>2015-03-29T08:08:45Z</time>
      </trkpt>
      <trkpt lat="42.79533" lon="1.73735">
        <ele>1150.35</ele>
        <time>2015-03-29T08:08:58Z</time>
      </trkpt>
      <trkpt lat="42.79528" lon="1.73747">
        <ele>1152.76</ele>
        <time>2015-03-29T08:09:13Z</time>
      </trkpt>
      <trkpt lat="42.79524" lon="1.73758">
        <ele>1155.16</ele>
        <time>2015-03-29T08:09:27Z</time>
      </trkpt>
      <trkpt lat="42.79521" lon="1.73767">
        <ele>1156.6</ele>
        <time>2015-03-29T08:09:39Z</time>
      </trkpt>
      <trkpt lat="42.79517" lon="1.73776">
        <ele>1158.05</ele>
        <time>2015-03-29T08:09:50Z</time>
      </trkpt>
      <trkpt lat="42.79517" lon="1.73787">
        <ele>1159.49</ele>
        <time>2015-03-29T08:10:03Z</time>
      </trkpt>
      <trkpt lat="42.7952" lon="1.73797">
        <ele>1161.89</ele>
        <time>2015-03-29T08:10:16Z</time>
      </trkpt>
      <trkpt lat="42.79522" lon="1.73807">
        <ele>1163.81</ele>
        <time>2015-03-29T08:10:30Z</time>
      </trkpt>
      <trkpt lat="42.79524" lon="1.73816">
        <ele>1166.22</ele>
        <time>2015-03-29T08:10:42Z</time>
      </trkpt>
      <trkpt lat="42.79526" lon="1.73825">
        <ele>1168.14</ele>
        <time>2015-03-29T08:10:54Z</time>
      </trkpt>
      <trkpt lat="42.79526" lon="1.73831">
        <ele>1170.06</ele>
        <time>2015-03-29T08:11:04Z</time>
      </trkpt>
      <trkpt lat="42.79527" lon="1.7383">
        <ele>1170.06</ele>
        <time>2015-03-29T08:11:23Z</time>
      </trkpt>
      <trkpt lat="42.79527" lon="1.73831">
        <ele>1169.58</ele>
        <time>2015-03-29T08:11:43Z</time>
      </trkpt>
      <trkpt lat="42.79526" lon="1.73831">
        <ele>1170.06</ele>
        <time>2015-03-29T08:12:08Z</time>
      </trkpt>
      <trkpt lat="42.79525" lon="1.73831">
        <ele>1170.06</ele>
        <time>2015-03-29T08:12:35Z</time>
      </trkpt>
      <trkpt lat="42.79526" lon="1.73829">
        <ele>1169.58</ele>
        <time>2015-03-29T08:12:58Z</time>
      </trkpt>
      <trkpt lat="42.79526" lon="1.73829">
        <ele>1170.06</ele>
        <time>2015-03-29T08:13:15Z</time>
      </trkpt>
      <trkpt lat="42.79527" lon="1.73832">
        <ele>1169.58</ele>
        <time>2015-03-29T08:13:36Z</time>
      </trkpt>
      <trkpt lat="42.79526" lon="1.73833">
        <ele>1169.58</ele>
        <time>2015-03-29T08:14:04Z</time>
      </trkpt>
      <trkpt lat="42.79526" lon="1.73832">
        <ele>1170.06</ele>
        <time>2015-03-29T08:14:26Z</time>
      </trkpt>
      <trkpt lat="42.79526" lon="1.73833">
        <ele>1170.06</ele>
        <time>2015-03-29T08:14:39Z</time>
      </trkpt>
      <trkpt lat="42.79527" lon="1.73833">
        <ele>1170.06</ele>
        <time>2015-03-29T08:15:01Z</time>
      </trkpt>
      <trkpt lat="42.79527" lon="1.73836">
        <ele>1170.54</ele>
        <time>2015-03-29T08:15:21Z</time>
      </trkpt>
      <trkpt lat="42.79529" lon="1.73843">
        <ele>1172.47</ele>
        <time>2015-03-29T08:15:32Z</time>
      </trkpt>
      <trkpt lat="42.7953" lon="1.73851">
        <ele>1173.91</ele>
        <time>2015-03-29T08:15:44Z</time>
      </trkpt>
      <trkpt lat="42.79529" lon="1.73857">
        <ele>1175.83</ele>
        <time>2015-03-29T08:15:55Z</time>
      </trkpt>
      <trkpt lat="42.79528" lon="1.73865">
        <ele>1177.27</ele>
        <time>2015-03-29T08:16:06Z</time>
      </trkpt>
      <trkpt lat="42.79527" lon="1.73873">
        <ele>1179.19</ele>
        <time>2015-03-29T08:16:17Z</time>
      </trkpt>
      <trkpt lat="42.79527" lon="1.73879">
        <ele>1180.16</ele>
        <time>2015-03-29T08:16:30Z</time>
      </trkpt>
      <trkpt lat="42.79525" lon="1.73888">
        <ele>1182.08</ele>
        <time>2015-03-29T08:16:43Z</time>
      </trkpt>
      <trkpt lat="42.79522" lon="1.73894">
        <ele>1183.52</ele>
        <time>2015-03-29T08:16:59Z</time>
      </trkpt>
      <trkpt lat="42.7952" lon="1.73899">
        <ele>1184</ele>
        <time>2015-03-29T08:17:08Z</time>
      </trkpt>
      <trkpt lat="42.7952" lon="1.73912">
        <ele>1185.44</ele>
        <time>2015-03-29T08:17:21Z</time>
      </trkpt>
      <trkpt lat="42.79519" lon="1.73924">
        <ele>1187.37</ele>
        <time>2015-03-29T08:17:34Z</time>
      </trkpt>
      <trkpt lat="42.79516" lon="1.73932">
        <ele>1189.29</ele>
        <time>2015-03-29T08:17:46Z</time>
      </trkpt>
      <trkpt lat="42.79515" lon="1.73937">
        <ele>1189.77</ele>
        <time>2015-03-29T08:17:51Z</time>
      </trkpt>
      <trkpt lat="42.79515" lon="1.73939">
        <ele>1190.25</ele>
        <time>2015-03-29T08:17:53Z</time>
      </trkpt>
      <trkpt lat="42.79518" lon="1.73957">
        <ele>1192.17</ele>
        <time>2015-03-29T08:18:08Z</time>
      </trkpt>
      <trkpt lat="42.79523" lon="1.73965">
        <ele>1193.61</ele>
        <time>2015-03-29T08:18:17Z</time>
      </trkpt>
      <trkpt lat="42.79531" lon="1.73973">
        <ele>1195.06</ele>
        <time>2015-03-29T08:18:30Z</time>
      </trkpt>
      <trkpt lat="42.79537" lon="1.73968">
        <ele>1196.5</ele>
        <time>2015-03-29T08:18:41Z</time>
      </trkpt>
      <trkpt lat="42.79542" lon="1.73961">
        <ele>1198.42</ele>
        <time>2015-03-29T08:18:54Z</time>
      </trkpt>
      <trkpt lat="42.79544" lon="1.73954">
        <ele>1199.86</ele>
        <time>2015-03-29T08:19:06Z</time>
      </trkpt>
      <trkpt lat="42.79545" lon="1.73952">
        <ele>1200.82</ele>
        <time>2015-03-29T08:19:27Z</time>
      </trkpt>
      <trkpt lat="42.79548" lon="1.73951">
        <ele>1200.82</ele>
        <time>2015-03-29T08:19:54Z</time>
      </trkpt>
      <trkpt lat="42.79554" lon="1.73943">
        <ele>1203.23</ele>
        <time>2015-03-29T08:20:08Z</time>
      </trkpt>
      <trkpt lat="42.7956" lon="1.73941">
        <ele>1204.67</ele>
        <time>2015-03-29T08:20:19Z</time>
      </trkpt>
      <trkpt lat="42.79568" lon="1.73942">
        <ele>1205.63</ele>
        <time>2015-03-29T08:20:33Z</time>
      </trkpt>
      <trkpt lat="42.79573" lon="1.73952">
        <ele>1207.55</ele>
        <time>2015-03-29T08:20:46Z</time>
      </trkpt>
      <trkpt lat="42.79578" lon="1.7396">
        <ele>1209</ele>
        <time>2015-03-29T08:21:00Z</time>
      </trkpt>
      <trkpt lat="42.79582" lon="1.73968">
        <ele>1211.4</ele>
        <time>2015-03-29T08:21:12Z</time>
      </trkpt>
      <trkpt lat="42.79589" lon="1.73968">
        <ele>1212.84</ele>
        <time>2015-03-29T08:21:23Z</time>
      </trkpt>
      <trkpt lat="42.79595" lon="1.73967">
        <ele>1213.8</ele>
        <time>2015-03-29T08:21:34Z</time>
      </trkpt>
      <trkpt lat="42.79602" lon="1.73967">
        <ele>1216.21</ele>
        <time>2015-03-29T08:21:47Z</time>
      </trkpt>
      <trkpt lat="42.79608" lon="1.73967">
        <ele>1217.65</ele>
        <time>2015-03-29T08:21:57Z</time>
      </trkpt>
      <trkpt lat="42.79617" lon="1.73972">
        <ele>1219.57</ele>
        <time>2015-03-29T08:22:12Z</time>
      </trkpt>
      <trkpt lat="42.79618" lon="1.73973">
        <ele>1221.01</ele>
        <time>2015-03-29T08:22:29Z</time>
      </trkpt>
      <trkpt lat="42.79621" lon="1.73977">
        <ele>1221.01</ele>
        <time>2015-03-29T08:22:34Z</time>
      </trkpt>
      <trkpt lat="42.79631" lon="1.73985">
        <ele>1222.45</ele>
        <time>2015-03-29T08:22:48Z</time>
      </trkpt>
      <trkpt lat="42.7964" lon="1.73989">
        <ele>1224.86</ele>
        <time>2015-03-29T08:23:01Z</time>
      </trkpt>
      <trkpt lat="42.79647" lon="1.73992">
        <ele>1225.34</ele>
        <time>2015-03-29T08:23:13Z</time>
      </trkpt>
      <trkpt lat="42.79653" lon="1.73996">
        <ele>1227.26</ele>
        <time>2015-03-29T08:23:25Z</time>
      </trkpt>
      <trkpt lat="42.7966" lon="1.73999">
        <ele>1228.22</ele>
        <time>2015-03-29T08:23:37Z</time>
      </trkpt>
      <trkpt lat="42.79666" lon="1.74003">
        <ele>1230.14</ele>
        <time>2015-03-29T08:23:49Z</time>
      </trkpt>
      <trkpt lat="42.79673" lon="1.74005">
        <ele>1232.07</ele>
        <time>2015-03-29T08:24:01Z</time>
      </trkpt>
      <trkpt lat="42.79677" lon="1.74004">
        <ele>1233.99</ele>
        <time>2015-03-29T08:24:11Z</time>
      </trkpt>
      <trkpt lat="42.79682" lon="1.7401">
        <ele>1235.91</ele>
        <time>2015-03-29T08:24:26Z</time>
      </trkpt>
      <trkpt lat="42.79682" lon="1.74008">
        <ele>1235.91</ele>
        <time>2015-03-29T08:24:48Z</time>
      </trkpt>
      <trkpt lat="42.79683" lon="1.74008">
        <ele>1235.91</ele>
        <time>2015-03-29T08:25:09Z</time>
      </trkpt>
      <trkpt lat="42.79683" lon="1.74008">
        <ele>1235.91</ele>
        <time>2015-03-29T08:25:30Z</time>
      </trkpt>
      <trkpt lat="42.79682" lon="1.74008">
        <ele>1235.43</ele>
        <time>2015-03-29T08:25:49Z</time>
      </trkpt>
      <trkpt lat="42.79683" lon="1.74008">
        <ele>1235.91</ele>
        <time>2015-03-29T08:26:12Z</time>
      </trkpt>
      <trkpt lat="42.79683" lon="1.74007">
        <ele>1235.91</ele>
        <time>2015-03-29T08:26:34Z</time>
      </trkpt>
      <trkpt lat="42.79683" lon="1.74008">
        <ele>1235.91</ele>
        <time>2015-03-29T08:27:02Z</time>
      </trkpt>
      <trkpt lat="42.79683" lon="1.74008">
        <ele>1236.39</ele>
        <time>2015-03-29T08:27:34Z</time>
      </trkpt>
      <trkpt lat="42.79684" lon="1.74009">
        <ele>1234.95</ele>
        <time>2015-03-29T08:28:04Z</time>
      </trkpt>
      <trkpt lat="42.79684" lon="1.74007">
        <ele>1235.43</ele>
        <time>2015-03-29T08:28:36Z</time>
      </trkpt>
      <trkpt lat="42.79684" lon="1.74008">
        <ele>1235.91</ele>
        <time>2015-03-29T08:29:01Z</time>
      </trkpt>
      <trkpt lat="42.79686" lon="1.74008">
        <ele>1236.87</ele>
        <time>2015-03-29T08:29:16Z</time>
      </trkpt>
      <trkpt lat="42.79694" lon="1.74011">
        <ele>1237.83</ele>
        <time>2015-03-29T08:29:30Z</time>
      </trkpt>
      <trkpt lat="42.797" lon="1.7401">
        <ele>1239.28</ele>
        <time>2015-03-29T08:29:43Z</time>
      </trkpt>
      <trkpt lat="42.79705" lon="1.74012">
        <ele>1240.72</ele>
        <time>2015-03-29T08:29:52Z</time>
      </trkpt>
      <trkpt lat="42.79712" lon="1.74013">
        <ele>1242.64</ele>
        <time>2015-03-29T08:30:04Z</time>
      </trkpt>
      <trkpt lat="42.79721" lon="1.74014">
        <ele>1245.04</ele>
        <time>2015-03-29T08:30:18Z</time>
      </trkpt>
      <trkpt lat="42.79731" lon="1.74015">
        <ele>1246.97</ele>
        <time>2015-03-29T08:30:32Z</time>
      </trkpt>
      <trkpt lat="42.7974" lon="1.74013">
        <ele>1248.89</ele>
        <time>2015-03-29T08:30:45Z</time>
      </trkpt>
      <trkpt lat="42.79749" lon="1.74015">
        <ele>1250.33</ele>
        <time>2015-03-29T08:30:59Z</time>
      </trkpt>
      <trkpt lat="42.79759" lon="1.74016">
        <ele>1251.29</ele>
        <time>2015-03-29T08:31:12Z</time>
      </trkpt>
      <trkpt lat="42.79767" lon="1.74016">
        <ele>1253.7</ele>
        <time>2015-03-29T08:31:25Z</time>
      </trkpt>
      <trkpt lat="42.79776" lon="1.74014">
        <ele>1255.14</ele>
        <time>2015-03-29T08:31:38Z</time>
      </trkpt>
      <trkpt lat="42.79784" lon="1.7401">
        <ele>1257.06</ele>
        <time>2015-03-29T08:31:52Z</time>
      </trkpt>
      <trkpt lat="42.79792" lon="1.74002">
        <ele>1258.02</ele>
        <time>2015-03-29T08:32:06Z</time>
      </trkpt>
      <trkpt lat="42.79801" lon="1.73993">
        <ele>1259.46</ele>
        <time>2015-03-29T08:32:21Z</time>
      </trkpt>
      <trkpt lat="42.79805" lon="1.73986">
        <ele>1260.91</ele>
        <time>2015-03-29T08:32:33Z</time>
      </trkpt>
      <trkpt lat="42.79811" lon="1.73976">
        <ele>1262.83</ele>
        <time>2015-03-29T08:32:47Z</time>
      </trkpt>
      <trkpt lat="42.79818" lon="1.73968">
        <ele>1264.75</ele>
        <time>2015-03-29T08:33:02Z</time>
      </trkpt>
      <trkpt lat="42.79823" lon="1.73964">
        <ele>1266.19</ele>
        <time>2015-03-29T08:33:14Z</time>
      </trkpt>
      <trkpt lat="42.7983" lon="1.73957">
        <ele>1267.64</ele>
        <time>2015-03-29T08:33:27Z</time>
      </trkpt>
      <trkpt lat="42.79835" lon="1.73952">
        <ele>1269.56</ele>
        <time>2015-03-29T08:33:40Z</time>
      </trkpt>
      <trkpt lat="42.7984" lon="1.73946">
        <ele>1271.96</ele>
        <time>2015-03-29T08:33:56Z</time>
      </trkpt>
      <trkpt lat="42.79845" lon="1.73939">
        <ele>1273.4</ele>
        <time>2015-03-29T08:34:11Z</time>
      </trkpt>
      <trkpt lat="42.7985" lon="1.73935">
        <ele>1274.85</ele>
        <time>2015-03-29T08:34:23Z</time>
      </trkpt>
      <trkpt lat="42.7986" lon="1.73929">
        <ele>1277.25</ele>
        <time>2015-03-29T08:34:37Z</time>
      </trkpt>
      <trkpt lat="42.79869" lon="1.73922">
        <ele>1278.21</ele>
        <time>2015-03-29T08:34:50Z</time>
      </trkpt>
      <trkpt lat="42.79871" lon="1.73921">
        <ele>1278.69</ele>
        <time>2015-03-29T08:34:53Z</time>
      </trkpt>
      <trkpt lat="42.79879" lon="1.73915">
        <ele>1281.09</ele>
        <time>2015-03-29T08:35:07Z</time>
      </trkpt>
      <trkpt lat="42.79886" lon="1.73905">
        <ele>1283.02</ele>
        <time>2015-03-29T08:35:23Z</time>
      </trkpt>
      <trkpt lat="42.79894" lon="1.73902">
        <ele>1284.46</ele>
        <time>2015-03-29T08:35:35Z</time>
      </trkpt>
      <trkpt lat="42.799" lon="1.73898">
        <ele>1286.38</ele>
        <time>2015-03-29T08:35:48Z</time>
      </trkpt>
      <trkpt lat="42.79907" lon="1.73895">
        <ele>1287.82</ele>
        <time>2015-03-29T08:36:02Z</time>
      </trkpt>
      <trkpt lat="42.79914" lon="1.73892">
        <ele>1289.75</ele>
        <time>2015-03-29T08:36:16Z</time>
      </trkpt>
      <trkpt lat="42.79921" lon="1.73891">
        <ele>1291.67</ele>
        <time>2015-03-29T08:36:31Z</time>
      </trkpt>
      <trkpt lat="42.79926" lon="1.73895">
        <ele>1293.11</ele>
        <time>2015-03-29T08:36:44Z</time>
      </trkpt>
      <trkpt lat="42.79936" lon="1.73897">
        <ele>1293.59</ele>
        <time>2015-03-29T08:36:57Z</time>
      </trkpt>
      <trkpt lat="42.79944" lon="1.73902">
        <ele>1296.48</ele>
        <time>2015-03-29T08:37:11Z</time>
      </trkpt>
      <trkpt lat="42.7995" lon="1.73904">
        <ele>1297.92</ele>
        <time>2015-03-29T08:37:23Z</time>
      </trkpt>
      <trkpt lat="42.79959" lon="1.73908">
        <ele>1300.32</ele>
        <time>2015-03-29T08:37:39Z</time>
      </trkpt>
      <trkpt lat="42.79965" lon="1.73914">
        <ele>1301.28</ele>
        <time>2015-03-29T08:37:53Z</time>
      </trkpt>
      <trkpt lat="42.7997" lon="1.73921">
        <ele>1302.24</ele>
        <time>2015-03-29T08:38:05Z</time>
      </trkpt>
      <trkpt lat="42.79977" lon="1.73933">
        <ele>1303.69</ele>
        <time>2015-03-29T08:38:21Z</time>
      </trkpt>
      <trkpt lat="42.79983" lon="1.73943">
        <ele>1304.65</ele>
        <time>2015-03-29T08:38:34Z</time>
      </trkpt>
      <trkpt lat="42.79989" lon="1.73949">
        <ele>1307.05</ele>
        <time>2015-03-29T08:38:46Z</time>
      </trkpt>
      <trkpt lat="42.79997" lon="1.73954">
        <ele>1308.49</ele>
        <time>2015-03-29T08:39:00Z</time>
      </trkpt>
      <trkpt lat="42.80004" lon="1.73961">
        <ele>1309.93</ele>
        <time>2015-03-29T08:39:13Z</time>
      </trkpt>
      <trkpt lat="42.80012" lon="1.73972">
        <ele>1311.38</ele>
        <time>2015-03-29T08:39:29Z</time>
      </trkpt>
      <trkpt lat="42.80017" lon="1.73982">
        <ele>1312.34</ele>
        <time>2015-03-29T08:39:41Z</time>
      </trkpt>
      <trkpt lat="42.80021" lon="1.73991">
        <ele>1314.74</ele>
        <time>2015-03-29T08:39:54Z</time>
      </trkpt>
      <trkpt lat="42.80024" lon="1.74002">
        <ele>1316.18</ele>
        <time>2015-03-29T08:40:08Z</time>
      </trkpt>
      <trkpt lat="42.80028" lon="1.74014">
        <ele>1317.62</ele>
        <time>2015-03-29T08:40:21Z</time>
      </trkpt>
      <trkpt lat="42.80034" lon="1.74021">
        <ele>1320.51</ele>
        <time>2015-03-29T08:40:33Z</time>
      </trkpt>
      <trkpt lat="42.80039" lon="1.74028">
        <ele>1322.43</ele>
        <time>2015-03-29T08:40:49Z</time>
      </trkpt>
      <trkpt lat="42.80048" lon="1.74029">
        <ele>1324.35</ele>
        <time>2015-03-29T08:41:03Z</time>
      </trkpt>
      <trkpt lat="42.80052" lon="1.74034">
        <ele>1326.28</ele>
        <time>2015-03-29T08:41:16Z</time>
      </trkpt>
      <trkpt lat="42.80058" lon="1.7404">
        <ele>1328.2</ele>
        <time>2015-03-29T08:41:30Z</time>
      </trkpt>
      <trkpt lat="42.80061" lon="1.74046">
        <ele>1329.64</ele>
        <time>2015-03-29T08:41:43Z</time>
      </trkpt>
      <trkpt lat="42.80064" lon="1.74048">
        <ele>1330.6</ele>
        <time>2015-03-29T08:41:58Z</time>
      </trkpt>
      <trkpt lat="42.80071" lon="1.74047">
        <ele>1332.04</ele>
        <time>2015-03-29T08:42:11Z</time>
      </trkpt>
      <trkpt lat="42.80075" lon="1.74049">
        <ele>1333.01</ele>
        <time>2015-03-29T08:42:23Z</time>
      </trkpt>
      <trkpt lat="42.8008" lon="1.74051">
        <ele>1334.45</ele>
        <time>2015-03-29T08:42:39Z</time>
      </trkpt>
      <trkpt lat="42.80084" lon="1.74048">
        <ele>1336.37</ele>
        <time>2015-03-29T08:42:51Z</time>
      </trkpt>
      <trkpt lat="42.80088" lon="1.74046">
        <ele>1338.77</ele>
        <time>2015-03-29T08:43:02Z</time>
      </trkpt>
      <trkpt lat="42.80095" lon="1.74048">
        <ele>1340.7</ele>
        <time>2015-03-29T08:43:17Z</time>
      </trkpt>
      <trkpt lat="42.80101" lon="1.74051">
        <ele>1341.66</ele>
        <time>2015-03-29T08:43:29Z</time>
      </trkpt>
      <trkpt lat="42.80109" lon="1.74049">
        <ele>1343.58</ele>
        <time>2015-03-29T08:43:44Z</time>
      </trkpt>
      <trkpt lat="42.80111" lon="1.74049">
        <ele>1344.06</ele>
        <time>2015-03-29T08:43:57Z</time>
      </trkpt>
      <trkpt lat="42.80114" lon="1.74046">
        <ele>1345.02</ele>
        <time>2015-03-29T08:44:18Z</time>
      </trkpt>
      <trkpt lat="42.80116" lon="1.74039">
        <ele>1346.94</ele>
        <time>2015-03-29T08:44:31Z</time>
      </trkpt>
      <trkpt lat="42.80114" lon="1.74037">
        <ele>1347.43</ele>
        <time>2015-03-29T08:44:34Z</time>
      </trkpt>
      <trkpt lat="42.80118" lon="1.74031">
        <ele>1350.31</ele>
        <time>2015-03-29T08:44:46Z</time>
      </trkpt>
      <trkpt lat="42.80123" lon="1.74029">
        <ele>1351.75</ele>
        <time>2015-03-29T08:44:57Z</time>
      </trkpt>
      <trkpt lat="42.80127" lon="1.74029">
        <ele>1353.19</ele>
        <time>2015-03-29T08:45:07Z</time>
      </trkpt>
      <trkpt lat="42.80133" lon="1.74026">
        <ele>1355.12</ele>
        <time>2015-03-29T08:45:22Z</time>
      </trkpt>
      <trkpt lat="42.80139" lon="1.74028">
        <ele>1357.52</ele>
        <time>2015-03-29T08:45:36Z</time>
      </trkpt>
      <trkpt lat="42.80143" lon="1.74022">
        <ele>1359.44</ele>
        <time>2015-03-29T08:45:49Z</time>
      </trkpt>
      <trkpt lat="42.80149" lon="1.74024">
        <ele>1361.36</ele>
        <time>2015-03-29T08:46:03Z</time>
      </trkpt>
      <trkpt lat="42.8016" lon="1.74028">
        <ele>1363.29</ele>
        <time>2015-03-29T08:46:18Z</time>
      </trkpt>
      <trkpt lat="42.80168" lon="1.7403">
        <ele>1364.25</ele>
        <time>2015-03-29T08:46:31Z</time>
      </trkpt>
      <trkpt lat="42.80174" lon="1.74033">
        <ele>1365.69</ele>
        <time>2015-03-29T08:46:42Z</time>
      </trkpt>
      <trkpt lat="42.80181" lon="1.74035">
        <ele>1367.13</ele>
        <time>2015-03-29T08:46:55Z</time>
      </trkpt>
      <trkpt lat="42.80189" lon="1.74034">
        <ele>1369.54</ele>
        <time>2015-03-29T08:47:09Z</time>
      </trkpt>
      <trkpt lat="42.80197" lon="1.74034">
        <ele>1371.46</ele>
        <time>2015-03-29T08:47:24Z</time>
      </trkpt>
      <trkpt lat="42.80205" lon="1.74033">
        <ele>1373.38</ele>
        <time>2015-03-29T08:47:39Z</time>
      </trkpt>
      <trkpt lat="42.80212" lon="1.74032">
        <ele>1374.82</ele>
        <time>2015-03-29T08:47:52Z</time>
      </trkpt>
      <trkpt lat="42.80219" lon="1.74028">
        <ele>1377.23</ele>
        <time>2015-03-29T08:48:08Z</time>
      </trkpt>
      <trkpt lat="42.80224" lon="1.74029">
        <ele>1379.63</ele>
        <time>2015-03-29T08:48:21Z</time>
      </trkpt>
      <trkpt lat="42.80228" lon="1.74033">
        <ele>1380.11</ele>
        <time>2015-03-29T08:48:35Z</time>
      </trkpt>
      <trkpt lat="42.80236" lon="1.74037">
        <ele>1381.07</ele>
        <time>2015-03-29T08:48:54Z</time>
      </trkpt>
      <trkpt lat="42.80244" lon="1.74042">
        <ele>1381.55</ele>
        <time>2015-03-29T08:49:08Z</time>
      </trkpt>
      <trkpt lat="42.80249" lon="1.74045">
        <ele>1382.03</ele>
        <time>2015-03-29T08:49:15Z</time>
      </trkpt>
      <trkpt lat="42.80257" lon="1.74053">
        <ele>1382.99</ele>
        <time>2015-03-29T08:49:30Z</time>
      </trkpt>
      <trkpt lat="42.80266" lon="1.74059">
        <ele>1383.96</ele>
        <time>2015-03-29T08:49:42Z</time>
      </trkpt>
      <trkpt lat="42.80267" lon="1.74059">
        <ele>1384.44</ele>
        <time>2015-03-29T08:49:44Z</time>
      </trkpt>
      <trkpt lat="42.80272" lon="1.74061">
        <ele>1385.4</ele>
        <time>2015-03-29T08:49:56Z</time>
      </trkpt>
      <trkpt lat="42.80277" lon="1.74066">
        <ele>1385.88</ele>
        <time>2015-03-29T08:50:06Z</time>
      </trkpt>
      <trkpt lat="42.80281" lon="1.74074">
        <ele>1386.84</ele>
        <time>2015-03-29T08:50:18Z</time>
      </trkpt>
      <trkpt lat="42.80285" lon="1.74081">
        <ele>1388.28</ele>
        <time>2015-03-29T08:50:30Z</time>
      </trkpt>
      <trkpt lat="42.80286" lon="1.74092">
        <ele>1391.17</ele>
        <time>2015-03-29T08:50:44Z</time>
      </trkpt>
      <trkpt lat="42.80285" lon="1.741">
        <ele>1391.65</ele>
        <time>2015-03-29T08:50:55Z</time>
      </trkpt>
      <trkpt lat="42.80285" lon="1.74099">
        <ele>1391.65</ele>
        <time>2015-03-29T08:51:13Z</time>
      </trkpt>
      <trkpt lat="42.80285" lon="1.74107">
        <ele>1392.13</ele>
        <time>2015-03-29T08:51:33Z</time>
      </trkpt>
      <trkpt lat="42.80286" lon="1.74112">
        <ele>1393.09</ele>
        <time>2015-03-29T08:51:50Z</time>
      </trkpt>
      <trkpt lat="42.80285" lon="1.74113">
        <ele>1393.57</ele>
        <time>2015-03-29T08:52:06Z</time>
      </trkpt>
      <trkpt lat="42.80285" lon="1.74114">
        <ele>1394.05</ele>
        <time>2015-03-29T08:52:33Z</time>
      </trkpt>
      <trkpt lat="42.80287" lon="1.74115">
        <ele>1393.09</ele>
        <time>2015-03-29T08:52:52Z</time>
      </trkpt>
      <trkpt lat="42.80286" lon="1.74114">
        <ele>1393.57</ele>
        <time>2015-03-29T08:53:12Z</time>
      </trkpt>
      <trkpt lat="42.80286" lon="1.74115">
        <ele>1393.57</ele>
        <time>2015-03-29T08:53:38Z</time>
      </trkpt>
      <trkpt lat="42.80286" lon="1.74115">
        <ele>1393.09</ele>
        <time>2015-03-29T08:54:00Z</time>
      </trkpt>
      <trkpt lat="42.80284" lon="1.74116">
        <ele>1393.57</ele>
        <time>2015-03-29T08:54:14Z</time>
      </trkpt>
      <trkpt lat="42.80284" lon="1.74116">
        <ele>1393.57</ele>
        <time>2015-03-29T08:54:42Z</time>
      </trkpt>
      <trkpt lat="42.80285" lon="1.74116">
        <ele>1394.53</ele>
        <time>2015-03-29T08:55:12Z</time>
      </trkpt>
      <trkpt lat="42.80286" lon="1.74116">
        <ele>1394.53</ele>
        <time>2015-03-29T08:55:31Z</time>
      </trkpt>
      <trkpt lat="42.80286" lon="1.74116">
        <ele>1394.05</ele>
        <time>2015-03-29T08:55:44Z</time>
      </trkpt>
      <trkpt lat="42.80285" lon="1.74117">
        <ele>1394.05</ele>
        <time>2015-03-29T08:56:00Z</time>
      </trkpt>
      <trkpt lat="42.80284" lon="1.74123">
        <ele>1394.05</ele>
        <time>2015-03-29T08:56:21Z</time>
      </trkpt>
      <trkpt lat="42.80288" lon="1.74133">
        <ele>1395.97</ele>
        <time>2015-03-29T08:56:34Z</time>
      </trkpt>
      <trkpt lat="42.8029" lon="1.7414">
        <ele>1397.89</ele>
        <time>2015-03-29T08:56:46Z</time>
      </trkpt>
      <trkpt lat="42.80292" lon="1.74147">
        <ele>1399.82</ele>
        <time>2015-03-29T08:57:00Z</time>
      </trkpt>
      <trkpt lat="42.80294" lon="1.74155">
        <ele>1401.26</ele>
        <time>2015-03-29T08:57:12Z</time>
      </trkpt>
      <trkpt lat="42.80295" lon="1.74161">
        <ele>1402.22</ele>
        <time>2015-03-29T08:57:25Z</time>
      </trkpt>
      <trkpt lat="42.80295" lon="1.74167">
        <ele>1403.66</ele>
        <time>2015-03-29T08:57:37Z</time>
      </trkpt>
      <trkpt lat="42.80296" lon="1.74176">
        <ele>1404.62</ele>
        <time>2015-03-29T08:57:53Z</time>
      </trkpt>
      <trkpt lat="42.80297" lon="1.74188">
        <ele>1406.55</ele>
        <time>2015-03-29T08:58:05Z</time>
      </trkpt>
      <trkpt lat="42.80299" lon="1.74201">
        <ele>1407.99</ele>
        <time>2015-03-29T08:58:18Z</time>
      </trkpt>
      <trkpt lat="42.80303" lon="1.74217">
        <ele>1409.43</ele>
        <time>2015-03-29T08:58:34Z</time>
      </trkpt>
      <trkpt lat="42.80304" lon="1.74224">
        <ele>1410.39</ele>
        <time>2015-03-29T08:58:47Z</time>
      </trkpt>
      <trkpt lat="42.80303" lon="1.74236">
        <ele>1412.31</ele>
        <time>2015-03-29T08:58:59Z</time>
      </trkpt>
      <trkpt lat="42.80307" lon="1.74247">
        <ele>1413.76</ele>
        <time>2015-03-29T08:59:12Z</time>
      </trkpt>
      <trkpt lat="42.80311" lon="1.7426">
        <ele>1414.72</ele>
        <time>2015-03-29T08:59:26Z</time>
      </trkpt>
      <trkpt lat="42.80314" lon="1.7427">
        <ele>1416.16</ele>
        <time>2015-03-29T08:59:40Z</time>
      </trkpt>
      <trkpt lat="42.80317" lon="1.7428">
        <ele>1419.04</ele>
        <time>2015-03-29T08:59:53Z</time>
      </trkpt>
      <trkpt lat="42.80321" lon="1.7429">
        <ele>1420.97</ele>
        <time>2015-03-29T09:00:05Z</time>
      </trkpt>
      <trkpt lat="42.80321" lon="1.74303">
        <ele>1422.89</ele>
        <time>2015-03-29T09:00:20Z</time>
      </trkpt>
      <trkpt lat="42.8032" lon="1.74307">
        <ele>1422.41</ele>
        <time>2015-03-29T09:00:34Z</time>
      </trkpt>
      <trkpt lat="42.80322" lon="1.74313">
        <ele>1423.85</ele>
        <time>2015-03-29T09:00:54Z</time>
      </trkpt>
      <trkpt lat="42.80326" lon="1.74318">
        <ele>1425.77</ele>
        <time>2015-03-29T09:01:03Z</time>
      </trkpt>
      <trkpt lat="42.80329" lon="1.74329">
        <ele>1427.21</ele>
        <time>2015-03-29T09:01:16Z</time>
      </trkpt>
      <trkpt lat="42.80333" lon="1.74337">
        <ele>1428.66</ele>
        <time>2015-03-29T09:01:29Z</time>
      </trkpt>
      <trkpt lat="42.80334" lon="1.74337">
        <ele>1430.58</ele>
        <time>2015-03-29T09:01:48Z</time>
      </trkpt>
      <trkpt lat="42.80336" lon="1.74342">
        <ele>1430.58</ele>
        <time>2015-03-29T09:01:54Z</time>
      </trkpt>
      <trkpt lat="42.80337" lon="1.74345">
        <ele>1431.06</ele>
        <time>2015-03-29T09:01:57Z</time>
      </trkpt>
      <trkpt lat="42.80339" lon="1.74354">
        <ele>1432.02</ele>
        <time>2015-03-29T09:02:06Z</time>
      </trkpt>
      <trkpt lat="42.80342" lon="1.74362">
        <ele>1433.46</ele>
        <time>2015-03-29T09:02:18Z</time>
      </trkpt>
      <trkpt lat="42.80346" lon="1.74371">
        <ele>1435.39</ele>
        <time>2015-03-29T09:02:30Z</time>
      </trkpt>
      <trkpt lat="42.80351" lon="1.74382">
        <ele>1437.79</ele>
        <time>2015-03-29T09:02:43Z</time>
      </trkpt>
      <trkpt lat="42.80355" lon="1.74388">
        <ele>1440.19</ele>
        <time>2015-03-29T09:02:55Z</time>
      </trkpt>
      <trkpt lat="42.80361" lon="1.74393">
        <ele>1441.63</ele>
        <time>2015-03-29T09:03:07Z</time>
      </trkpt>
      <trkpt lat="42.80366" lon="1.74398">
        <ele>1444.04</ele>
        <time>2015-03-29T09:03:21Z</time>
      </trkpt>
      <trkpt lat="42.80372" lon="1.74402">
        <ele>1445.96</ele>
        <time>2015-03-29T09:03:35Z</time>
      </trkpt>
      <trkpt lat="42.8037" lon="1.74399">
        <ele>1445.48</ele>
        <time>2015-03-29T09:03:58Z</time>
      </trkpt>
      <trkpt lat="42.80372" lon="1.74399">
        <ele>1445.96</ele>
        <time>2015-03-29T09:04:20Z</time>
      </trkpt>
      <trkpt lat="42.80371" lon="1.744">
        <ele>1445</ele>
        <time>2015-03-29T09:04:51Z</time>
      </trkpt>
      <trkpt lat="42.80372" lon="1.74398">
        <ele>1445.48</ele>
        <time>2015-03-29T09:05:25Z</time>
      </trkpt>
      <trkpt lat="42.80374" lon="1.74404">
        <ele>1445</ele>
        <time>2015-03-29T09:05:50Z</time>
      </trkpt>
      <trkpt lat="42.8038" lon="1.7441">
        <ele>1447.4</ele>
        <time>2015-03-29T09:06:04Z</time>
      </trkpt>
      <trkpt lat="42.80385" lon="1.74417">
        <ele>1449.81</ele>
        <time>2015-03-29T09:06:16Z</time>
      </trkpt>
      <trkpt lat="42.80388" lon="1.7442">
        <ele>1451.25</ele>
        <time>2015-03-29T09:06:22Z</time>
      </trkpt>
      <trkpt lat="42.80395" lon="1.74428">
        <ele>1453.17</ele>
        <time>2015-03-29T09:06:36Z</time>
      </trkpt>
      <trkpt lat="42.804" lon="1.74432">
        <ele>1456.53</ele>
        <time>2015-03-29T09:06:49Z</time>
      </trkpt>
      <trkpt lat="42.80404" lon="1.74432">
        <ele>1455.57</ele>
        <time>2015-03-29T09:07:03Z</time>
      </trkpt>
      <trkpt lat="42.80402" lon="1.74422">
        <ele>1457.98</ele>
        <time>2015-03-29T09:07:12Z</time>
      </trkpt>
      <trkpt lat="42.80402" lon="1.74408">
        <ele>1458.46</ele>
        <time>2015-03-29T09:07:27Z</time>
      </trkpt>
      <trkpt lat="42.80404" lon="1.74401">
        <ele>1459.9</ele>
        <time>2015-03-29T09:07:40Z</time>
      </trkpt>
      <trkpt lat="42.80405" lon="1.74394">
        <ele>1461.34</ele>
        <time>2015-03-29T09:07:55Z</time>
      </trkpt>
      <trkpt lat="42.80404" lon="1.74381">
        <ele>1463.26</ele>
        <time>2015-03-29T09:08:08Z</time>
      </trkpt>
      <trkpt lat="42.80405" lon="1.7438">
        <ele>1464.71</ele>
        <time>2015-03-29T09:08:21Z</time>
      </trkpt>
      <trkpt lat="42.80408" lon="1.74384">
        <ele>1466.63</ele>
        <time>2015-03-29T09:08:34Z</time>
      </trkpt>
      <trkpt lat="42.80415" lon="1.74388">
        <ele>1469.51</ele>
        <time>2015-03-29T09:08:49Z</time>
      </trkpt>
      <trkpt lat="42.80422" lon="1.74396">
        <ele>1471.44</ele>
        <time>2015-03-29T09:09:04Z</time>
      </trkpt>
      <trkpt lat="42.80429" lon="1.74395">
        <ele>1472.88</ele>
        <time>2015-03-29T09:09:18Z</time>
      </trkpt>
      <trkpt lat="42.80433" lon="1.74399">
        <ele>1473.84</ele>
        <time>2015-03-29T09:09:30Z</time>
      </trkpt>
      <trkpt lat="42.80437" lon="1.74394">
        <ele>1476.24</ele>
        <time>2015-03-29T09:09:43Z</time>
      </trkpt>
      <trkpt lat="42.80437" lon="1.74381">
        <ele>1478.16</ele>
        <time>2015-03-29T09:09:57Z</time>
      </trkpt>
      <trkpt lat="42.80435" lon="1.74374">
        <ele>1478.65</ele>
        <time>2015-03-29T09:10:04Z</time>
      </trkpt>
      <trkpt lat="42.80434" lon="1.74368">
        <ele>1479.13</ele>
        <time>2015-03-29T09:10:09Z</time>
      </trkpt>
      <trkpt lat="42.80432" lon="1.74353">
        <ele>1480.09</ele>
        <time>2015-03-29T09:10:24Z</time>
      </trkpt>
      <trkpt lat="42.80431" lon="1.74343">
        <ele>1482.97</ele>
        <time>2015-03-29T09:10:37Z</time>
      </trkpt>
      <trkpt lat="42.80431" lon="1.74332">
        <ele>1484.41</ele>
        <time>2015-03-29T09:10:50Z</time>
      </trkpt>
      <trkpt lat="42.80432" lon="1.74323">
        <ele>1485.85</ele>
        <time>2015-03-29T09:11:03Z</time>
      </trkpt>
      <trkpt lat="42.80435" lon="1.74328">
        <ele>1488.26</ele>
        <time>2015-03-29T09:11:18Z</time>
      </trkpt>
      <trkpt lat="42.80441" lon="1.74334">
        <ele>1490.18</ele>
        <time>2015-03-29T09:11:31Z</time>
      </trkpt>
      <trkpt lat="42.80448" lon="1.74343">
        <ele>1492.1</ele>
        <time>2015-03-29T09:11:48Z</time>
      </trkpt>
      <trkpt lat="42.80455" lon="1.74347">
        <ele>1495.47</ele>
        <time>2015-03-29T09:12:02Z</time>
      </trkpt>
      <trkpt lat="42.8046" lon="1.74355">
        <ele>1497.39</ele>
        <time>2015-03-29T09:12:17Z</time>
      </trkpt>
      <trkpt lat="42.80467" lon="1.74361">
        <ele>1499.31</ele>
        <time>2015-03-29T09:12:31Z</time>
      </trkpt>
      <trkpt lat="42.80469" lon="1.74364">
        <ele>1500.76</ele>
        <time>2015-03-29T09:12:44Z</time>
      </trkpt>
      <trkpt lat="42.80474" lon="1.7437">
        <ele>1502.2</ele>
        <time>2015-03-29T09:12:58Z</time>
      </trkpt>
      <trkpt lat="42.80479" lon="1.74376">
        <ele>1503.16</ele>
        <time>2015-03-29T09:13:10Z</time>
      </trkpt>
      <trkpt lat="42.80483" lon="1.74381">
        <ele>1504.6</ele>
        <time>2015-03-29T09:13:22Z</time>
      </trkpt>
      <trkpt lat="42.80487" lon="1.74388">
        <ele>1506.04</ele>
        <time>2015-03-29T09:13:37Z</time>
      </trkpt>
      <trkpt lat="42.80487" lon="1.74389">
        <ele>1507</ele>
        <time>2015-03-29T09:13:59Z</time>
      </trkpt>
      <trkpt lat="42.80489" lon="1.74388">
        <ele>1507.97</ele>
        <time>2015-03-29T09:14:24Z</time>
      </trkpt>
      <trkpt lat="42.80492" lon="1.74394">
        <ele>1509.41</ele>
        <time>2015-03-29T09:14:35Z</time>
      </trkpt>
      <trkpt lat="42.80497" lon="1.74398">
        <ele>1511.33</ele>
        <time>2015-03-29T09:14:48Z</time>
      </trkpt>
      <trkpt lat="42.80503" lon="1.74405">
        <ele>1513.73</ele>
        <time>2015-03-29T09:15:02Z</time>
      </trkpt>
      <trkpt lat="42.8051" lon="1.74412">
        <ele>1516.62</ele>
        <time>2015-03-29T09:15:16Z</time>
      </trkpt>
      <trkpt lat="42.80515" lon="1.74416">
        <ele>1518.54</ele>
        <time>2015-03-29T09:15:29Z</time>
      </trkpt>
      <trkpt lat="42.80518" lon="1.7442">
        <ele>1518.06</ele>
        <time>2015-03-29T09:15:43Z</time>
      </trkpt>
      <trkpt lat="42.80521" lon="1.74418">
        <ele>1518.54</ele>
        <time>2015-03-29T09:15:56Z</time>
      </trkpt>
      <trkpt lat="42.80527" lon="1.74427">
        <ele>1519.5</ele>
        <time>2015-03-29T09:16:13Z</time>
      </trkpt>
      <trkpt lat="42.80534" lon="1.74431">
        <ele>1520.94</ele>
        <time>2015-03-29T09:16:27Z</time>
      </trkpt>
      <trkpt lat="42.80537" lon="1.74435">
        <ele>1521.42</ele>
        <time>2015-03-29T09:16:33Z</time>
      </trkpt>
      <trkpt lat="42.8054" lon="1.74439">
        <ele>1521.9</ele>
        <time>2015-03-29T09:16:38Z</time>
      </trkpt>
      <trkpt lat="42.80542" lon="1.74442">
        <ele>1521.9</ele>
        <time>2015-03-29T09:16:42Z</time>
      </trkpt>
      <trkpt lat="42.80549" lon="1.74448">
        <ele>1523.83</ele>
        <time>2015-03-29T09:16:55Z</time>
      </trkpt>
      <trkpt lat="42.80556" lon="1.74458">
        <ele>1526.23</ele>
        <time>2015-03-29T09:17:10Z</time>
      </trkpt>
      <trkpt lat="42.80565" lon="1.74463">
        <ele>1527.67</ele>
        <time>2015-03-29T09:17:26Z</time>
      </trkpt>
      <trkpt lat="42.80572" lon="1.74465">
        <ele>1530.08</ele>
        <time>2015-03-29T09:17:37Z</time>
      </trkpt>
      <trkpt lat="42.80577" lon="1.74465">
        <ele>1532.96</ele>
        <time>2015-03-29T09:17:51Z</time>
      </trkpt>
      <trkpt lat="42.80581" lon="1.74466">
        <ele>1535.36</ele>
        <time>2015-03-29T09:18:03Z</time>
      </trkpt>
      <trkpt lat="42.80582" lon="1.74466">
        <ele>1535.36</ele>
        <time>2015-03-29T09:18:21Z</time>
      </trkpt>
      <trkpt lat="42.8059" lon="1.74471">
        <ele>1537.77</ele>
        <time>2015-03-29T09:18:35Z</time>
      </trkpt>
      <trkpt lat="42.80594" lon="1.74471">
        <ele>1539.69</ele>
        <time>2015-03-29T09:18:48Z</time>
      </trkpt>
      <trkpt lat="42.80601" lon="1.74472">
        <ele>1541.13</ele>
        <time>2015-03-29T09:19:04Z</time>
      </trkpt>
      <trkpt lat="42.80607" lon="1.74476">
        <ele>1542.57</ele>
        <time>2015-03-29T09:19:21Z</time>
      </trkpt>
      <trkpt lat="42.80613" lon="1.74477">
        <ele>1543.05</ele>
        <time>2015-03-29T09:19:34Z</time>
      </trkpt>
      <trkpt lat="42.80615" lon="1.74477">
        <ele>1543.53</ele>
        <time>2015-03-29T09:19:55Z</time>
      </trkpt>
      <trkpt lat="42.80621" lon="1.74482">
        <ele>1544.5</ele>
        <time>2015-03-29T09:20:10Z</time>
      </trkpt>
      <trkpt lat="42.80626" lon="1.74484">
        <ele>1546.42</ele>
        <time>2015-03-29T09:20:25Z</time>
      </trkpt>
      <trkpt lat="42.80629" lon="1.74488">
        <ele>1547.38</ele>
        <time>2015-03-29T09:20:42Z</time>
      </trkpt>
      <trkpt lat="42.80631" lon="1.74483">
        <ele>1548.34</ele>
        <time>2015-03-29T09:21:00Z</time>
      </trkpt>
      <trkpt lat="42.80636" lon="1.74478">
        <ele>1549.78</ele>
        <time>2015-03-29T09:21:18Z</time>
      </trkpt>
      <trkpt lat="42.80639" lon="1.74478">
        <ele>1551.22</ele>
        <time>2015-03-29T09:21:34Z</time>
      </trkpt>
      <trkpt lat="42.8064" lon="1.74474">
        <ele>1551.22</ele>
        <time>2015-03-29T09:21:48Z</time>
      </trkpt>
      <trkpt lat="42.80638" lon="1.74474">
        <ele>1550.74</ele>
        <time>2015-03-29T09:22:11Z</time>
      </trkpt>
      <trkpt lat="42.80639" lon="1.74476">
        <ele>1551.71</ele>
        <time>2015-03-29T09:22:35Z</time>
      </trkpt>
      <trkpt lat="42.8064" lon="1.74473">
        <ele>1551.71</ele>
        <time>2015-03-29T09:22:53Z</time>
      </trkpt>
      <trkpt lat="42.80643" lon="1.74467">
        <ele>1552.67</ele>
        <time>2015-03-29T09:23:12Z</time>
      </trkpt>
      <trkpt lat="42.80636" lon="1.74465">
        <ele>1552.67</ele>
        <time>2015-03-29T09:23:26Z</time>
      </trkpt>
      <trkpt lat="42.80637" lon="1.74466">
        <ele>1552.19</ele>
        <time>2015-03-29T09:23:47Z</time>
      </trkpt>
      <trkpt lat="42.80635" lon="1.74457">
        <ele>1554.59</ele>
        <time>2015-03-29T09:24:01Z</time>
      </trkpt>
      <trkpt lat="42.80637" lon="1.74451">
        <ele>1556.03</ele>
        <time>2015-03-29T09:24:16Z</time>
      </trkpt>
      <trkpt lat="42.80636" lon="1.74446">
        <ele>1557.47</ele>
        <time>2015-03-29T09:24:32Z</time>
      </trkpt>
      <trkpt lat="42.80637" lon="1.74442">
        <ele>1559.88</ele>
        <time>2015-03-29T09:24:44Z</time>
      </trkpt>
      <trkpt lat="42.80636" lon="1.74434">
        <ele>1561.8</ele>
        <time>2015-03-29T09:24:57Z</time>
      </trkpt>
      <trkpt lat="42.80635" lon="1.74428">
        <ele>1563.72</ele>
        <time>2015-03-29T09:25:11Z</time>
      </trkpt>
      <trkpt lat="42.80633" lon="1.7442">
        <ele>1564.68</ele>
        <time>2015-03-29T09:25:27Z</time>
      </trkpt>
      <trkpt lat="42.80632" lon="1.74413">
        <ele>1566.12</ele>
        <time>2015-03-29T09:25:41Z</time>
      </trkpt>
      <trkpt lat="42.80632" lon="1.74407">
        <ele>1567.57</ele>
        <time>2015-03-29T09:25:52Z</time>
      </trkpt>
      <trkpt lat="42.80632" lon="1.74403">
        <ele>1569.01</ele>
        <time>2015-03-29T09:26:04Z</time>
      </trkpt>
      <trkpt lat="42.80632" lon="1.74396">
        <ele>1570.45</ele>
        <time>2015-03-29T09:26:18Z</time>
      </trkpt>
      <trkpt lat="42.80632" lon="1.74392">
        <ele>1572.37</ele>
        <time>2015-03-29T09:26:31Z</time>
      </trkpt>
      <trkpt lat="42.80633" lon="1.74388">
        <ele>1574.78</ele>
        <time>2015-03-29T09:26:41Z</time>
      </trkpt>
      <trkpt lat="42.80634" lon="1.74382">
        <ele>1577.18</ele>
        <time>2015-03-29T09:26:56Z</time>
      </trkpt>
      <trkpt lat="42.80634" lon="1.74377">
        <ele>1578.62</ele>
        <time>2015-03-29T09:27:09Z</time>
      </trkpt>
      <trkpt lat="42.80632" lon="1.74368">
        <ele>1580.54</ele>
        <time>2015-03-29T09:27:22Z</time>
      </trkpt>
      <trkpt lat="42.8063" lon="1.74363">
        <ele>1581.99</ele>
        <time>2015-03-29T09:27:36Z</time>
      </trkpt>
      <trkpt lat="42.80627" lon="1.74356">
        <ele>1583.43</ele>
        <time>2015-03-29T09:27:51Z</time>
      </trkpt>
      <trkpt lat="42.80624" lon="1.74351">
        <ele>1584.87</ele>
        <time>2015-03-29T09:28:04Z</time>
      </trkpt>
      <trkpt lat="42.80623" lon="1.74345">
        <ele>1585.83</ele>
        <time>2015-03-29T09:28:22Z</time>
      </trkpt>
      <trkpt lat="42.80623" lon="1.74343">
        <ele>1585.83</ele>
        <time>2015-03-29T09:28:42Z</time>
      </trkpt>
      <trkpt lat="42.80622" lon="1.74335">
        <ele>1587.75</ele>
        <time>2015-03-29T09:28:57Z</time>
      </trkpt>
      <trkpt lat="42.80626" lon="1.74331">
        <ele>1589.2</ele>
        <time>2015-03-29T09:29:09Z</time>
      </trkpt>
      <trkpt lat="42.80628" lon="1.74336">
        <ele>1590.64</ele>
        <time>2015-03-29T09:29:23Z</time>
      </trkpt>
      <trkpt lat="42.80631" lon="1.74335">
        <ele>1592.08</ele>
        <time>2015-03-29T09:29:37Z</time>
      </trkpt>
      <trkpt lat="42.8063" lon="1.74332">
        <ele>1592.08</ele>
        <time>2015-03-29T09:30:03Z</time>
      </trkpt>
      <trkpt lat="42.80635" lon="1.74331">
        <ele>1593.04</ele>
        <time>2015-03-29T09:30:22Z</time>
      </trkpt>
      <trkpt lat="42.80639" lon="1.74325">
        <ele>1594.48</ele>
        <time>2015-03-29T09:30:34Z</time>
      </trkpt>
      <trkpt lat="42.80642" lon="1.74318">
        <ele>1596.89</ele>
        <time>2015-03-29T09:30:48Z</time>
      </trkpt>
      <trkpt lat="42.80646" lon="1.74314">
        <ele>1598.33</ele>
        <time>2015-03-29T09:31:00Z</time>
      </trkpt>
      <trkpt lat="42.80648" lon="1.74309">
        <ele>1598.81</ele>
        <time>2015-03-29T09:31:10Z</time>
      </trkpt>
      <trkpt lat="42.8065" lon="1.74309">
        <ele>1599.77</ele>
        <time>2015-03-29T09:31:28Z</time>
      </trkpt>
      <trkpt lat="42.8065" lon="1.74311">
        <ele>1599.29</ele>
        <time>2015-03-29T09:31:45Z</time>
      </trkpt>
      <trkpt lat="42.80651" lon="1.7431">
        <ele>1600.25</ele>
        <time>2015-03-29T09:31:56Z</time>
      </trkpt>
      <trkpt lat="42.80657" lon="1.74307">
        <ele>1603.62</ele>
        <time>2015-03-29T09:32:10Z</time>
      </trkpt>
      <trkpt lat="42.80665" lon="1.74299">
        <ele>1604.1</ele>
        <time>2015-03-29T09:32:27Z</time>
      </trkpt>
      <trkpt lat="42.8067" lon="1.74298">
        <ele>1606.02</ele>
        <time>2015-03-29T09:32:41Z</time>
      </trkpt>
      <trkpt lat="42.80671" lon="1.74294">
        <ele>1606.98</ele>
        <time>2015-03-29T09:33:03Z</time>
      </trkpt>
      <trkpt lat="42.8067" lon="1.74294">
        <ele>1606.5</ele>
        <time>2015-03-29T09:33:24Z</time>
      </trkpt>
      <trkpt lat="42.80668" lon="1.74294">
        <ele>1606.98</ele>
        <time>2015-03-29T09:33:41Z</time>
      </trkpt>
      <trkpt lat="42.80668" lon="1.74294">
        <ele>1606.02</ele>
        <time>2015-03-29T09:34:00Z</time>
      </trkpt>
      <trkpt lat="42.80675" lon="1.74288">
        <ele>1608.9</ele>
        <time>2015-03-29T09:34:14Z</time>
      </trkpt>
      <trkpt lat="42.80679" lon="1.74282">
        <ele>1609.86</ele>
        <time>2015-03-29T09:34:27Z</time>
      </trkpt>
      <trkpt lat="42.80684" lon="1.74279">
        <ele>1611.31</ele>
        <time>2015-03-29T09:34:40Z</time>
      </trkpt>
      <trkpt lat="42.80688" lon="1.74275">
        <ele>1612.27</ele>
        <time>2015-03-29T09:34:53Z</time>
      </trkpt>
      <trkpt lat="42.80691" lon="1.7427">
        <ele>1613.71</ele>
        <time>2015-03-29T09:35:06Z</time>
      </trkpt>
      <trkpt lat="42.80695" lon="1.74266">
        <ele>1615.63</ele>
        <time>2015-03-29T09:35:18Z</time>
      </trkpt>
      <trkpt lat="42.807" lon="1.74262">
        <ele>1617.56</ele>
        <time>2015-03-29T09:35:34Z</time>
      </trkpt>
      <trkpt lat="42.80704" lon="1.74258">
        <ele>1619</ele>
        <time>2015-03-29T09:35:48Z</time>
      </trkpt>
      <trkpt lat="42.80707" lon="1.74256">
        <ele>1619.96</ele>
        <time>2015-03-29T09:36:01Z</time>
      </trkpt>
      <trkpt lat="42.80712" lon="1.74253">
        <ele>1620.44</ele>
        <time>2015-03-29T09:36:16Z</time>
      </trkpt>
      <trkpt lat="42.80717" lon="1.7425">
        <ele>1622.84</ele>
        <time>2015-03-29T09:36:25Z</time>
      </trkpt>
      <trkpt lat="42.8072" lon="1.74251">
        <ele>1624.28</ele>
        <time>2015-03-29T09:36:39Z</time>
      </trkpt>
      <trkpt lat="42.80726" lon="1.74249">
        <ele>1626.69</ele>
        <time>2015-03-29T09:36:53Z</time>
      </trkpt>
      <trkpt lat="42.80726" lon="1.74246">
        <ele>1626.21</ele>
        <time>2015-03-29T09:37:07Z</time>
      </trkpt>
      <trkpt lat="42.80724" lon="1.74242">
        <ele>1625.73</ele>
        <time>2015-03-29T09:37:22Z</time>
      </trkpt>
      <trkpt lat="42.80724" lon="1.74242">
        <ele>1623.8</ele>
        <time>2015-03-29T09:37:53Z</time>
      </trkpt>
      <trkpt lat="42.80725" lon="1.74243">
        <ele>1629.09</ele>
        <time>2015-03-29T09:38:08Z</time>
      </trkpt>
      <trkpt lat="42.80725" lon="1.74243">
        <ele>1623.8</ele>
        <time>2015-03-29T09:38:09Z</time>
      </trkpt>
      <trkpt lat="42.80725" lon="1.74245">
        <ele>1625.73</ele>
        <time>2015-03-29T09:38:28Z</time>
      </trkpt>
      <trkpt lat="42.80726" lon="1.74247">
        <ele>1625.25</ele>
        <time>2015-03-29T09:38:48Z</time>
      </trkpt>
      <trkpt lat="42.80729" lon="1.74244">
        <ele>1626.69</ele>
        <time>2015-03-29T09:39:03Z</time>
      </trkpt>
      <trkpt lat="42.80731" lon="1.74243">
        <ele>1627.17</ele>
        <time>2015-03-29T09:39:19Z</time>
      </trkpt>
      <trkpt lat="42.8073" lon="1.74242">
        <ele>1626.69</ele>
        <time>2015-03-29T09:39:40Z</time>
      </trkpt>
      <trkpt lat="42.80738" lon="1.74235">
        <ele>1629.09</ele>
        <time>2015-03-29T09:39:56Z</time>
      </trkpt>
      <trkpt lat="42.80743" lon="1.74231">
        <ele>1631.49</ele>
        <time>2015-03-29T09:40:10Z</time>
      </trkpt>
      <trkpt lat="42.80748" lon="1.74228">
        <ele>1632.46</ele>
        <time>2015-03-29T09:40:26Z</time>
      </trkpt>
      <trkpt lat="42.80753" lon="1.74223">
        <ele>1634.38</ele>
        <time>2015-03-29T09:40:42Z</time>
      </trkpt>
      <trkpt lat="42.80755" lon="1.74219">
        <ele>1635.82</ele>
        <time>2015-03-29T09:40:55Z</time>
      </trkpt>
      <trkpt lat="42.80757" lon="1.74215">
        <ele>1637.26</ele>
        <time>2015-03-29T09:41:11Z</time>
      </trkpt>
      <trkpt lat="42.80761" lon="1.74211">
        <ele>1639.67</ele>
        <time>2015-03-29T09:41:26Z</time>
      </trkpt>
      <trkpt lat="42.80765" lon="1.74205">
        <ele>1641.59</ele>
        <time>2015-03-29T09:41:41Z</time>
      </trkpt>
      <trkpt lat="42.80767" lon="1.74202">
        <ele>1643.51</ele>
        <time>2015-03-29T09:41:47Z</time>
      </trkpt>
      <trkpt lat="42.80772" lon="1.74197">
        <ele>1644.95</ele>
        <time>2015-03-29T09:42:02Z</time>
      </trkpt>
      <trkpt lat="42.80773" lon="1.74195">
        <ele>1645.91</ele>
        <time>2015-03-29T09:42:04Z</time>
      </trkpt>
      <trkpt lat="42.80773" lon="1.74193">
        <ele>1646.4</ele>
        <time>2015-03-29T09:42:17Z</time>
      </trkpt>
      <trkpt lat="42.80777" lon="1.74189">
        <ele>1648.8</ele>
        <time>2015-03-29T09:42:31Z</time>
      </trkpt>
      <trkpt lat="42.80782" lon="1.74184">
        <ele>1649.28</ele>
        <time>2015-03-29T09:42:45Z</time>
      </trkpt>
      <trkpt lat="42.80784" lon="1.74181">
        <ele>1651.2</ele>
        <time>2015-03-29T09:42:58Z</time>
      </trkpt>
      <trkpt lat="42.80787" lon="1.74174">
        <ele>1652.64</ele>
        <time>2015-03-29T09:43:12Z</time>
      </trkpt>
      <trkpt lat="42.80787" lon="1.7417">
        <ele>1654.57</ele>
        <time>2015-03-29T09:43:25Z</time>
      </trkpt>
      <trkpt lat="42.8079" lon="1.74161">
        <ele>1656.01</ele>
        <time>2015-03-29T09:43:40Z</time>
      </trkpt>
      <trkpt lat="42.80793" lon="1.74154">
        <ele>1656.49</ele>
        <time>2015-03-29T09:43:55Z</time>
      </trkpt>
      <trkpt lat="42.80793" lon="1.74148">
        <ele>1657.93</ele>
        <time>2015-03-29T09:44:12Z</time>
      </trkpt>
      <trkpt lat="42.80795" lon="1.74144">
        <ele>1659.85</ele>
        <time>2015-03-29T09:44:20Z</time>
      </trkpt>
      <trkpt lat="42.80797" lon="1.74138">
        <ele>1660.81</ele>
        <time>2015-03-29T09:44:35Z</time>
      </trkpt>
      <trkpt lat="42.808" lon="1.74133">
        <ele>1662.74</ele>
        <time>2015-03-29T09:44:49Z</time>
      </trkpt>
      <trkpt lat="42.80803" lon="1.74124">
        <ele>1665.62</ele>
        <time>2015-03-29T09:45:04Z</time>
      </trkpt>
      <trkpt lat="42.80805" lon="1.74121">
        <ele>1666.58</ele>
        <time>2015-03-29T09:45:16Z</time>
      </trkpt>
      <trkpt lat="42.80807" lon="1.74114">
        <ele>1668.02</ele>
        <time>2015-03-29T09:45:38Z</time>
      </trkpt>
      <trkpt lat="42.80807" lon="1.74112">
        <ele>1668.51</ele>
        <time>2015-03-29T09:45:40Z</time>
      </trkpt>
      <trkpt lat="42.80807" lon="1.74104">
        <ele>1669.47</ele>
        <time>2015-03-29T09:45:53Z</time>
      </trkpt>
      <trkpt lat="42.80808" lon="1.74094">
        <ele>1672.35</ele>
        <time>2015-03-29T09:46:08Z</time>
      </trkpt>
      <trkpt lat="42.80808" lon="1.74085">
        <ele>1674.27</ele>
        <time>2015-03-29T09:46:22Z</time>
      </trkpt>
      <trkpt lat="42.80808" lon="1.74081">
        <ele>1674.27</ele>
        <time>2015-03-29T09:46:37Z</time>
      </trkpt>
      <trkpt lat="42.8081" lon="1.74073">
        <ele>1675.23</ele>
        <time>2015-03-29T09:46:54Z</time>
      </trkpt>
      <trkpt lat="42.80809" lon="1.74067">
        <ele>1677.16</ele>
        <time>2015-03-29T09:47:05Z</time>
      </trkpt>
      <trkpt lat="42.80809" lon="1.74065">
        <ele>1678.6</ele>
        <time>2015-03-29T09:47:18Z</time>
      </trkpt>
      <trkpt lat="42.80812" lon="1.74064">
        <ele>1681</ele>
        <time>2015-03-29T09:47:28Z</time>
      </trkpt>
      <trkpt lat="42.80814" lon="1.7406">
        <ele>1681.96</ele>
        <time>2015-03-29T09:47:47Z</time>
      </trkpt>
      <trkpt lat="42.80815" lon="1.74058">
        <ele>1683.41</ele>
        <time>2015-03-29T09:48:02Z</time>
      </trkpt>
      <trkpt lat="42.80818" lon="1.74054">
        <ele>1684.85</ele>
        <time>2015-03-29T09:48:19Z</time>
      </trkpt>
      <trkpt lat="42.8082" lon="1.74051">
        <ele>1685.81</ele>
        <time>2015-03-29T09:48:39Z</time>
      </trkpt>
      <trkpt lat="42.80823" lon="1.74048">
        <ele>1687.73</ele>
        <time>2015-03-29T09:48:52Z</time>
      </trkpt>
      <trkpt lat="42.80826" lon="1.74041">
        <ele>1688.21</ele>
        <time>2015-03-29T09:49:06Z</time>
      </trkpt>
      <trkpt lat="42.80828" lon="1.74038">
        <ele>1689.65</ele>
        <time>2015-03-29T09:49:11Z</time>
      </trkpt>
      <trkpt lat="42.80833" lon="1.74032">
        <ele>1691.1</ele>
        <time>2015-03-29T09:49:23Z</time>
      </trkpt>
      <trkpt lat="42.80837" lon="1.74027">
        <ele>1692.06</ele>
        <time>2015-03-29T09:49:31Z</time>
      </trkpt>
      <trkpt lat="42.80843" lon="1.74021">
        <ele>1693.02</ele>
        <time>2015-03-29T09:49:43Z</time>
      </trkpt>
      <trkpt lat="42.80845" lon="1.74023">
        <ele>1694.46</ele>
        <time>2015-03-29T09:49:56Z</time>
      </trkpt>
      <trkpt lat="42.80848" lon="1.74024">
        <ele>1696.86</ele>
        <time>2015-03-29T09:50:04Z</time>
      </trkpt>
      <trkpt lat="42.80849" lon="1.74017">
        <ele>1695.42</ele>
        <time>2015-03-29T09:50:20Z</time>
      </trkpt>
      <trkpt lat="42.80849" lon="1.74017">
        <ele>1695.42</ele>
        <time>2015-03-29T09:50:38Z</time>
      </trkpt>
      <trkpt lat="42.80849" lon="1.74017">
        <ele>1696.38</ele>
        <time>2015-03-29T09:51:02Z</time>
      </trkpt>
      <trkpt lat="42.80849" lon="1.74018">
        <ele>1695.9</ele>
        <time>2015-03-29T09:51:20Z</time>
      </trkpt>
      <trkpt lat="42.80848" lon="1.74018">
        <ele>1695.9</ele>
        <time>2015-03-29T09:51:37Z</time>
      </trkpt>
      <trkpt lat="42.80848" lon="1.74017">
        <ele>1695.42</ele>
        <time>2015-03-29T09:51:54Z</time>
      </trkpt>
      <trkpt lat="42.80848" lon="1.74018">
        <ele>1698.79</ele>
        <time>2015-03-29T09:52:18Z</time>
      </trkpt>
      <trkpt lat="42.80849" lon="1.74017">
        <ele>1696.86</ele>
        <time>2015-03-29T09:52:31Z</time>
      </trkpt>
      <trkpt lat="42.80848" lon="1.74017">
        <ele>1697.34</ele>
        <time>2015-03-29T09:52:54Z</time>
      </trkpt>
      <trkpt lat="42.80848" lon="1.74018">
        <ele>1699.27</ele>
        <time>2015-03-29T09:53:11Z</time>
      </trkpt>
      <trkpt lat="42.80848" lon="1.74018">
        <ele>1697.34</ele>
        <time>2015-03-29T09:53:36Z</time>
      </trkpt>
      <trkpt lat="42.80848" lon="1.74017">
        <ele>1699.27</ele>
        <time>2015-03-29T09:53:58Z</time>
      </trkpt>
      <trkpt lat="42.80848" lon="1.74018">
        <ele>1696.38</ele>
        <time>2015-03-29T09:54:20Z</time>
      </trkpt>
      <trkpt lat="42.80848" lon="1.74018">
        <ele>1695.9</ele>
        <time>2015-03-29T09:54:43Z</time>
      </trkpt>
      <trkpt lat="42.80848" lon="1.74018">
        <ele>1694.94</ele>
        <time>2015-03-29T09:55:09Z</time>
      </trkpt>
      <trkpt lat="42.80847" lon="1.74018">
        <ele>1695.9</ele>
        <time>2015-03-29T09:55:44Z</time>
      </trkpt>
      <trkpt lat="42.80847" lon="1.74018">
        <ele>1694.94</ele>
        <time>2015-03-29T09:56:09Z</time>
      </trkpt>
      <trkpt lat="42.80852" lon="1.74022">
        <ele>1698.31</ele>
        <time>2015-03-29T09:56:18Z</time>
      </trkpt>
      <trkpt lat="42.80852" lon="1.74022">
        <ele>1698.31</ele>
        <time>2015-03-29T09:56:19Z</time>
      </trkpt>
      <trkpt lat="42.80856" lon="1.74026">
        <ele>1697.83</ele>
        <time>2015-03-29T09:56:28Z</time>
      </trkpt>
      <trkpt lat="42.80859" lon="1.74031">
        <ele>1699.27</ele>
        <time>2015-03-29T09:56:33Z</time>
      </trkpt>
      <trkpt lat="42.80867" lon="1.74035">
        <ele>1700.23</ele>
        <time>2015-03-29T09:56:43Z</time>
      </trkpt>
      <trkpt lat="42.80871" lon="1.74036">
        <ele>1700.71</ele>
        <time>2015-03-29T09:56:47Z</time>
      </trkpt>
      <trkpt lat="42.80874" lon="1.74036">
        <ele>1700.23</ele>
        <time>2015-03-29T09:56:50Z</time>
      </trkpt>
      <trkpt lat="42.80888" lon="1.74041">
        <ele>1700.23</ele>
        <time>2015-03-29T09:57:05Z</time>
      </trkpt>
      <trkpt lat="42.8089" lon="1.74042">
        <ele>1699.75</ele>
        <time>2015-03-29T09:57:07Z</time>
      </trkpt>
      <trkpt lat="42.80893" lon="1.74043">
        <ele>1699.27</ele>
        <time>2015-03-29T09:57:11Z</time>
      </trkpt>
      <trkpt lat="42.80895" lon="1.74044">
        <ele>1699.27</ele>
        <time>2015-03-29T09:57:13Z</time>
      </trkpt>
      <trkpt lat="42.80899" lon="1.74046">
        <ele>1699.75</ele>
        <time>2015-03-29T09:57:17Z</time>
      </trkpt>
      <trkpt lat="42.80904" lon="1.74048">
        <ele>1700.71</ele>
        <time>2015-03-29T09:57:23Z</time>
      </trkpt>
      <trkpt lat="42.80909" lon="1.7405">
        <ele>1702.63</ele>
        <time>2015-03-29T09:57:28Z</time>
      </trkpt>
      <trkpt lat="42.80913" lon="1.74051">
        <ele>1701.19</ele>
        <time>2015-03-29T09:57:33Z</time>
      </trkpt>
      <trkpt lat="42.80919" lon="1.74055">
        <ele>1701.67</ele>
        <time>2015-03-29T09:57:41Z</time>
      </trkpt>
      <trkpt lat="42.8093" lon="1.74058">
        <ele>1703.59</ele>
        <time>2015-03-29T09:57:55Z</time>
      </trkpt>
      <trkpt lat="42.80943" lon="1.74063">
        <ele>1703.59</ele>
        <time>2015-03-29T09:58:10Z</time>
      </trkpt>
      <trkpt lat="42.80949" lon="1.74066">
        <ele>1704.55</ele>
        <time>2015-03-29T09:58:19Z</time>
      </trkpt>
      <trkpt lat="42.80954" lon="1.7407">
        <ele>1705.04</ele>
        <time>2015-03-29T09:58:26Z</time>
      </trkpt>
      <trkpt lat="42.80957" lon="1.74074">
        <ele>1705.52</ele>
        <time>2015-03-29T09:58:31Z</time>
      </trkpt>
      <trkpt lat="42.80965" lon="1.74081">
        <ele>1707.44</ele>
        <time>2015-03-29T09:58:44Z</time>
      </trkpt>
      <trkpt lat="42.80972" lon="1.7409">
        <ele>1708.88</ele>
        <time>2015-03-29T09:58:58Z</time>
      </trkpt>
      <trkpt lat="42.80979" lon="1.74097">
        <ele>1711.76</ele>
        <time>2015-03-29T09:59:11Z</time>
      </trkpt>
      <trkpt lat="42.80988" lon="1.74102">
        <ele>1712.25</ele>
        <time>2015-03-29T09:59:24Z</time>
      </trkpt>
      <trkpt lat="42.80998" lon="1.74104">
        <ele>1712.25</ele>
        <time>2015-03-29T09:59:39Z</time>
      </trkpt>
      <trkpt lat="42.81007" lon="1.74106">
        <ele>1714.65</ele>
        <time>2015-03-29T09:59:53Z</time>
      </trkpt>
      <trkpt lat="42.81008" lon="1.74106">
        <ele>1714.65</ele>
        <time>2015-03-29T09:59:54Z</time>
      </trkpt>
      <trkpt lat="42.81013" lon="1.74106">
        <ele>1713.69</ele>
        <time>2015-03-29T10:00:01Z</time>
      </trkpt>
      <trkpt lat="42.81022" lon="1.74108">
        <ele>1714.65</ele>
        <time>2015-03-29T10:00:16Z</time>
      </trkpt>
      <trkpt lat="42.81029" lon="1.74109">
        <ele>1713.69</ele>
        <time>2015-03-29T10:00:28Z</time>
      </trkpt>
      <trkpt lat="42.81037" lon="1.74109">
        <ele>1714.17</ele>
        <time>2015-03-29T10:00:42Z</time>
      </trkpt>
      <trkpt lat="42.81045" lon="1.74111">
        <ele>1716.09</ele>
        <time>2015-03-29T10:00:57Z</time>
      </trkpt>
      <trkpt lat="42.81051" lon="1.74114">
        <ele>1717.53</ele>
        <time>2015-03-29T10:01:13Z</time>
      </trkpt>
      <trkpt lat="42.81058" lon="1.74117">
        <ele>1718.01</ele>
        <time>2015-03-29T10:01:28Z</time>
      </trkpt>
      <trkpt lat="42.81065" lon="1.7412">
        <ele>1720.42</ele>
        <time>2015-03-29T10:01:42Z</time>
      </trkpt>
      <trkpt lat="42.81075" lon="1.74121">
        <ele>1719.94</ele>
        <time>2015-03-29T10:01:55Z</time>
      </trkpt>
      <trkpt lat="42.8108" lon="1.74123">
        <ele>1722.82</ele>
        <time>2015-03-29T10:02:02Z</time>
      </trkpt>
      <trkpt lat="42.81086" lon="1.74125">
        <ele>1722.34</ele>
        <time>2015-03-29T10:02:12Z</time>
      </trkpt>
      <trkpt lat="42.8109" lon="1.74128">
        <ele>1721.38</ele>
        <time>2015-03-29T10:02:21Z</time>
      </trkpt>
      <trkpt lat="42.81099" lon="1.74128">
        <ele>1722.34</ele>
        <time>2015-03-29T10:02:34Z</time>
      </trkpt>
      <trkpt lat="42.81106" lon="1.74128">
        <ele>1721.38</ele>
        <time>2015-03-29T10:02:47Z</time>
      </trkpt>
      <trkpt lat="42.81117" lon="1.74123">
        <ele>1720.9</ele>
        <time>2015-03-29T10:03:02Z</time>
      </trkpt>
      <trkpt lat="42.81118" lon="1.74125">
        <ele>1721.38</ele>
        <time>2015-03-29T10:03:12Z</time>
      </trkpt>
      <trkpt lat="42.81125" lon="1.74129">
        <ele>1723.3</ele>
        <time>2015-03-29T10:03:25Z</time>
      </trkpt>
      <trkpt lat="42.81133" lon="1.74133">
        <ele>1722.82</ele>
        <time>2015-03-29T10:03:41Z</time>
      </trkpt>
      <trkpt lat="42.81141" lon="1.74133">
        <ele>1720.42</ele>
        <time>2015-03-29T10:03:53Z</time>
      </trkpt>
      <trkpt lat="42.81143" lon="1.74134">
        <ele>1720.42</ele>
        <time>2015-03-29T10:03:56Z</time>
      </trkpt>
      <trkpt lat="42.81153" lon="1.74142">
        <ele>1717.53</ele>
        <time>2015-03-29T10:04:10Z</time>
      </trkpt>
      <trkpt lat="42.81164" lon="1.74149">
        <ele>1718.01</ele>
        <time>2015-03-29T10:04:24Z</time>
      </trkpt>
      <trkpt lat="42.81172" lon="1.74152">
        <ele>1718.49</ele>
        <time>2015-03-29T10:04:37Z</time>
      </trkpt>
      <trkpt lat="42.81178" lon="1.74157">
        <ele>1718.49</ele>
        <time>2015-03-29T10:04:50Z</time>
      </trkpt>
      <trkpt lat="42.81185" lon="1.7416">
        <ele>1720.9</ele>
        <time>2015-03-29T10:05:05Z</time>
      </trkpt>
      <trkpt lat="42.81191" lon="1.74167">
        <ele>1722.34</ele>
        <time>2015-03-29T10:05:18Z</time>
      </trkpt>
      <trkpt lat="42.81197" lon="1.74174">
        <ele>1722.82</ele>
        <time>2015-03-29T10:05:32Z</time>
      </trkpt>
      <trkpt lat="42.81202" lon="1.7418">
        <ele>1724.74</ele>
        <time>2015-03-29T10:05:47Z</time>
      </trkpt>
      <trkpt lat="42.81207" lon="1.74184">
        <ele>1725.7</ele>
        <time>2015-03-29T10:06:01Z</time>
      </trkpt>
      <trkpt lat="42.81214" lon="1.74186">
        <ele>1727.15</ele>
        <time>2015-03-29T10:06:15Z</time>
      </trkpt>
      <trkpt lat="42.81221" lon="1.74189">
        <ele>1728.11</ele>
        <time>2015-03-29T10:06:29Z</time>
      </trkpt>
      <trkpt lat="42.81225" lon="1.74194">
        <ele>1729.07</ele>
        <time>2015-03-29T10:06:42Z</time>
      </trkpt>
      <trkpt lat="42.81234" lon="1.74198">
        <ele>1729.07</ele>
        <time>2015-03-29T10:06:56Z</time>
      </trkpt>
      <trkpt lat="42.81242" lon="1.74202">
        <ele>1725.7</ele>
        <time>2015-03-29T10:07:05Z</time>
      </trkpt>
      <trkpt lat="42.81252" lon="1.74206">
        <ele>1723.3</ele>
        <time>2015-03-29T10:07:16Z</time>
      </trkpt>
      <trkpt lat="42.81255" lon="1.74206">
        <ele>1721.86</ele>
        <time>2015-03-29T10:07:19Z</time>
      </trkpt>
      <trkpt lat="42.81258" lon="1.74206">
        <ele>1720.42</ele>
        <time>2015-03-29T10:07:22Z</time>
      </trkpt>
      <trkpt lat="42.81259" lon="1.74207">
        <ele>1720.42</ele>
        <time>2015-03-29T10:07:24Z</time>
      </trkpt>
      <trkpt lat="42.81266" lon="1.74214">
        <ele>1722.34</ele>
        <time>2015-03-29T10:07:34Z</time>
      </trkpt>
      <trkpt lat="42.81267" lon="1.74215">
        <ele>1719.46</ele>
        <time>2015-03-29T10:07:37Z</time>
      </trkpt>
      <trkpt lat="42.81268" lon="1.74216">
        <ele>1719.46</ele>
        <time>2015-03-29T10:07:38Z</time>
      </trkpt>
      <trkpt lat="42.81277" lon="1.74226">
        <ele>1720.42</ele>
        <time>2015-03-29T10:07:52Z</time>
      </trkpt>
      <trkpt lat="42.81284" lon="1.74234">
        <ele>1720.42</ele>
        <time>2015-03-29T10:08:06Z</time>
      </trkpt>
      <trkpt lat="42.81294" lon="1.74243">
        <ele>1719.94</ele>
        <time>2015-03-29T10:08:22Z</time>
      </trkpt>
      <trkpt lat="42.81301" lon="1.7425">
        <ele>1722.82</ele>
        <time>2015-03-29T10:08:37Z</time>
      </trkpt>
      <trkpt lat="42.8131" lon="1.74257">
        <ele>1723.78</ele>
        <time>2015-03-29T10:08:51Z</time>
      </trkpt>
      <trkpt lat="42.81316" lon="1.74261">
        <ele>1723.3</ele>
        <time>2015-03-29T10:09:03Z</time>
      </trkpt>
      <trkpt lat="42.81324" lon="1.74263">
        <ele>1725.22</ele>
        <time>2015-03-29T10:09:16Z</time>
      </trkpt>
      <trkpt lat="42.81331" lon="1.74266">
        <ele>1725.22</ele>
        <time>2015-03-29T10:09:28Z</time>
      </trkpt>
      <trkpt lat="42.81338" lon="1.74272">
        <ele>1727.63</ele>
        <time>2015-03-29T10:09:43Z</time>
      </trkpt>
      <trkpt lat="42.81345" lon="1.74278">
        <ele>1730.03</ele>
        <time>2015-03-29T10:09:58Z</time>
      </trkpt>
      <trkpt lat="42.81353" lon="1.74283">
        <ele>1731.47</ele>
        <time>2015-03-29T10:10:13Z</time>
      </trkpt>
      <trkpt lat="42.8136" lon="1.7429">
        <ele>1732.91</ele>
        <time>2015-03-29T10:10:28Z</time>
      </trkpt>
      <trkpt lat="42.81366" lon="1.74297">
        <ele>1733.39</ele>
        <time>2015-03-29T10:10:43Z</time>
      </trkpt>
      <trkpt lat="42.81375" lon="1.74305">
        <ele>1733.88</ele>
        <time>2015-03-29T10:11:00Z</time>
      </trkpt>
      <trkpt lat="42.81383" lon="1.74309">
        <ele>1735.32</ele>
        <time>2015-03-29T10:11:14Z</time>
      </trkpt>
      <trkpt lat="42.81392" lon="1.74312">
        <ele>1736.28</ele>
        <time>2015-03-29T10:11:28Z</time>
      </trkpt>
      <trkpt lat="42.81402" lon="1.74314">
        <ele>1736.76</ele>
        <time>2015-03-29T10:11:44Z</time>
      </trkpt>
      <trkpt lat="42.81406" lon="1.74313">
        <ele>1737.24</ele>
        <time>2015-03-29T10:11:57Z</time>
      </trkpt>
      <trkpt lat="42.81415" lon="1.74313">
        <ele>1737.72</ele>
        <time>2015-03-29T10:12:10Z</time>
      </trkpt>
      <trkpt lat="42.81423" lon="1.74313">
        <ele>1737.24</ele>
        <time>2015-03-29T10:12:26Z</time>
      </trkpt>
      <trkpt lat="42.81424" lon="1.74312">
        <ele>1738.68</ele>
        <time>2015-03-29T10:12:34Z</time>
      </trkpt>
      <trkpt lat="42.81421" lon="1.74312">
        <ele>1738.2</ele>
        <time>2015-03-29T10:12:55Z</time>
      </trkpt>
      <trkpt lat="42.8142" lon="1.74313">
        <ele>1738.68</ele>
        <time>2015-03-29T10:13:09Z</time>
      </trkpt>
      <trkpt lat="42.81421" lon="1.74314">
        <ele>1738.2</ele>
        <time>2015-03-29T10:13:33Z</time>
      </trkpt>
      <trkpt lat="42.81425" lon="1.74313">
        <ele>1737.72</ele>
        <time>2015-03-29T10:13:52Z</time>
      </trkpt>
      <trkpt lat="42.81432" lon="1.74313">
        <ele>1739.16</ele>
        <time>2015-03-29T10:14:05Z</time>
      </trkpt>
      <trkpt lat="42.81437" lon="1.74313">
        <ele>1739.16</ele>
        <time>2015-03-29T10:14:11Z</time>
      </trkpt>
      <trkpt lat="42.8145" lon="1.74311">
        <ele>1740.12</ele>
        <time>2015-03-29T10:14:27Z</time>
      </trkpt>
      <trkpt lat="42.81459" lon="1.74305">
        <ele>1740.6</ele>
        <time>2015-03-29T10:14:42Z</time>
      </trkpt>
      <trkpt lat="42.81469" lon="1.74304">
        <ele>1741.57</ele>
        <time>2015-03-29T10:14:56Z</time>
      </trkpt>
      <trkpt lat="42.81477" lon="1.74305">
        <ele>1741.57</ele>
        <time>2015-03-29T10:15:08Z</time>
      </trkpt>
      <trkpt lat="42.81483" lon="1.74305">
        <ele>1743.01</ele>
        <time>2015-03-29T10:15:21Z</time>
      </trkpt>
      <trkpt lat="42.81493" lon="1.74305">
        <ele>1745.41</ele>
        <time>2015-03-29T10:15:36Z</time>
      </trkpt>
      <trkpt lat="42.81503" lon="1.74304">
        <ele>1746.37</ele>
        <time>2015-03-29T10:15:51Z</time>
      </trkpt>
      <trkpt lat="42.81509" lon="1.74301">
        <ele>1747.33</ele>
        <time>2015-03-29T10:16:04Z</time>
      </trkpt>
      <trkpt lat="42.81519" lon="1.74298">
        <ele>1747.81</ele>
        <time>2015-03-29T10:16:18Z</time>
      </trkpt>
      <trkpt lat="42.81523" lon="1.74295">
        <ele>1746.85</ele>
        <time>2015-03-29T10:16:30Z</time>
      </trkpt>
      <trkpt lat="42.81523" lon="1.74295">
        <ele>1745.41</ele>
        <time>2015-03-29T10:16:35Z</time>
      </trkpt>
      <trkpt lat="42.81521" lon="1.74295">
        <ele>1745.41</ele>
        <time>2015-03-29T10:16:48Z</time>
      </trkpt>
      <trkpt lat="42.8152" lon="1.74297">
        <ele>1744.93</ele>
        <time>2015-03-29T10:17:15Z</time>
      </trkpt>
      <trkpt lat="42.81516" lon="1.74294">
        <ele>1745.41</ele>
        <time>2015-03-29T10:17:55Z</time>
      </trkpt>
      <trkpt lat="42.81515" lon="1.74293">
        <ele>1745.41</ele>
        <time>2015-03-29T10:18:35Z</time>
      </trkpt>
      <trkpt lat="42.81515" lon="1.74291">
        <ele>1745.41</ele>
        <time>2015-03-29T10:19:14Z</time>
      </trkpt>
      <trkpt lat="42.81517" lon="1.74285">
        <ele>1745.41</ele>
        <time>2015-03-29T10:19:54Z</time>
      </trkpt>
      <trkpt lat="42.81519" lon="1.74277">
        <ele>1745.89</ele>
        <time>2015-03-29T10:20:32Z</time>
      </trkpt>
      <trkpt lat="42.81519" lon="1.74284">
        <ele>1744.93</ele>
        <time>2015-03-29T10:21:19Z</time>
      </trkpt>
      <trkpt lat="42.81516" lon="1.74289">
        <ele>1744.93</ele>
        <time>2015-03-29T10:21:52Z</time>
      </trkpt>
      <trkpt lat="42.81526" lon="1.74278">
        <ele>1745.89</ele>
        <time>2015-03-29T10:22:25Z</time>
      </trkpt>
      <trkpt lat="42.8153" lon="1.74277">
        <ele>1745.89</ele>
        <time>2015-03-29T10:22:29Z</time>
      </trkpt>
      <trkpt lat="42.81534" lon="1.7428">
        <ele>1746.37</ele>
        <time>2015-03-29T10:22:36Z</time>
      </trkpt>
      <trkpt lat="42.81532" lon="1.74286">
        <ele>1746.37</ele>
        <time>2015-03-29T10:22:50Z</time>
      </trkpt>
      <trkpt lat="42.81527" lon="1.74295">
        <ele>1746.85</ele>
        <time>2015-03-29T10:23:07Z</time>
      </trkpt>
      <trkpt lat="42.81522" lon="1.74297">
        <ele>1746.37</ele>
        <time>2015-03-29T10:23:29Z</time>
      </trkpt>
      <trkpt lat="42.81522" lon="1.74293">
        <ele>1745.89</ele>
        <time>2015-03-29T10:23:52Z</time>
      </trkpt>
      <trkpt lat="42.81525" lon="1.74293">
        <ele>1746.37</ele>
        <time>2015-03-29T10:24:12Z</time>
      </trkpt>
      <trkpt lat="42.81517" lon="1.74299">
        <ele>1745.89</ele>
        <time>2015-03-29T10:24:34Z</time>
      </trkpt>
      <trkpt lat="42.81515" lon="1.74298">
        <ele>1746.37</ele>
        <time>2015-03-29T10:24:50Z</time>
      </trkpt>
      <trkpt lat="42.81516" lon="1.74298">
        <ele>1746.37</ele>
        <time>2015-03-29T10:24:57Z</time>
      </trkpt>
      <trkpt lat="42.8152" lon="1.74297">
        <ele>1746.37</ele>
        <time>2015-03-29T10:25:08Z</time>
      </trkpt>
      <trkpt lat="42.81529" lon="1.7429">
        <ele>1746.37</ele>
        <time>2015-03-29T10:25:26Z</time>
      </trkpt>
      <trkpt lat="42.81539" lon="1.74287">
        <ele>1745.41</ele>
        <time>2015-03-29T10:25:46Z</time>
      </trkpt>
      <trkpt lat="42.81539" lon="1.74287">
        <ele>1746.37</ele>
        <time>2015-03-29T10:25:57Z</time>
      </trkpt>
      <trkpt lat="42.81531" lon="1.7429">
        <ele>1746.85</ele>
        <time>2015-03-29T10:26:11Z</time>
      </trkpt>
      <trkpt lat="42.81531" lon="1.74288">
        <ele>1747.33</ele>
        <time>2015-03-29T10:26:31Z</time>
      </trkpt>
      <trkpt lat="42.8154" lon="1.74282">
        <ele>1747.33</ele>
        <time>2015-03-29T10:26:48Z</time>
      </trkpt>
      <trkpt lat="42.81535" lon="1.74289">
        <ele>1746.85</ele>
        <time>2015-03-29T10:27:09Z</time>
      </trkpt>
      <trkpt lat="42.81534" lon="1.74289">
        <ele>1746.85</ele>
        <time>2015-03-29T10:27:34Z</time>
      </trkpt>
      <trkpt lat="42.81527" lon="1.74301">
        <ele>1746.85</ele>
        <time>2015-03-29T10:27:48Z</time>
      </trkpt>
      <trkpt lat="42.81523" lon="1.74309">
        <ele>1746.85</ele>
        <time>2015-03-29T10:27:54Z</time>
      </trkpt>
      <trkpt lat="42.81519" lon="1.7433">
        <ele>1744.93</ele>
        <time>2015-03-29T10:28:10Z</time>
      </trkpt>
      <trkpt lat="42.81518" lon="1.74332">
        <ele>1744.93</ele>
        <time>2015-03-29T10:28:14Z</time>
      </trkpt>
      <trkpt lat="42.81515" lon="1.74344">
        <ele>1743.97</ele>
        <time>2015-03-29T10:28:24Z</time>
      </trkpt>
      <trkpt lat="42.81514" lon="1.74361">
        <ele>1742.53</ele>
        <time>2015-03-29T10:28:38Z</time>
      </trkpt>
      <trkpt lat="42.81512" lon="1.74373">
        <ele>1742.53</ele>
        <time>2015-03-29T10:28:52Z</time>
      </trkpt>
      <trkpt lat="42.81511" lon="1.74383">
        <ele>1742.05</ele>
        <time>2015-03-29T10:29:04Z</time>
      </trkpt>
      <trkpt lat="42.81509" lon="1.74384">
        <ele>1743.01</ele>
        <time>2015-03-29T10:29:19Z</time>
      </trkpt>
      <trkpt lat="42.81508" lon="1.74384">
        <ele>1743.01</ele>
        <time>2015-03-29T10:29:33Z</time>
      </trkpt>
      <trkpt lat="42.81509" lon="1.74383">
        <ele>1743.01</ele>
        <time>2015-03-29T10:29:44Z</time>
      </trkpt>
      <trkpt lat="42.8151" lon="1.74383">
        <ele>1742.05</ele>
        <time>2015-03-29T10:30:17Z</time>
      </trkpt>
      <trkpt lat="42.8151" lon="1.74383">
        <ele>1742.05</ele>
        <time>2015-03-29T10:30:36Z</time>
      </trkpt>
      <trkpt lat="42.8151" lon="1.74383">
        <ele>1741.57</ele>
        <time>2015-03-29T10:31:12Z</time>
      </trkpt>
      <trkpt lat="42.81508" lon="1.74382">
        <ele>1741.57</ele>
        <time>2015-03-29T10:31:44Z</time>
      </trkpt>
      <trkpt lat="42.8151" lon="1.74383">
        <ele>1742.05</ele>
        <time>2015-03-29T10:32:15Z</time>
      </trkpt>
      <trkpt lat="42.81509" lon="1.74384">
        <ele>1743.01</ele>
        <time>2015-03-29T10:32:45Z</time>
      </trkpt>
      <trkpt lat="42.8151" lon="1.74384">
        <ele>1743.01</ele>
        <time>2015-03-29T10:33:12Z</time>
      </trkpt>
      <trkpt lat="42.8151" lon="1.74382">
        <ele>1742.53</ele>
        <time>2015-03-29T10:33:45Z</time>
      </trkpt>
      <trkpt lat="42.81509" lon="1.74383">
        <ele>1743.49</ele>
        <time>2015-03-29T10:34:19Z</time>
      </trkpt>
      <trkpt lat="42.81509" lon="1.74385">
        <ele>1743.49</ele>
        <time>2015-03-29T10:34:50Z</time>
      </trkpt>
      <trkpt lat="42.81509" lon="1.74384">
        <ele>1743.49</ele>
        <time>2015-03-29T10:35:34Z</time>
      </trkpt>
      <trkpt lat="42.8151" lon="1.74385">
        <ele>1743.49</ele>
        <time>2015-03-29T10:36:12Z</time>
      </trkpt>
      <trkpt lat="42.8151" lon="1.74385">
        <ele>1743.49</ele>
        <time>2015-03-29T10:36:49Z</time>
      </trkpt>
      <trkpt lat="42.81509" lon="1.74386">
        <ele>1744.45</ele>
        <time>2015-03-29T10:37:21Z</time>
      </trkpt>
      <trkpt lat="42.8151" lon="1.74385">
        <ele>1745.41</ele>
        <time>2015-03-29T10:37:50Z</time>
      </trkpt>
      <trkpt lat="42.81511" lon="1.74382">
        <ele>1744.45</ele>
        <time>2015-03-29T10:38:28Z</time>
      </trkpt>
      <trkpt lat="42.81514" lon="1.74382">
        <ele>1744.45</ele>
        <time>2015-03-29T10:39:09Z</time>
      </trkpt>
      <trkpt lat="42.81513" lon="1.74382">
        <ele>1744.93</ele>
        <time>2015-03-29T10:39:36Z</time>
      </trkpt>
      <trkpt lat="42.81511" lon="1.74382">
        <ele>1744.45</ele>
        <time>2015-03-29T10:40:06Z</time>
      </trkpt>
      <trkpt lat="42.81512" lon="1.74383">
        <ele>1744.93</ele>
        <time>2015-03-29T10:40:27Z</time>
      </trkpt>
      <trkpt lat="42.81515" lon="1.74384">
        <ele>1743.01</ele>
        <time>2015-03-29T10:41:09Z</time>
      </trkpt>
      <trkpt lat="42.81514" lon="1.74385">
        <ele>1743.01</ele>
        <time>2015-03-29T10:41:29Z</time>
      </trkpt>
      <trkpt lat="42.81513" lon="1.74383">
        <ele>1742.53</ele>
        <time>2015-03-29T10:42:03Z</time>
      </trkpt>
      <trkpt lat="42.81508" lon="1.74383">
        <ele>1743.49</ele>
        <time>2015-03-29T10:42:38Z</time>
      </trkpt>
      <trkpt lat="42.8151" lon="1.74383">
        <ele>1744.93</ele>
        <time>2015-03-29T10:43:14Z</time>
      </trkpt>
      <trkpt lat="42.81509" lon="1.74384">
        <ele>1745.41</ele>
        <time>2015-03-29T10:43:58Z</time>
      </trkpt>
      <trkpt lat="42.81509" lon="1.74383">
        <ele>1744.93</ele>
        <time>2015-03-29T10:44:43Z</time>
      </trkpt>
      <trkpt lat="42.8151" lon="1.74383">
        <ele>1744.93</ele>
        <time>2015-03-29T10:45:22Z</time>
      </trkpt>
      <trkpt lat="42.81512" lon="1.74384">
        <ele>1744.45</ele>
        <time>2015-03-29T10:46:02Z</time>
      </trkpt>
      <trkpt lat="42.81511" lon="1.74383">
        <ele>1744.45</ele>
        <time>2015-03-29T10:46:35Z</time>
      </trkpt>
      <trkpt lat="42.81511" lon="1.74383">
        <ele>1743.97</ele>
        <time>2015-03-29T10:47:19Z</time>
      </trkpt>
      <trkpt lat="42.8151" lon="1.74384">
        <ele>1744.93</ele>
        <time>2015-03-29T10:47:59Z</time>
      </trkpt>
      <trkpt lat="42.81509" lon="1.74384">
        <ele>1743.97</ele>
        <time>2015-03-29T10:48:43Z</time>
      </trkpt>
      <trkpt lat="42.81508" lon="1.74383">
        <ele>1744.45</ele>
        <time>2015-03-29T10:49:26Z</time>
      </trkpt>
      <trkpt lat="42.8151" lon="1.74383">
        <ele>1744.45</ele>
        <time>2015-03-29T10:49:51Z</time>
      </trkpt>
      <trkpt lat="42.81511" lon="1.74384">
        <ele>1744.45</ele>
        <time>2015-03-29T10:50:12Z</time>
      </trkpt>
      <trkpt lat="42.81509" lon="1.74386">
        <ele>1744.45</ele>
        <time>2015-03-29T10:50:36Z</time>
      </trkpt>
      <trkpt lat="42.8151" lon="1.74384">
        <ele>1744.93</ele>
        <time>2015-03-29T10:51:06Z</time>
      </trkpt>
      <trkpt lat="42.81511" lon="1.74384">
        <ele>1744.45</ele>
        <time>2015-03-29T10:51:39Z</time>
      </trkpt>
      <trkpt lat="42.81515" lon="1.74384">
        <ele>1744.93</ele>
        <time>2015-03-29T10:52:09Z</time>
      </trkpt>
      <trkpt lat="42.81511" lon="1.74383">
        <ele>1744.93</ele>
        <time>2015-03-29T10:52:39Z</time>
      </trkpt>
      <trkpt lat="42.81511" lon="1.74383">
        <ele>1744.45</ele>
        <time>2015-03-29T10:53:06Z</time>
      </trkpt>
      <trkpt lat="42.8151" lon="1.74384">
        <ele>1745.41</ele>
        <time>2015-03-29T10:53:31Z</time>
      </trkpt>
      <trkpt lat="42.81512" lon="1.74386">
        <ele>1745.41</ele>
        <time>2015-03-29T10:53:53Z</time>
      </trkpt>
      <trkpt lat="42.81512" lon="1.74386">
        <ele>1745.89</ele>
        <time>2015-03-29T10:54:27Z</time>
      </trkpt>
      <trkpt lat="42.81512" lon="1.74385">
        <ele>1745.41</ele>
        <time>2015-03-29T10:55:10Z</time>
      </trkpt>
      <trkpt lat="42.81514" lon="1.74385">
        <ele>1745.89</ele>
        <time>2015-03-29T10:55:37Z</time>
      </trkpt>
      <trkpt lat="42.81512" lon="1.74386">
        <ele>1746.37</ele>
        <time>2015-03-29T10:55:56Z</time>
      </trkpt>
      <trkpt lat="42.81513" lon="1.74384">
        <ele>1746.37</ele>
        <time>2015-03-29T10:56:23Z</time>
      </trkpt>
      <trkpt lat="42.81512" lon="1.74385">
        <ele>1745.41</ele>
        <time>2015-03-29T10:56:48Z</time>
      </trkpt>
      <trkpt lat="42.81513" lon="1.74385">
        <ele>1744.45</ele>
        <time>2015-03-29T10:57:20Z</time>
      </trkpt>
      <trkpt lat="42.81512" lon="1.74385">
        <ele>1746.85</ele>
        <time>2015-03-29T10:57:54Z</time>
      </trkpt>
      <trkpt lat="42.81513" lon="1.74385">
        <ele>1747.33</ele>
        <time>2015-03-29T10:58:16Z</time>
      </trkpt>
      <trkpt lat="42.81513" lon="1.74384">
        <ele>1747.81</ele>
        <time>2015-03-29T10:58:48Z</time>
      </trkpt>
      <trkpt lat="42.81514" lon="1.74382">
        <ele>1746.85</ele>
        <time>2015-03-29T10:59:24Z</time>
      </trkpt>
      <trkpt lat="42.81512" lon="1.74384">
        <ele>1747.33</ele>
        <time>2015-03-29T10:59:58Z</time>
      </trkpt>
      <trkpt lat="42.81511" lon="1.74384">
        <ele>1745.41</ele>
        <time>2015-03-29T11:00:27Z</time>
      </trkpt>
      <trkpt lat="42.81512" lon="1.74382">
        <ele>1744.93</ele>
        <time>2015-03-29T11:00:49Z</time>
      </trkpt>
      <trkpt lat="42.81511" lon="1.74382">
        <ele>1744.45</ele>
        <time>2015-03-29T11:01:10Z</time>
      </trkpt>
      <trkpt lat="42.81512" lon="1.74385">
        <ele>1745.41</ele>
        <time>2015-03-29T11:01:37Z</time>
      </trkpt>
      <trkpt lat="42.81513" lon="1.74385">
        <ele>1746.37</ele>
        <time>2015-03-29T11:02:07Z</time>
      </trkpt>
      <trkpt lat="42.81513" lon="1.74385">
        <ele>1746.37</ele>
        <time>2015-03-29T11:02:32Z</time>
      </trkpt>
      <trkpt lat="42.81512" lon="1.74385">
        <ele>1745.89</ele>
        <time>2015-03-29T11:03:13Z</time>
      </trkpt>
      <trkpt lat="42.8151" lon="1.74383">
        <ele>1745.41</ele>
        <time>2015-03-29T11:03:42Z</time>
      </trkpt>
      <trkpt lat="42.81511" lon="1.74383">
        <ele>1745.89</ele>
        <time>2015-03-29T11:04:13Z</time>
      </trkpt>
      <trkpt lat="42.8151" lon="1.74383">
        <ele>1745.41</ele>
        <time>2015-03-29T11:04:59Z</time>
      </trkpt>
      <trkpt lat="42.81511" lon="1.74384">
        <ele>1746.37</ele>
        <time>2015-03-29T11:05:39Z</time>
      </trkpt>
      <trkpt lat="42.8151" lon="1.74384">
        <ele>1746.37</ele>
        <time>2015-03-29T11:06:09Z</time>
      </trkpt>
      <trkpt lat="42.81511" lon="1.74384">
        <ele>1744.45</ele>
        <time>2015-03-29T11:06:44Z</time>
      </trkpt>
      <trkpt lat="42.81513" lon="1.74384">
        <ele>1746.37</ele>
        <time>2015-03-29T11:07:21Z</time>
      </trkpt>
      <trkpt lat="42.81512" lon="1.74386">
        <ele>1745.89</ele>
        <time>2015-03-29T11:07:48Z</time>
      </trkpt>
      <trkpt lat="42.81512" lon="1.74386">
        <ele>1744.45</ele>
        <time>2015-03-29T11:08:19Z</time>
      </trkpt>
      <trkpt lat="42.81513" lon="1.74385">
        <ele>1745.41</ele>
        <time>2015-03-29T11:08:59Z</time>
      </trkpt>
      <trkpt lat="42.81511" lon="1.74384">
        <ele>1745.41</ele>
        <time>2015-03-29T11:09:31Z</time>
      </trkpt>
      <trkpt lat="42.81511" lon="1.74384">
        <ele>1745.41</ele>
        <time>2015-03-29T11:10:02Z</time>
      </trkpt>
      <trkpt lat="42.8151" lon="1.74385">
        <ele>1746.37</ele>
        <time>2015-03-29T11:10:32Z</time>
      </trkpt>
      <trkpt lat="42.8151" lon="1.74386">
        <ele>1747.33</ele>
        <time>2015-03-29T11:10:57Z</time>
      </trkpt>
      <trkpt lat="42.81512" lon="1.74385">
        <ele>1747.81</ele>
        <time>2015-03-29T11:11:26Z</time>
      </trkpt>
      <trkpt lat="42.81511" lon="1.74386">
        <ele>1746.37</ele>
        <time>2015-03-29T11:11:58Z</time>
      </trkpt>
      <trkpt lat="42.81512" lon="1.74384">
        <ele>1746.85</ele>
        <time>2015-03-29T11:12:22Z</time>
      </trkpt>
      <trkpt lat="42.81512" lon="1.74384">
        <ele>1746.37</ele>
        <time>2015-03-29T11:12:29Z</time>
      </trkpt>
      <trkpt lat="42.81511" lon="1.74385">
        <ele>1749.74</ele>
        <time>2015-03-29T11:12:46Z</time>
      </trkpt>
      <trkpt lat="42.81512" lon="1.74384">
        <ele>1746.37</ele>
        <time>2015-03-29T11:12:58Z</time>
      </trkpt>
      <trkpt lat="42.81513" lon="1.74385">
        <ele>1748.78</ele>
        <time>2015-03-29T11:13:27Z</time>
      </trkpt>
      <trkpt lat="42.81513" lon="1.74385">
        <ele>1747.33</ele>
        <time>2015-03-29T11:13:31Z</time>
      </trkpt>
      <trkpt lat="42.81513" lon="1.74385">
        <ele>1744.45</ele>
        <time>2015-03-29T11:14:03Z</time>
      </trkpt>
      <trkpt lat="42.81511" lon="1.74385">
        <ele>1746.37</ele>
        <time>2015-03-29T11:14:41Z</time>
      </trkpt>
      <trkpt lat="42.81511" lon="1.74384">
        <ele>1746.85</ele>
        <time>2015-03-29T11:15:11Z</time>
      </trkpt>
      <trkpt lat="42.81512" lon="1.74384">
        <ele>1746.85</ele>
        <time>2015-03-29T11:15:48Z</time>
      </trkpt>
      <trkpt lat="42.81511" lon="1.74386">
        <ele>1745.89</ele>
        <time>2015-03-29T11:16:29Z</time>
      </trkpt>
      <trkpt lat="42.81511" lon="1.74384">
        <ele>1746.37</ele>
        <time>2015-03-29T11:17:12Z</time>
      </trkpt>
      <trkpt lat="42.81513" lon="1.74385">
        <ele>1746.85</ele>
        <time>2015-03-29T11:17:56Z</time>
      </trkpt>
      <trkpt lat="42.8151" lon="1.74385">
        <ele>1745.41</ele>
        <time>2015-03-29T11:18:37Z</time>
      </trkpt>
      <trkpt lat="42.81512" lon="1.74385">
        <ele>1747.33</ele>
        <time>2015-03-29T11:19:12Z</time>
      </trkpt>
      <trkpt lat="42.81513" lon="1.74385">
        <ele>1747.81</ele>
        <time>2015-03-29T11:19:48Z</time>
      </trkpt>
      <trkpt lat="42.81511" lon="1.74384">
        <ele>1747.81</ele>
        <time>2015-03-29T11:20:20Z</time>
      </trkpt>
      <trkpt lat="42.8151" lon="1.74384">
        <ele>1747.33</ele>
        <time>2015-03-29T11:20:59Z</time>
      </trkpt>
      <trkpt lat="42.81511" lon="1.74384">
        <ele>1746.85</ele>
        <time>2015-03-29T11:21:41Z</time>
      </trkpt>
      <trkpt lat="42.81513" lon="1.74386">
        <ele>1747.81</ele>
        <time>2015-03-29T11:22:17Z</time>
      </trkpt>
      <trkpt lat="42.81511" lon="1.74384">
        <ele>1749.26</ele>
        <time>2015-03-29T11:22:51Z</time>
      </trkpt>
      <trkpt lat="42.8151" lon="1.74386">
        <ele>1750.22</ele>
        <time>2015-03-29T11:23:21Z</time>
      </trkpt>
      <trkpt lat="42.81511" lon="1.74386">
        <ele>1749.26</ele>
        <time>2015-03-29T11:23:58Z</time>
      </trkpt>
      <trkpt lat="42.81511" lon="1.74385">
        <ele>1747.81</ele>
        <time>2015-03-29T11:24:32Z</time>
      </trkpt>
      <trkpt lat="42.81509" lon="1.74383">
        <ele>1747.33</ele>
        <time>2015-03-29T11:25:07Z</time>
      </trkpt>
      <trkpt lat="42.81512" lon="1.74383">
        <ele>1747.81</ele>
        <time>2015-03-29T11:25:41Z</time>
      </trkpt>
      <trkpt lat="42.8151" lon="1.74383">
        <ele>1747.33</ele>
        <time>2015-03-29T11:26:19Z</time>
      </trkpt>
      <trkpt lat="42.81509" lon="1.74385">
        <ele>1745.41</ele>
        <time>2015-03-29T11:26:49Z</time>
      </trkpt>
      <trkpt lat="42.81509" lon="1.74386">
        <ele>1746.85</ele>
        <time>2015-03-29T11:27:18Z</time>
      </trkpt>
      <trkpt lat="42.81508" lon="1.74387">
        <ele>1747.33</ele>
        <time>2015-03-29T11:27:48Z</time>
      </trkpt>
      <trkpt lat="42.81508" lon="1.74386">
        <ele>1748.78</ele>
        <time>2015-03-29T11:28:21Z</time>
      </trkpt>
      <trkpt lat="42.8151" lon="1.74387">
        <ele>1746.37</ele>
        <time>2015-03-29T11:28:50Z</time>
      </trkpt>
      <trkpt lat="42.81507" lon="1.7439">
        <ele>1745.89</ele>
        <time>2015-03-29T11:29:10Z</time>
      </trkpt>
      <trkpt lat="42.81509" lon="1.74386">
        <ele>1744.45</ele>
        <time>2015-03-29T11:29:35Z</time>
      </trkpt>
      <trkpt lat="42.81507" lon="1.74385">
        <ele>1746.85</ele>
        <time>2015-03-29T11:29:56Z</time>
      </trkpt>
      <trkpt lat="42.81512" lon="1.74385">
        <ele>1747.81</ele>
        <time>2015-03-29T11:30:30Z</time>
      </trkpt>
      <trkpt lat="42.8151" lon="1.74387">
        <ele>1747.81</ele>
        <time>2015-03-29T11:30:56Z</time>
      </trkpt>
      <trkpt lat="42.8151" lon="1.74385">
        <ele>1748.78</ele>
        <time>2015-03-29T11:31:37Z</time>
      </trkpt>
      <trkpt lat="42.81511" lon="1.74386">
        <ele>1749.26</ele>
        <time>2015-03-29T11:32:07Z</time>
      </trkpt>
      <trkpt lat="42.81511" lon="1.74386">
        <ele>1749.26</ele>
        <time>2015-03-29T11:32:36Z</time>
      </trkpt>
      <trkpt lat="42.81508" lon="1.74387">
        <ele>1748.29</ele>
        <time>2015-03-29T11:33:18Z</time>
      </trkpt>
      <trkpt lat="42.81512" lon="1.74386">
        <ele>1751.18</ele>
        <time>2015-03-29T11:33:53Z</time>
      </trkpt>
      <trkpt lat="42.81512" lon="1.74386">
        <ele>1750.22</ele>
        <time>2015-03-29T11:34:24Z</time>
      </trkpt>
      <trkpt lat="42.81513" lon="1.74386">
        <ele>1749.26</ele>
        <time>2015-03-29T11:35:00Z</time>
      </trkpt>
      <trkpt lat="42.81512" lon="1.74388">
        <ele>1749.74</ele>
        <time>2015-03-29T11:35:31Z</time>
      </trkpt>
      <trkpt lat="42.81512" lon="1.74386">
        <ele>1749.74</ele>
        <time>2015-03-29T11:36:10Z</time>
      </trkpt>
      <trkpt lat="42.81511" lon="1.74387">
        <ele>1749.74</ele>
        <time>2015-03-29T11:36:44Z</time>
      </trkpt>
      <trkpt lat="42.8151" lon="1.74385">
        <ele>1749.74</ele>
        <time>2015-03-29T11:37:19Z</time>
      </trkpt>
      <trkpt lat="42.81514" lon="1.74386">
        <ele>1751.18</ele>
        <time>2015-03-29T11:37:55Z</time>
      </trkpt>
      <trkpt lat="42.81513" lon="1.74384">
        <ele>1751.18</ele>
        <time>2015-03-29T11:38:20Z</time>
      </trkpt>
      <trkpt lat="42.81511" lon="1.74384">
        <ele>1750.7</ele>
        <time>2015-03-29T11:38:55Z</time>
      </trkpt>
      <trkpt lat="42.81513" lon="1.74384">
        <ele>1749.74</ele>
        <time>2015-03-29T11:39:23Z</time>
      </trkpt>
      <trkpt lat="42.81513" lon="1.74386">
        <ele>1750.22</ele>
        <time>2015-03-29T11:39:55Z</time>
      </trkpt>
      <trkpt lat="42.81513" lon="1.74384">
        <ele>1750.22</ele>
        <time>2015-03-29T11:40:21Z</time>
      </trkpt>
      <trkpt lat="42.81513" lon="1.74387">
        <ele>1752.14</ele>
        <time>2015-03-29T11:40:50Z</time>
      </trkpt>
      <trkpt lat="42.81512" lon="1.74384">
        <ele>1752.62</ele>
        <time>2015-03-29T11:41:24Z</time>
      </trkpt>
      <trkpt lat="42.81512" lon="1.74386">
        <ele>1751.66</ele>
        <time>2015-03-29T11:41:48Z</time>
      </trkpt>
      <trkpt lat="42.81511" lon="1.74384">
        <ele>1750.7</ele>
        <time>2015-03-29T11:42:17Z</time>
      </trkpt>
      <trkpt lat="42.81511" lon="1.74387">
        <ele>1751.66</ele>
        <time>2015-03-29T11:42:50Z</time>
      </trkpt>
      <trkpt lat="42.8151" lon="1.74386">
        <ele>1749.74</ele>
        <time>2015-03-29T11:43:18Z</time>
      </trkpt>
      <trkpt lat="42.8151" lon="1.74384">
        <ele>1750.22</ele>
        <time>2015-03-29T11:43:48Z</time>
      </trkpt>
      <trkpt lat="42.8151" lon="1.74385">
        <ele>1751.66</ele>
        <time>2015-03-29T11:44:21Z</time>
      </trkpt>
      <trkpt lat="42.8151" lon="1.74386">
        <ele>1753.1</ele>
        <time>2015-03-29T11:44:53Z</time>
      </trkpt>
      <trkpt lat="42.81511" lon="1.74385">
        <ele>1755.5</ele>
        <time>2015-03-29T11:45:26Z</time>
      </trkpt>
      <trkpt lat="42.81511" lon="1.74387">
        <ele>1754.06</ele>
        <time>2015-03-29T11:45:53Z</time>
      </trkpt>
      <trkpt lat="42.81511" lon="1.74387">
        <ele>1753.58</ele>
        <time>2015-03-29T11:46:22Z</time>
      </trkpt>
      <trkpt lat="42.81512" lon="1.74385">
        <ele>1750.22</ele>
        <time>2015-03-29T11:46:57Z</time>
      </trkpt>
      <trkpt lat="42.81512" lon="1.74383">
        <ele>1751.18</ele>
        <time>2015-03-29T11:47:28Z</time>
      </trkpt>
      <trkpt lat="42.81512" lon="1.74384">
        <ele>1751.18</ele>
        <time>2015-03-29T11:48:14Z</time>
      </trkpt>
      <trkpt lat="42.81511" lon="1.74385">
        <ele>1753.1</ele>
        <time>2015-03-29T11:48:34Z</time>
      </trkpt>
      <trkpt lat="42.81509" lon="1.74384">
        <ele>1749.74</ele>
        <time>2015-03-29T11:48:59Z</time>
      </trkpt>
      <trkpt lat="42.81509" lon="1.74384">
        <ele>1748.78</ele>
        <time>2015-03-29T11:49:14Z</time>
      </trkpt>
      <trkpt lat="42.81511" lon="1.74384">
        <ele>1750.22</ele>
        <time>2015-03-29T11:49:33Z</time>
      </trkpt>
      <trkpt lat="42.8151" lon="1.74386">
        <ele>1750.22</ele>
        <time>2015-03-29T11:49:42Z</time>
      </trkpt>
      <trkpt lat="42.8151" lon="1.74386">
        <ele>1753.58</ele>
        <time>2015-03-29T11:49:58Z</time>
      </trkpt>
      <trkpt lat="42.81509" lon="1.74386">
        <ele>1752.14</ele>
        <time>2015-03-29T11:50:17Z</time>
      </trkpt>
      <trkpt lat="42.81509" lon="1.74386">
        <ele>1745.41</ele>
        <time>2015-03-29T11:50:18Z</time>
      </trkpt>
      <trkpt lat="42.8151" lon="1.74387">
        <ele>1754.54</ele>
        <time>2015-03-29T11:50:19Z</time>
      </trkpt>
      <trkpt lat="42.8151" lon="1.74387">
        <ele>1759.83</ele>
        <time>2015-03-29T11:50:20Z</time>
      </trkpt>
      <trkpt lat="42.8151" lon="1.74387">
        <ele>1753.58</ele>
        <time>2015-03-29T11:50:21Z</time>
      </trkpt>
      <trkpt lat="42.8151" lon="1.74387">
        <ele>1753.58</ele>
        <time>2015-03-29T11:50:22Z</time>
      </trkpt>
      <trkpt lat="42.81508" lon="1.74382">
        <ele>1750.22</ele>
        <time>2015-03-29T11:51:00Z</time>
      </trkpt>
      <trkpt lat="42.81509" lon="1.74382">
        <ele>1751.66</ele>
        <time>2015-03-29T11:51:03Z</time>
      </trkpt>
      <trkpt lat="42.81508" lon="1.74384">
        <ele>1754.06</ele>
        <time>2015-03-29T11:51:28Z</time>
      </trkpt>
      <trkpt lat="42.81509" lon="1.74384">
        <ele>1754.06</ele>
        <time>2015-03-29T11:52:05Z</time>
      </trkpt>
      <trkpt lat="42.81509" lon="1.74386">
        <ele>1753.58</ele>
        <time>2015-03-29T11:52:33Z</time>
      </trkpt>
      <trkpt lat="42.8151" lon="1.74383">
        <ele>1752.14</ele>
        <time>2015-03-29T11:53:05Z</time>
      </trkpt>
      <trkpt lat="42.8151" lon="1.74387">
        <ele>1752.62</ele>
        <time>2015-03-29T11:53:42Z</time>
      </trkpt>
      <trkpt lat="42.81508" lon="1.74385">
        <ele>1752.14</ele>
        <time>2015-03-29T11:54:11Z</time>
      </trkpt>
      <trkpt lat="42.81509" lon="1.74386">
        <ele>1752.14</ele>
        <time>2015-03-29T11:54:36Z</time>
      </trkpt>
      <trkpt lat="42.81507" lon="1.74383">
        <ele>1751.66</ele>
        <time>2015-03-29T11:55:07Z</time>
      </trkpt>
      <trkpt lat="42.81508" lon="1.74388">
        <ele>1751.66</ele>
        <time>2015-03-29T11:55:35Z</time>
      </trkpt>
      <trkpt lat="42.81508" lon="1.74385">
        <ele>1751.66</ele>
        <time>2015-03-29T11:55:59Z</time>
      </trkpt>
      <trkpt lat="42.81507" lon="1.74386">
        <ele>1750.22</ele>
        <time>2015-03-29T11:56:26Z</time>
      </trkpt>
      <trkpt lat="42.81506" lon="1.74386">
        <ele>1753.1</ele>
        <time>2015-03-29T11:56:59Z</time>
      </trkpt>
      <trkpt lat="42.81506" lon="1.74385">
        <ele>1756.95</ele>
        <time>2015-03-29T11:57:07Z</time>
      </trkpt>
      <trkpt lat="42.81506" lon="1.74385">
        <ele>1754.54</ele>
        <time>2015-03-29T11:57:12Z</time>
      </trkpt>
      <trkpt lat="42.81509" lon="1.74383">
        <ele>1753.58</ele>
        <time>2015-03-29T11:57:45Z</time>
      </trkpt>
      <trkpt lat="42.81509" lon="1.74385">
        <ele>1749.74</ele>
        <time>2015-03-29T11:57:52Z</time>
      </trkpt>
      <trkpt lat="42.8151" lon="1.74387">
        <ele>1754.54</ele>
        <time>2015-03-29T11:57:53Z</time>
      </trkpt>
      <trkpt lat="42.8151" lon="1.74385">
        <ele>1752.14</ele>
        <time>2015-03-29T11:58:21Z</time>
      </trkpt>
      <trkpt lat="42.8151" lon="1.74384">
        <ele>1753.1</ele>
        <time>2015-03-29T11:58:53Z</time>
      </trkpt>
      <trkpt lat="42.81509" lon="1.74384">
        <ele>1751.66</ele>
        <time>2015-03-29T11:59:25Z</time>
      </trkpt>
      <trkpt lat="42.81508" lon="1.74384">
        <ele>1752.14</ele>
        <time>2015-03-29T11:59:48Z</time>
      </trkpt>
      <trkpt lat="42.81508" lon="1.74386">
        <ele>1751.66</ele>
        <time>2015-03-29T12:00:17Z</time>
      </trkpt>
      <trkpt lat="42.81508" lon="1.74387">
        <ele>1752.62</ele>
        <time>2015-03-29T12:00:48Z</time>
      </trkpt>
      <trkpt lat="42.81508" lon="1.74391">
        <ele>1751.66</ele>
        <time>2015-03-29T12:01:24Z</time>
      </trkpt>
      <trkpt lat="42.81512" lon="1.74387">
        <ele>1752.14</ele>
        <time>2015-03-29T12:01:57Z</time>
      </trkpt>
      <trkpt lat="42.8151" lon="1.74386">
        <ele>1752.14</ele>
        <time>2015-03-29T12:02:31Z</time>
      </trkpt>
      <trkpt lat="42.81513" lon="1.74386">
        <ele>1752.14</ele>
        <time>2015-03-29T12:03:08Z</time>
      </trkpt>
      <trkpt lat="42.81515" lon="1.74385">
        <ele>1751.66</ele>
        <time>2015-03-29T12:03:41Z</time>
      </trkpt>
      <trkpt lat="42.81511" lon="1.74387">
        <ele>1755.5</ele>
        <time>2015-03-29T12:04:10Z</time>
      </trkpt>
      <trkpt lat="42.81511" lon="1.74386">
        <ele>1752.14</ele>
        <time>2015-03-29T12:04:11Z</time>
      </trkpt>
      <trkpt lat="42.81513" lon="1.74389">
        <ele>1753.1</ele>
        <time>2015-03-29T12:04:20Z</time>
      </trkpt>
      <trkpt lat="42.81518" lon="1.74387">
        <ele>1754.54</ele>
        <time>2015-03-29T12:04:35Z</time>
      </trkpt>
      <trkpt lat="42.81517" lon="1.74386">
        <ele>1752.14</ele>
        <time>2015-03-29T12:04:38Z</time>
      </trkpt>
      <trkpt lat="42.81519" lon="1.74386">
        <ele>1752.62</ele>
        <time>2015-03-29T12:05:04Z</time>
      </trkpt>
      <trkpt lat="42.81518" lon="1.74385">
        <ele>1755.5</ele>
        <time>2015-03-29T12:05:23Z</time>
      </trkpt>
      <trkpt lat="42.81517" lon="1.74385">
        <ele>1752.62</ele>
        <time>2015-03-29T12:05:39Z</time>
      </trkpt>
      <trkpt lat="42.81517" lon="1.74386">
        <ele>1753.1</ele>
        <time>2015-03-29T12:06:24Z</time>
      </trkpt>
      <trkpt lat="42.81516" lon="1.74385">
        <ele>1750.7</ele>
        <time>2015-03-29T12:06:53Z</time>
      </trkpt>
      <trkpt lat="42.81516" lon="1.74386">
        <ele>1753.58</ele>
        <time>2015-03-29T12:07:30Z</time>
      </trkpt>
      <trkpt lat="42.81517" lon="1.74387">
        <ele>1754.06</ele>
        <time>2015-03-29T12:08:01Z</time>
      </trkpt>
      <trkpt lat="42.81516" lon="1.74387">
        <ele>1754.54</ele>
        <time>2015-03-29T12:08:14Z</time>
      </trkpt>
      <trkpt lat="42.81518" lon="1.74386">
        <ele>1753.1</ele>
        <time>2015-03-29T12:08:42Z</time>
      </trkpt>
      <trkpt lat="42.81517" lon="1.74385">
        <ele>1753.1</ele>
        <time>2015-03-29T12:09:10Z</time>
      </trkpt>
      <trkpt lat="42.81516" lon="1.74385">
        <ele>1753.58</ele>
        <time>2015-03-29T12:09:41Z</time>
      </trkpt>
      <trkpt lat="42.81517" lon="1.74386">
        <ele>1753.58</ele>
        <time>2015-03-29T12:10:13Z</time>
      </trkpt>
      <trkpt lat="42.81517" lon="1.74386">
        <ele>1754.54</ele>
        <time>2015-03-29T12:10:52Z</time>
      </trkpt>
      <trkpt lat="42.81517" lon="1.74386">
        <ele>1752.62</ele>
        <time>2015-03-29T12:11:22Z</time>
      </trkpt>
      <trkpt lat="42.81515" lon="1.74386">
        <ele>1751.18</ele>
        <time>2015-03-29T12:11:54Z</time>
      </trkpt>
      <trkpt lat="42.81516" lon="1.74386">
        <ele>1752.14</ele>
        <time>2015-03-29T12:12:34Z</time>
      </trkpt>
      <trkpt lat="42.81517" lon="1.74386">
        <ele>1751.66</ele>
        <time>2015-03-29T12:13:18Z</time>
      </trkpt>
      <trkpt lat="42.81517" lon="1.74387">
        <ele>1752.62</ele>
        <time>2015-03-29T12:13:49Z</time>
      </trkpt>
      <trkpt lat="42.81518" lon="1.74387">
        <ele>1751.66</ele>
        <time>2015-03-29T12:14:16Z</time>
      </trkpt>
      <trkpt lat="42.81516" lon="1.74385">
        <ele>1752.14</ele>
        <time>2015-03-29T12:14:56Z</time>
      </trkpt>
      <trkpt lat="42.81518" lon="1.74386">
        <ele>1751.66</ele>
        <time>2015-03-29T12:15:24Z</time>
      </trkpt>
      <trkpt lat="42.81518" lon="1.74387">
        <ele>1752.62</ele>
        <time>2015-03-29T12:16:01Z</time>
      </trkpt>
      <trkpt lat="42.81518" lon="1.74386">
        <ele>1752.14</ele>
        <time>2015-03-29T12:16:25Z</time>
      </trkpt>
      <trkpt lat="42.81518" lon="1.74386">
        <ele>1753.1</ele>
        <time>2015-03-29T12:16:35Z</time>
      </trkpt>
      <trkpt lat="42.8152" lon="1.74386">
        <ele>1751.66</ele>
        <time>2015-03-29T12:16:48Z</time>
      </trkpt>
      <trkpt lat="42.8152" lon="1.7438">
        <ele>1752.14</ele>
        <time>2015-03-29T12:16:58Z</time>
      </trkpt>
      <trkpt lat="42.81521" lon="1.7438">
        <ele>1752.14</ele>
        <time>2015-03-29T12:17:22Z</time>
      </trkpt>
      <trkpt lat="42.81516" lon="1.74378">
        <ele>1752.14</ele>
        <time>2015-03-29T12:17:46Z</time>
      </trkpt>
      <trkpt lat="42.8151" lon="1.74381">
        <ele>1753.1</ele>
        <time>2015-03-29T12:18:12Z</time>
      </trkpt>
      <trkpt lat="42.81504" lon="1.74385">
        <ele>1752.62</ele>
        <time>2015-03-29T12:18:24Z</time>
      </trkpt>
      <trkpt lat="42.81504" lon="1.7439">
        <ele>1752.62</ele>
        <time>2015-03-29T12:18:35Z</time>
      </trkpt>
      <trkpt lat="42.81506" lon="1.74393">
        <ele>1753.1</ele>
        <time>2015-03-29T12:18:59Z</time>
      </trkpt>
      <trkpt lat="42.81496" lon="1.7439">
        <ele>1752.14</ele>
        <time>2015-03-29T12:19:11Z</time>
      </trkpt>
      <trkpt lat="42.8149" lon="1.7439">
        <ele>1752.14</ele>
        <time>2015-03-29T12:19:20Z</time>
      </trkpt>
      <trkpt lat="42.81483" lon="1.74386">
        <ele>1751.18</ele>
        <time>2015-03-29T12:19:32Z</time>
      </trkpt>
      <trkpt lat="42.81479" lon="1.74381">
        <ele>1749.74</ele>
        <time>2015-03-29T12:19:45Z</time>
      </trkpt>
      <trkpt lat="42.81478" lon="1.7438">
        <ele>1749.74</ele>
        <time>2015-03-29T12:19:46Z</time>
      </trkpt>
      <trkpt lat="42.81472" lon="1.7437">
        <ele>1750.22</ele>
        <time>2015-03-29T12:20:00Z</time>
      </trkpt>
      <trkpt lat="42.81462" lon="1.74362">
        <ele>1752.62</ele>
        <time>2015-03-29T12:20:14Z</time>
      </trkpt>
      <trkpt lat="42.81454" lon="1.74354">
        <ele>1751.66</ele>
        <time>2015-03-29T12:20:27Z</time>
      </trkpt>
      <trkpt lat="42.81446" lon="1.74347">
        <ele>1751.18</ele>
        <time>2015-03-29T12:20:40Z</time>
      </trkpt>
      <trkpt lat="42.81439" lon="1.74343">
        <ele>1751.66</ele>
        <time>2015-03-29T12:20:53Z</time>
      </trkpt>
      <trkpt lat="42.81431" lon="1.74336">
        <ele>1751.66</ele>
        <time>2015-03-29T12:21:05Z</time>
      </trkpt>
      <trkpt lat="42.81423" lon="1.74329">
        <ele>1752.14</ele>
        <time>2015-03-29T12:21:17Z</time>
      </trkpt>
      <trkpt lat="42.81413" lon="1.74324">
        <ele>1750.22</ele>
        <time>2015-03-29T12:21:30Z</time>
      </trkpt>
      <trkpt lat="42.81411" lon="1.74323">
        <ele>1749.74</ele>
        <time>2015-03-29T12:21:32Z</time>
      </trkpt>
      <trkpt lat="42.81403" lon="1.74318">
        <ele>1751.18</ele>
        <time>2015-03-29T12:21:46Z</time>
      </trkpt>
      <trkpt lat="42.814" lon="1.74318">
        <ele>1748.29</ele>
        <time>2015-03-29T12:21:50Z</time>
      </trkpt>
      <trkpt lat="42.81395" lon="1.74315">
        <ele>1752.14</ele>
        <time>2015-03-29T12:21:58Z</time>
      </trkpt>
      <trkpt lat="42.81394" lon="1.74315">
        <ele>1752.62</ele>
        <time>2015-03-29T12:21:59Z</time>
      </trkpt>
      <trkpt lat="42.81389" lon="1.74313">
        <ele>1747.81</ele>
        <time>2015-03-29T12:22:06Z</time>
      </trkpt>
      <trkpt lat="42.8138" lon="1.74309">
        <ele>1744.93</ele>
        <time>2015-03-29T12:22:19Z</time>
      </trkpt>
      <trkpt lat="42.81373" lon="1.743">
        <ele>1744.93</ele>
        <time>2015-03-29T12:22:32Z</time>
      </trkpt>
      <trkpt lat="42.8137" lon="1.74297">
        <ele>1742.05</ele>
        <time>2015-03-29T12:22:38Z</time>
      </trkpt>
      <trkpt lat="42.81361" lon="1.74289">
        <ele>1742.05</ele>
        <time>2015-03-29T12:22:51Z</time>
      </trkpt>
      <trkpt lat="42.81354" lon="1.74283">
        <ele>1742.05</ele>
        <time>2015-03-29T12:23:03Z</time>
      </trkpt>
      <trkpt lat="42.81346" lon="1.74279">
        <ele>1742.53</ele>
        <time>2015-03-29T12:23:13Z</time>
      </trkpt>
      <trkpt lat="42.81336" lon="1.74274">
        <ele>1739.64</ele>
        <time>2015-03-29T12:23:26Z</time>
      </trkpt>
      <trkpt lat="42.8133" lon="1.74269">
        <ele>1737.72</ele>
        <time>2015-03-29T12:23:36Z</time>
      </trkpt>
      <trkpt lat="42.81321" lon="1.74264">
        <ele>1735.8</ele>
        <time>2015-03-29T12:23:49Z</time>
      </trkpt>
      <trkpt lat="42.81316" lon="1.74259">
        <ele>1736.76</ele>
        <time>2015-03-29T12:24:00Z</time>
      </trkpt>
      <trkpt lat="42.81308" lon="1.74253">
        <ele>1736.28</ele>
        <time>2015-03-29T12:24:12Z</time>
      </trkpt>
      <trkpt lat="42.81301" lon="1.74247">
        <ele>1733.39</ele>
        <time>2015-03-29T12:24:23Z</time>
      </trkpt>
      <trkpt lat="42.81295" lon="1.74241">
        <ele>1731.47</ele>
        <time>2015-03-29T12:24:34Z</time>
      </trkpt>
      <trkpt lat="42.8129" lon="1.7423">
        <ele>1730.03</ele>
        <time>2015-03-29T12:24:50Z</time>
      </trkpt>
      <trkpt lat="42.81286" lon="1.74225">
        <ele>1730.51</ele>
        <time>2015-03-29T12:24:57Z</time>
      </trkpt>
      <trkpt lat="42.81277" lon="1.74218">
        <ele>1731.95</ele>
        <time>2015-03-29T12:25:11Z</time>
      </trkpt>
      <trkpt lat="42.81272" lon="1.74213">
        <ele>1731.95</ele>
        <time>2015-03-29T12:25:21Z</time>
      </trkpt>
      <trkpt lat="42.81265" lon="1.74208">
        <ele>1732.43</ele>
        <time>2015-03-29T12:25:33Z</time>
      </trkpt>
      <trkpt lat="42.81256" lon="1.74206">
        <ele>1735.32</ele>
        <time>2015-03-29T12:25:48Z</time>
      </trkpt>
      <trkpt lat="42.81251" lon="1.74205">
        <ele>1737.24</ele>
        <time>2015-03-29T12:26:00Z</time>
      </trkpt>
      <trkpt lat="42.81245" lon="1.74202">
        <ele>1739.16</ele>
        <time>2015-03-29T12:26:15Z</time>
      </trkpt>
      <trkpt lat="42.81237" lon="1.74198">
        <ele>1739.16</ele>
        <time>2015-03-29T12:26:28Z</time>
      </trkpt>
      <trkpt lat="42.81235" lon="1.74197">
        <ele>1739.16</ele>
        <time>2015-03-29T12:26:42Z</time>
      </trkpt>
      <trkpt lat="42.81236" lon="1.74198">
        <ele>1738.68</ele>
        <time>2015-03-29T12:26:58Z</time>
      </trkpt>
      <trkpt lat="42.81234" lon="1.74196">
        <ele>1740.12</ele>
        <time>2015-03-29T12:27:13Z</time>
      </trkpt>
      <trkpt lat="42.81233" lon="1.74194">
        <ele>1739.64</ele>
        <time>2015-03-29T12:27:30Z</time>
      </trkpt>
      <trkpt lat="42.81223" lon="1.74187">
        <ele>1739.16</ele>
        <time>2015-03-29T12:27:42Z</time>
      </trkpt>
      <trkpt lat="42.81217" lon="1.74185">
        <ele>1737.24</ele>
        <time>2015-03-29T12:27:49Z</time>
      </trkpt>
      <trkpt lat="42.81208" lon="1.74174">
        <ele>1734.84</ele>
        <time>2015-03-29T12:28:04Z</time>
      </trkpt>
      <trkpt lat="42.81201" lon="1.74169">
        <ele>1733.88</ele>
        <time>2015-03-29T12:28:17Z</time>
      </trkpt>
      <trkpt lat="42.81193" lon="1.74162">
        <ele>1730.99</ele>
        <time>2015-03-29T12:28:28Z</time>
      </trkpt>
      <trkpt lat="42.81182" lon="1.74156">
        <ele>1729.55</ele>
        <time>2015-03-29T12:28:41Z</time>
      </trkpt>
      <trkpt lat="42.81174" lon="1.7415">
        <ele>1730.51</ele>
        <time>2015-03-29T12:28:53Z</time>
      </trkpt>
      <trkpt lat="42.81167" lon="1.74144">
        <ele>1729.07</ele>
        <time>2015-03-29T12:29:09Z</time>
      </trkpt>
      <trkpt lat="42.81156" lon="1.74134">
        <ele>1730.03</ele>
        <time>2015-03-29T12:29:26Z</time>
      </trkpt>
      <trkpt lat="42.81145" lon="1.74131">
        <ele>1732.91</ele>
        <time>2015-03-29T12:29:39Z</time>
      </trkpt>
      <trkpt lat="42.81137" lon="1.74128">
        <ele>1732.91</ele>
        <time>2015-03-29T12:29:51Z</time>
      </trkpt>
      <trkpt lat="42.81132" lon="1.74125">
        <ele>1732.43</ele>
        <time>2015-03-29T12:30:05Z</time>
      </trkpt>
      <trkpt lat="42.8112" lon="1.74122">
        <ele>1730.99</ele>
        <time>2015-03-29T12:30:18Z</time>
      </trkpt>
      <trkpt lat="42.81118" lon="1.74123">
        <ele>1730.99</ele>
        <time>2015-03-29T12:30:20Z</time>
      </trkpt>
      <trkpt lat="42.81108" lon="1.74124">
        <ele>1731.95</ele>
        <time>2015-03-29T12:30:33Z</time>
      </trkpt>
      <trkpt lat="42.81104" lon="1.74126">
        <ele>1731.47</ele>
        <time>2015-03-29T12:30:46Z</time>
      </trkpt>
      <trkpt lat="42.81104" lon="1.74127">
        <ele>1732.43</ele>
        <time>2015-03-29T12:31:00Z</time>
      </trkpt>
      <trkpt lat="42.81103" lon="1.74126">
        <ele>1731.47</ele>
        <time>2015-03-29T12:31:16Z</time>
      </trkpt>
      <trkpt lat="42.81103" lon="1.74128">
        <ele>1733.88</ele>
        <time>2015-03-29T12:31:34Z</time>
      </trkpt>
      <trkpt lat="42.81104" lon="1.74128">
        <ele>1733.39</ele>
        <time>2015-03-29T12:31:35Z</time>
      </trkpt>
      <trkpt lat="42.81105" lon="1.74128">
        <ele>1732.43</ele>
        <time>2015-03-29T12:31:47Z</time>
      </trkpt>
      <trkpt lat="42.81101" lon="1.74125">
        <ele>1731.95</ele>
        <time>2015-03-29T12:32:00Z</time>
      </trkpt>
      <trkpt lat="42.81097" lon="1.74125">
        <ele>1733.88</ele>
        <time>2015-03-29T12:32:15Z</time>
      </trkpt>
      <trkpt lat="42.8109" lon="1.74129">
        <ele>1736.76</ele>
        <time>2015-03-29T12:32:29Z</time>
      </trkpt>
      <trkpt lat="42.81089" lon="1.74129">
        <ele>1736.76</ele>
        <time>2015-03-29T12:32:30Z</time>
      </trkpt>
      <trkpt lat="42.8109" lon="1.74129">
        <ele>1735.32</ele>
        <time>2015-03-29T12:32:32Z</time>
      </trkpt>
      <trkpt lat="42.81082" lon="1.7413">
        <ele>1735.32</ele>
        <time>2015-03-29T12:32:48Z</time>
      </trkpt>
      <trkpt lat="42.81076" lon="1.74131">
        <ele>1733.88</ele>
        <time>2015-03-29T12:32:57Z</time>
      </trkpt>
      <trkpt lat="42.81063" lon="1.74132">
        <ele>1733.39</ele>
        <time>2015-03-29T12:33:12Z</time>
      </trkpt>
      <trkpt lat="42.81057" lon="1.74133">
        <ele>1733.39</ele>
        <time>2015-03-29T12:33:26Z</time>
      </trkpt>
      <trkpt lat="42.81049" lon="1.7414">
        <ele>1733.39</ele>
        <time>2015-03-29T12:33:40Z</time>
      </trkpt>
      <trkpt lat="42.81044" lon="1.74138">
        <ele>1731.47</ele>
        <time>2015-03-29T12:33:50Z</time>
      </trkpt>
      <trkpt lat="42.81038" lon="1.74138">
        <ele>1730.99</ele>
        <time>2015-03-29T12:33:57Z</time>
      </trkpt>
      <trkpt lat="42.81031" lon="1.74137">
        <ele>1731.47</ele>
        <time>2015-03-29T12:34:08Z</time>
      </trkpt>
      <trkpt lat="42.81024" lon="1.74137">
        <ele>1729.55</ele>
        <time>2015-03-29T12:34:16Z</time>
      </trkpt>
      <trkpt lat="42.81021" lon="1.74136">
        <ele>1728.11</ele>
        <time>2015-03-29T12:34:25Z</time>
      </trkpt>
      <trkpt lat="42.81018" lon="1.74135">
        <ele>1727.63</ele>
        <time>2015-03-29T12:34:29Z</time>
      </trkpt>
      <trkpt lat="42.81009" lon="1.74131">
        <ele>1726.67</ele>
        <time>2015-03-29T12:34:42Z</time>
      </trkpt>
      <trkpt lat="42.80999" lon="1.7413">
        <ele>1726.67</ele>
        <time>2015-03-29T12:34:54Z</time>
      </trkpt>
      <trkpt lat="42.80999" lon="1.7413">
        <ele>1726.18</ele>
        <time>2015-03-29T12:34:55Z</time>
      </trkpt>
      <trkpt lat="42.80999" lon="1.74128">
        <ele>1726.18</ele>
        <time>2015-03-29T12:34:57Z</time>
      </trkpt>
      <trkpt lat="42.80986" lon="1.74121">
        <ele>1724.26</ele>
        <time>2015-03-29T12:35:11Z</time>
      </trkpt>
      <trkpt lat="42.80975" lon="1.74116">
        <ele>1723.78</ele>
        <time>2015-03-29T12:35:25Z</time>
      </trkpt>
      <trkpt lat="42.80965" lon="1.74111">
        <ele>1722.34</ele>
        <time>2015-03-29T12:35:37Z</time>
      </trkpt>
      <trkpt lat="42.80965" lon="1.74111">
        <ele>1722.34</ele>
        <time>2015-03-29T12:35:38Z</time>
      </trkpt>
      <trkpt lat="42.80954" lon="1.74103">
        <ele>1721.38</ele>
        <time>2015-03-29T12:35:52Z</time>
      </trkpt>
      <trkpt lat="42.8094" lon="1.74096">
        <ele>1719.46</ele>
        <time>2015-03-29T12:36:07Z</time>
      </trkpt>
      <trkpt lat="42.8093" lon="1.74089">
        <ele>1720.42</ele>
        <time>2015-03-29T12:36:20Z</time>
      </trkpt>
      <trkpt lat="42.80921" lon="1.74083">
        <ele>1716.09</ele>
        <time>2015-03-29T12:36:30Z</time>
      </trkpt>
      <trkpt lat="42.80914" lon="1.74076">
        <ele>1715.61</ele>
        <time>2015-03-29T12:36:43Z</time>
      </trkpt>
      <trkpt lat="42.80905" lon="1.74068">
        <ele>1712.25</ele>
        <time>2015-03-29T12:36:57Z</time>
      </trkpt>
      <trkpt lat="42.80901" lon="1.74064">
        <ele>1711.28</ele>
        <time>2015-03-29T12:37:03Z</time>
      </trkpt>
      <trkpt lat="42.80901" lon="1.74063">
        <ele>1711.28</ele>
        <time>2015-03-29T12:37:04Z</time>
      </trkpt>
      <trkpt lat="42.80899" lon="1.74063">
        <ele>1709.84</ele>
        <time>2015-03-29T12:37:06Z</time>
      </trkpt>
      <trkpt lat="42.80887" lon="1.74055">
        <ele>1708.88</ele>
        <time>2015-03-29T12:37:20Z</time>
      </trkpt>
      <trkpt lat="42.80885" lon="1.74053">
        <ele>1707.44</ele>
        <time>2015-03-29T12:37:23Z</time>
      </trkpt>
      <trkpt lat="42.80881" lon="1.7405">
        <ele>1706.48</ele>
        <time>2015-03-29T12:37:30Z</time>
      </trkpt>
      <trkpt lat="42.80878" lon="1.74048">
        <ele>1707.92</ele>
        <time>2015-03-29T12:37:34Z</time>
      </trkpt>
      <trkpt lat="42.80876" lon="1.74045">
        <ele>1706.48</ele>
        <time>2015-03-29T12:37:37Z</time>
      </trkpt>
      <trkpt lat="42.80873" lon="1.74034">
        <ele>1704.55</ele>
        <time>2015-03-29T12:37:46Z</time>
      </trkpt>
      <trkpt lat="42.80871" lon="1.74034">
        <ele>1705.52</ele>
        <time>2015-03-29T12:37:48Z</time>
      </trkpt>
      <trkpt lat="42.80867" lon="1.74031">
        <ele>1703.59</ele>
        <time>2015-03-29T12:37:52Z</time>
      </trkpt>
      <trkpt lat="42.80856" lon="1.74027">
        <ele>1703.59</ele>
        <time>2015-03-29T12:38:04Z</time>
      </trkpt>
      <trkpt lat="42.80855" lon="1.74026">
        <ele>1700.23</ele>
        <time>2015-03-29T12:38:07Z</time>
      </trkpt>
      <trkpt lat="42.8085" lon="1.74025">
        <ele>1700.71</ele>
        <time>2015-03-29T12:38:18Z</time>
      </trkpt>
      <trkpt lat="42.80849" lon="1.74025">
        <ele>1700.71</ele>
        <time>2015-03-29T12:38:32Z</time>
      </trkpt>
      <trkpt lat="42.80846" lon="1.74026">
        <ele>1698.31</ele>
        <time>2015-03-29T12:38:38Z</time>
      </trkpt>
      <trkpt lat="42.8084" lon="1.74026">
        <ele>1696.86</ele>
        <time>2015-03-29T12:38:51Z</time>
      </trkpt>
      <trkpt lat="42.80833" lon="1.74032">
        <ele>1695.9</ele>
        <time>2015-03-29T12:39:03Z</time>
      </trkpt>
      <trkpt lat="42.80831" lon="1.74035">
        <ele>1694.94</ele>
        <time>2015-03-29T12:39:19Z</time>
      </trkpt>
      <trkpt lat="42.80834" lon="1.74035">
        <ele>1694.46</ele>
        <time>2015-03-29T12:39:44Z</time>
      </trkpt>
      <trkpt lat="42.80832" lon="1.74035">
        <ele>1693.98</ele>
        <time>2015-03-29T12:40:02Z</time>
      </trkpt>
      <trkpt lat="42.80832" lon="1.74035">
        <ele>1692.54</ele>
        <time>2015-03-29T12:40:17Z</time>
      </trkpt>
      <trkpt lat="42.80831" lon="1.74034">
        <ele>1694.94</ele>
        <time>2015-03-29T12:40:27Z</time>
      </trkpt>
      <trkpt lat="42.80831" lon="1.74034">
        <ele>1693.98</ele>
        <time>2015-03-29T12:40:42Z</time>
      </trkpt>
      <trkpt lat="42.80825" lon="1.74035">
        <ele>1691.58</ele>
        <time>2015-03-29T12:40:52Z</time>
      </trkpt>
      <trkpt lat="42.8082" lon="1.74039">
        <ele>1691.58</ele>
        <time>2015-03-29T12:40:59Z</time>
      </trkpt>
      <trkpt lat="42.80814" lon="1.7405">
        <ele>1687.73</ele>
        <time>2015-03-29T12:41:15Z</time>
      </trkpt>
      <trkpt lat="42.8081" lon="1.74054">
        <ele>1686.29</ele>
        <time>2015-03-29T12:41:23Z</time>
      </trkpt>
      <trkpt lat="42.80807" lon="1.74057">
        <ele>1683.41</ele>
        <time>2015-03-29T12:41:37Z</time>
      </trkpt>
      <trkpt lat="42.80805" lon="1.7406">
        <ele>1681.48</ele>
        <time>2015-03-29T12:41:52Z</time>
      </trkpt>
      <trkpt lat="42.80802" lon="1.74061">
        <ele>1678.12</ele>
        <time>2015-03-29T12:42:05Z</time>
      </trkpt>
      <trkpt lat="42.80799" lon="1.74064">
        <ele>1675.23</ele>
        <time>2015-03-29T12:42:19Z</time>
      </trkpt>
      <trkpt lat="42.80799" lon="1.74071">
        <ele>1674.75</ele>
        <time>2015-03-29T12:42:31Z</time>
      </trkpt>
      <trkpt lat="42.808" lon="1.74079">
        <ele>1673.31</ele>
        <time>2015-03-29T12:42:44Z</time>
      </trkpt>
      <trkpt lat="42.80799" lon="1.74087">
        <ele>1671.87</ele>
        <time>2015-03-29T12:43:00Z</time>
      </trkpt>
      <trkpt lat="42.80799" lon="1.74092">
        <ele>1670.43</ele>
        <time>2015-03-29T12:43:14Z</time>
      </trkpt>
      <trkpt lat="42.80796" lon="1.74099">
        <ele>1670.43</ele>
        <time>2015-03-29T12:43:30Z</time>
      </trkpt>
      <trkpt lat="42.80796" lon="1.74101">
        <ele>1668.99</ele>
        <time>2015-03-29T12:43:34Z</time>
      </trkpt>
      <trkpt lat="42.80795" lon="1.74112">
        <ele>1668.51</ele>
        <time>2015-03-29T12:43:49Z</time>
      </trkpt>
      <trkpt lat="42.80792" lon="1.74117">
        <ele>1665.62</ele>
        <time>2015-03-29T12:44:03Z</time>
      </trkpt>
      <trkpt lat="42.80788" lon="1.74122">
        <ele>1662.74</ele>
        <time>2015-03-29T12:44:15Z</time>
      </trkpt>
      <trkpt lat="42.80781" lon="1.74131">
        <ele>1659.85</ele>
        <time>2015-03-29T12:44:30Z</time>
      </trkpt>
      <trkpt lat="42.80776" lon="1.74138">
        <ele>1656.49</ele>
        <time>2015-03-29T12:44:40Z</time>
      </trkpt>
      <trkpt lat="42.80773" lon="1.74143">
        <ele>1655.05</ele>
        <time>2015-03-29T12:44:45Z</time>
      </trkpt>
      <trkpt lat="42.8077" lon="1.74149">
        <ele>1653.12</ele>
        <time>2015-03-29T12:44:53Z</time>
      </trkpt>
      <trkpt lat="42.80761" lon="1.7416">
        <ele>1650.24</ele>
        <time>2015-03-29T12:45:07Z</time>
      </trkpt>
      <trkpt lat="42.80757" lon="1.74166">
        <ele>1647.84</ele>
        <time>2015-03-29T12:45:14Z</time>
      </trkpt>
      <trkpt lat="42.8075" lon="1.74178">
        <ele>1645.91</ele>
        <time>2015-03-29T12:45:28Z</time>
      </trkpt>
      <trkpt lat="42.80743" lon="1.74191">
        <ele>1643.51</ele>
        <time>2015-03-29T12:45:42Z</time>
      </trkpt>
      <trkpt lat="42.80738" lon="1.74197">
        <ele>1640.63</ele>
        <time>2015-03-29T12:45:50Z</time>
      </trkpt>
      <trkpt lat="42.8073" lon="1.74205">
        <ele>1637.74</ele>
        <time>2015-03-29T12:46:02Z</time>
      </trkpt>
      <trkpt lat="42.80729" lon="1.74208">
        <ele>1637.26</ele>
        <time>2015-03-29T12:46:05Z</time>
      </trkpt>
      <trkpt lat="42.80727" lon="1.74211">
        <ele>1636.78</ele>
        <time>2015-03-29T12:46:08Z</time>
      </trkpt>
      <trkpt lat="42.80726" lon="1.74212">
        <ele>1635.82</ele>
        <time>2015-03-29T12:46:10Z</time>
      </trkpt>
      <trkpt lat="42.80724" lon="1.74212">
        <ele>1635.34</ele>
        <time>2015-03-29T12:46:12Z</time>
      </trkpt>
      <trkpt lat="42.80716" lon="1.74218">
        <ele>1632.94</ele>
        <time>2015-03-29T12:46:23Z</time>
      </trkpt>
      <trkpt lat="42.80714" lon="1.74228">
        <ele>1632.46</ele>
        <time>2015-03-29T12:46:37Z</time>
      </trkpt>
      <trkpt lat="42.80709" lon="1.74232">
        <ele>1630.53</ele>
        <time>2015-03-29T12:46:46Z</time>
      </trkpt>
      <trkpt lat="42.80706" lon="1.74235">
        <ele>1629.09</ele>
        <time>2015-03-29T12:46:51Z</time>
      </trkpt>
      <trkpt lat="42.80701" lon="1.74237">
        <ele>1627.65</ele>
        <time>2015-03-29T12:46:57Z</time>
      </trkpt>
      <trkpt lat="42.80693" lon="1.74241">
        <ele>1625.25</ele>
        <time>2015-03-29T12:47:10Z</time>
      </trkpt>
      <trkpt lat="42.80688" lon="1.74249">
        <ele>1622.36</ele>
        <time>2015-03-29T12:47:22Z</time>
      </trkpt>
      <trkpt lat="42.8068" lon="1.74258">
        <ele>1619</ele>
        <time>2015-03-29T12:47:35Z</time>
      </trkpt>
      <trkpt lat="42.80674" lon="1.74265">
        <ele>1615.63</ele>
        <time>2015-03-29T12:47:45Z</time>
      </trkpt>
      <trkpt lat="42.80673" lon="1.7427">
        <ele>1612.75</ele>
        <time>2015-03-29T12:47:53Z</time>
      </trkpt>
      <trkpt lat="42.8067" lon="1.74277">
        <ele>1609.38</ele>
        <time>2015-03-29T12:48:05Z</time>
      </trkpt>
      <trkpt lat="42.80671" lon="1.74299">
        <ele>1606.5</ele>
        <time>2015-03-29T12:48:18Z</time>
      </trkpt>
      <trkpt lat="42.80669" lon="1.7431">
        <ele>1603.62</ele>
        <time>2015-03-29T12:48:26Z</time>
      </trkpt>
      <trkpt lat="42.80666" lon="1.74322">
        <ele>1600.73</ele>
        <time>2015-03-29T12:48:37Z</time>
      </trkpt>
      <trkpt lat="42.80664" lon="1.74326">
        <ele>1598.33</ele>
        <time>2015-03-29T12:48:42Z</time>
      </trkpt>
      <trkpt lat="42.80658" lon="1.7433">
        <ele>1595.45</ele>
        <time>2015-03-29T12:48:51Z</time>
      </trkpt>
      <trkpt lat="42.80656" lon="1.74334">
        <ele>1593.04</ele>
        <time>2015-03-29T12:49:01Z</time>
      </trkpt>
      <trkpt lat="42.80652" lon="1.74353">
        <ele>1590.64</ele>
        <time>2015-03-29T12:49:15Z</time>
      </trkpt>
      <trkpt lat="42.80644" lon="1.74362">
        <ele>1587.27</ele>
        <time>2015-03-29T12:49:27Z</time>
      </trkpt>
      <trkpt lat="42.80637" lon="1.74371">
        <ele>1584.87</ele>
        <time>2015-03-29T12:49:40Z</time>
      </trkpt>
      <trkpt lat="42.8064" lon="1.74383">
        <ele>1582.95</ele>
        <time>2015-03-29T12:49:53Z</time>
      </trkpt>
      <trkpt lat="42.80638" lon="1.74393">
        <ele>1579.58</ele>
        <time>2015-03-29T12:50:02Z</time>
      </trkpt>
      <trkpt lat="42.80637" lon="1.74394">
        <ele>1579.1</ele>
        <time>2015-03-29T12:50:04Z</time>
      </trkpt>
      <trkpt lat="42.80636" lon="1.74402">
        <ele>1575.74</ele>
        <time>2015-03-29T12:50:12Z</time>
      </trkpt>
      <trkpt lat="42.80636" lon="1.74403">
        <ele>1575.74</ele>
        <time>2015-03-29T12:50:13Z</time>
      </trkpt>
      <trkpt lat="42.80636" lon="1.74411">
        <ele>1573.33</ele>
        <time>2015-03-29T12:50:20Z</time>
      </trkpt>
      <trkpt lat="42.80635" lon="1.7442">
        <ele>1570.45</ele>
        <time>2015-03-29T12:50:28Z</time>
      </trkpt>
      <trkpt lat="42.80633" lon="1.74428">
        <ele>1567.09</ele>
        <time>2015-03-29T12:50:36Z</time>
      </trkpt>
      <trkpt lat="42.80634" lon="1.74444">
        <ele>1564.68</ele>
        <time>2015-03-29T12:50:48Z</time>
      </trkpt>
      <trkpt lat="42.8063" lon="1.74457">
        <ele>1561.8</ele>
        <time>2015-03-29T12:50:59Z</time>
      </trkpt>
      <trkpt lat="42.80626" lon="1.74467">
        <ele>1558.92</ele>
        <time>2015-03-29T12:51:12Z</time>
      </trkpt>
      <trkpt lat="42.80626" lon="1.74475">
        <ele>1558.92</ele>
        <time>2015-03-29T12:51:18Z</time>
      </trkpt>
      <trkpt lat="42.80627" lon="1.74476">
        <ele>1557.95</ele>
        <time>2015-03-29T12:51:21Z</time>
      </trkpt>
      <trkpt lat="42.80624" lon="1.7448">
        <ele>1556.51</ele>
        <time>2015-03-29T12:51:33Z</time>
      </trkpt>
      <trkpt lat="42.80621" lon="1.74485">
        <ele>1554.11</ele>
        <time>2015-03-29T12:51:47Z</time>
      </trkpt>
      <trkpt lat="42.80621" lon="1.74491">
        <ele>1555.07</ele>
        <time>2015-03-29T12:52:05Z</time>
      </trkpt>
      <trkpt lat="42.80621" lon="1.74483">
        <ele>1554.11</ele>
        <time>2015-03-29T12:52:23Z</time>
      </trkpt>
      <trkpt lat="42.80617" lon="1.74483">
        <ele>1553.63</ele>
        <time>2015-03-29T12:52:58Z</time>
      </trkpt>
      <trkpt lat="42.80618" lon="1.74484">
        <ele>1553.15</ele>
        <time>2015-03-29T12:53:37Z</time>
      </trkpt>
      <trkpt lat="42.80619" lon="1.74483">
        <ele>1553.15</ele>
        <time>2015-03-29T12:54:19Z</time>
      </trkpt>
      <trkpt lat="42.80618" lon="1.74484">
        <ele>1553.15</ele>
        <time>2015-03-29T12:54:34Z</time>
      </trkpt>
      <trkpt lat="42.8062" lon="1.74487">
        <ele>1553.63</ele>
        <time>2015-03-29T12:54:46Z</time>
      </trkpt>
      <trkpt lat="42.80622" lon="1.74485">
        <ele>1553.15</ele>
        <time>2015-03-29T12:54:59Z</time>
      </trkpt>
      <trkpt lat="42.80621" lon="1.74484">
        <ele>1553.15</ele>
        <time>2015-03-29T12:55:10Z</time>
      </trkpt>
      <trkpt lat="42.80619" lon="1.74481">
        <ele>1552.67</ele>
        <time>2015-03-29T12:55:27Z</time>
      </trkpt>
      <trkpt lat="42.80619" lon="1.74482">
        <ele>1552.67</ele>
        <time>2015-03-29T12:55:48Z</time>
      </trkpt>
      <trkpt lat="42.80617" lon="1.74483">
        <ele>1553.63</ele>
        <time>2015-03-29T12:56:16Z</time>
      </trkpt>
      <trkpt lat="42.80619" lon="1.74483">
        <ele>1552.19</ele>
        <time>2015-03-29T12:56:42Z</time>
      </trkpt>
      <trkpt lat="42.80617" lon="1.74488">
        <ele>1553.15</ele>
        <time>2015-03-29T12:57:06Z</time>
      </trkpt>
      <trkpt lat="42.80616" lon="1.74485">
        <ele>1553.15</ele>
        <time>2015-03-29T12:57:35Z</time>
      </trkpt>
      <trkpt lat="42.8062" lon="1.74488">
        <ele>1553.15</ele>
        <time>2015-03-29T12:58:08Z</time>
      </trkpt>
      <trkpt lat="42.80617" lon="1.74485">
        <ele>1552.19</ele>
        <time>2015-03-29T12:58:33Z</time>
      </trkpt>
      <trkpt lat="42.80614" lon="1.74478">
        <ele>1551.22</ele>
        <time>2015-03-29T12:58:44Z</time>
      </trkpt>
      <trkpt lat="42.80608" lon="1.74474">
        <ele>1550.26</ele>
        <time>2015-03-29T12:58:54Z</time>
      </trkpt>
      <trkpt lat="42.80604" lon="1.74472">
        <ele>1549.3</ele>
        <time>2015-03-29T12:59:05Z</time>
      </trkpt>
      <trkpt lat="42.80601" lon="1.74471">
        <ele>1548.34</ele>
        <time>2015-03-29T12:59:19Z</time>
      </trkpt>
      <trkpt lat="42.80595" lon="1.74469">
        <ele>1546.42</ele>
        <time>2015-03-29T12:59:30Z</time>
      </trkpt>
      <trkpt lat="42.80589" lon="1.74466">
        <ele>1544.98</ele>
        <time>2015-03-29T12:59:46Z</time>
      </trkpt>
      <trkpt lat="42.80584" lon="1.74464">
        <ele>1543.53</ele>
        <time>2015-03-29T12:59:56Z</time>
      </trkpt>
      <trkpt lat="42.80582" lon="1.74463">
        <ele>1543.05</ele>
        <time>2015-03-29T12:59:59Z</time>
      </trkpt>
      <trkpt lat="42.80577" lon="1.74463">
        <ele>1541.13</ele>
        <time>2015-03-29T13:00:09Z</time>
      </trkpt>
      <trkpt lat="42.80575" lon="1.74464">
        <ele>1540.17</ele>
        <time>2015-03-29T13:00:12Z</time>
      </trkpt>
      <trkpt lat="42.80568" lon="1.74461">
        <ele>1536.8</ele>
        <time>2015-03-29T13:00:25Z</time>
      </trkpt>
      <trkpt lat="42.80561" lon="1.74458">
        <ele>1535.36</ele>
        <time>2015-03-29T13:00:34Z</time>
      </trkpt>
      <trkpt lat="42.80557" lon="1.74454">
        <ele>1533.92</ele>
        <time>2015-03-29T13:00:40Z</time>
      </trkpt>
      <trkpt lat="42.80548" lon="1.74442">
        <ele>1531.52</ele>
        <time>2015-03-29T13:00:54Z</time>
      </trkpt>
      <trkpt lat="42.80547" lon="1.74442">
        <ele>1531.52</ele>
        <time>2015-03-29T13:00:55Z</time>
      </trkpt>
      <trkpt lat="42.80545" lon="1.7444">
        <ele>1531.04</ele>
        <time>2015-03-29T13:00:58Z</time>
      </trkpt>
      <trkpt lat="42.80543" lon="1.74437">
        <ele>1531.04</ele>
        <time>2015-03-29T13:01:01Z</time>
      </trkpt>
      <trkpt lat="42.8054" lon="1.74434">
        <ele>1530.08</ele>
        <time>2015-03-29T13:01:05Z</time>
      </trkpt>
      <trkpt lat="42.80532" lon="1.74428">
        <ele>1528.63</ele>
        <time>2015-03-29T13:01:19Z</time>
      </trkpt>
      <trkpt lat="42.80528" lon="1.74425">
        <ele>1528.15</ele>
        <time>2015-03-29T13:01:24Z</time>
      </trkpt>
      <trkpt lat="42.80523" lon="1.74419">
        <ele>1526.71</ele>
        <time>2015-03-29T13:01:36Z</time>
      </trkpt>
      <trkpt lat="42.80515" lon="1.74414">
        <ele>1525.27</ele>
        <time>2015-03-29T13:01:48Z</time>
      </trkpt>
      <trkpt lat="42.80509" lon="1.74408">
        <ele>1523.35</ele>
        <time>2015-03-29T13:02:00Z</time>
      </trkpt>
      <trkpt lat="42.805" lon="1.74397">
        <ele>1519.98</ele>
        <time>2015-03-29T13:02:14Z</time>
      </trkpt>
      <trkpt lat="42.80492" lon="1.7439">
        <ele>1517.1</ele>
        <time>2015-03-29T13:02:27Z</time>
      </trkpt>
      <trkpt lat="42.80491" lon="1.74389">
        <ele>1516.62</ele>
        <time>2015-03-29T13:02:28Z</time>
      </trkpt>
      <trkpt lat="42.80484" lon="1.74378">
        <ele>1513.25</ele>
        <time>2015-03-29T13:02:41Z</time>
      </trkpt>
      <trkpt lat="42.80482" lon="1.74376">
        <ele>1512.77</ele>
        <time>2015-03-29T13:02:44Z</time>
      </trkpt>
      <trkpt lat="42.80474" lon="1.74365">
        <ele>1509.41</ele>
        <time>2015-03-29T13:02:58Z</time>
      </trkpt>
      <trkpt lat="42.80471" lon="1.74363">
        <ele>1507.97</ele>
        <time>2015-03-29T13:03:04Z</time>
      </trkpt>
      <trkpt lat="42.80462" lon="1.74353">
        <ele>1505.08</ele>
        <time>2015-03-29T13:03:18Z</time>
      </trkpt>
      <trkpt lat="42.80454" lon="1.74346">
        <ele>1502.68</ele>
        <time>2015-03-29T13:03:32Z</time>
      </trkpt>
      <trkpt lat="42.80445" lon="1.74336">
        <ele>1500.27</ele>
        <time>2015-03-29T13:03:45Z</time>
      </trkpt>
      <trkpt lat="42.80437" lon="1.74328">
        <ele>1497.87</ele>
        <time>2015-03-29T13:03:57Z</time>
      </trkpt>
      <trkpt lat="42.8043" lon="1.74331">
        <ele>1494.99</ele>
        <time>2015-03-29T13:04:09Z</time>
      </trkpt>
      <trkpt lat="42.80429" lon="1.74344">
        <ele>1492.1</ele>
        <time>2015-03-29T13:04:22Z</time>
      </trkpt>
      <trkpt lat="42.8043" lon="1.74355">
        <ele>1489.7</ele>
        <time>2015-03-29T13:04:36Z</time>
      </trkpt>
      <trkpt lat="42.80429" lon="1.74356">
        <ele>1489.7</ele>
        <time>2015-03-29T13:04:37Z</time>
      </trkpt>
      <trkpt lat="42.80432" lon="1.74365">
        <ele>1489.22</ele>
        <time>2015-03-29T13:04:48Z</time>
      </trkpt>
      <trkpt lat="42.80431" lon="1.74368">
        <ele>1488.74</ele>
        <time>2015-03-29T13:04:50Z</time>
      </trkpt>
      <trkpt lat="42.80434" lon="1.74378">
        <ele>1488.26</ele>
        <time>2015-03-29T13:04:58Z</time>
      </trkpt>
      <trkpt lat="42.80436" lon="1.74382">
        <ele>1488.74</ele>
        <time>2015-03-29T13:05:02Z</time>
      </trkpt>
      <trkpt lat="42.80435" lon="1.74397">
        <ele>1485.85</ele>
        <time>2015-03-29T13:05:16Z</time>
      </trkpt>
      <trkpt lat="42.80431" lon="1.74394">
        <ele>1483.45</ele>
        <time>2015-03-29T13:05:27Z</time>
      </trkpt>
      <trkpt lat="42.8043" lon="1.74394">
        <ele>1483.45</ele>
        <time>2015-03-29T13:05:30Z</time>
      </trkpt>
      <trkpt lat="42.80423" lon="1.74394">
        <ele>1480.09</ele>
        <time>2015-03-29T13:05:42Z</time>
      </trkpt>
      <trkpt lat="42.8042" lon="1.74393">
        <ele>1479.13</ele>
        <time>2015-03-29T13:05:46Z</time>
      </trkpt>
      <trkpt lat="42.80418" lon="1.74388">
        <ele>1478.16</ele>
        <time>2015-03-29T13:05:53Z</time>
      </trkpt>
      <trkpt lat="42.80413" lon="1.74386">
        <ele>1476.72</ele>
        <time>2015-03-29T13:05:58Z</time>
      </trkpt>
      <trkpt lat="42.80409" lon="1.74381">
        <ele>1474.8</ele>
        <time>2015-03-29T13:06:05Z</time>
      </trkpt>
      <trkpt lat="42.80405" lon="1.74381">
        <ele>1473.84</ele>
        <time>2015-03-29T13:06:08Z</time>
      </trkpt>
      <trkpt lat="42.80404" lon="1.74393">
        <ele>1472.4</ele>
        <time>2015-03-29T13:06:18Z</time>
      </trkpt>
      <trkpt lat="42.80401" lon="1.74403">
        <ele>1469.51</ele>
        <time>2015-03-29T13:06:27Z</time>
      </trkpt>
      <trkpt lat="42.80399" lon="1.74406">
        <ele>1468.07</ele>
        <time>2015-03-29T13:06:31Z</time>
      </trkpt>
      <trkpt lat="42.80399" lon="1.74412">
        <ele>1467.11</ele>
        <time>2015-03-29T13:06:35Z</time>
      </trkpt>
      <trkpt lat="42.80402" lon="1.74431">
        <ele>1464.23</ele>
        <time>2015-03-29T13:06:49Z</time>
      </trkpt>
      <trkpt lat="42.80397" lon="1.74429">
        <ele>1461.82</ele>
        <time>2015-03-29T13:07:01Z</time>
      </trkpt>
      <trkpt lat="42.80392" lon="1.74422">
        <ele>1460.38</ele>
        <time>2015-03-29T13:07:14Z</time>
      </trkpt>
      <trkpt lat="42.80391" lon="1.74425">
        <ele>1459.9</ele>
        <time>2015-03-29T13:07:28Z</time>
      </trkpt>
      <trkpt lat="42.8039" lon="1.74422">
        <ele>1458.94</ele>
        <time>2015-03-29T13:07:34Z</time>
      </trkpt>
      <trkpt lat="42.80385" lon="1.74415">
        <ele>1457.5</ele>
        <time>2015-03-29T13:07:43Z</time>
      </trkpt>
      <trkpt lat="42.80378" lon="1.74406">
        <ele>1455.57</ele>
        <time>2015-03-29T13:07:55Z</time>
      </trkpt>
      <trkpt lat="42.80372" lon="1.744">
        <ele>1452.21</ele>
        <time>2015-03-29T13:08:07Z</time>
      </trkpt>
      <trkpt lat="42.80364" lon="1.74393">
        <ele>1449.32</ele>
        <time>2015-03-29T13:08:22Z</time>
      </trkpt>
      <trkpt lat="42.80358" lon="1.74389">
        <ele>1447.4</ele>
        <time>2015-03-29T13:08:34Z</time>
      </trkpt>
      <trkpt lat="42.80357" lon="1.74388">
        <ele>1447.4</ele>
        <time>2015-03-29T13:08:35Z</time>
      </trkpt>
      <trkpt lat="42.80353" lon="1.74379">
        <ele>1445</ele>
        <time>2015-03-29T13:08:48Z</time>
      </trkpt>
      <trkpt lat="42.8035" lon="1.74371">
        <ele>1443.08</ele>
        <time>2015-03-29T13:08:59Z</time>
      </trkpt>
      <trkpt lat="42.80344" lon="1.74365">
        <ele>1442.11</ele>
        <time>2015-03-29T13:09:12Z</time>
      </trkpt>
      <trkpt lat="42.80343" lon="1.74365">
        <ele>1441.63</ele>
        <time>2015-03-29T13:09:30Z</time>
      </trkpt>
      <trkpt lat="42.80342" lon="1.74363">
        <ele>1442.6</ele>
        <time>2015-03-29T13:09:49Z</time>
      </trkpt>
      <trkpt lat="42.80344" lon="1.74367">
        <ele>1442.6</ele>
        <time>2015-03-29T13:10:17Z</time>
      </trkpt>
      <trkpt lat="42.80341" lon="1.74368">
        <ele>1441.63</ele>
        <time>2015-03-29T13:10:37Z</time>
      </trkpt>
      <trkpt lat="42.8034" lon="1.74368">
        <ele>1442.11</ele>
        <time>2015-03-29T13:11:03Z</time>
      </trkpt>
      <trkpt lat="42.80341" lon="1.74363">
        <ele>1441.63</ele>
        <time>2015-03-29T13:11:19Z</time>
      </trkpt>
      <trkpt lat="42.80339" lon="1.74351">
        <ele>1439.23</ele>
        <time>2015-03-29T13:11:31Z</time>
      </trkpt>
      <trkpt lat="42.80337" lon="1.74348">
        <ele>1438.27</ele>
        <time>2015-03-29T13:11:35Z</time>
      </trkpt>
      <trkpt lat="42.80333" lon="1.74335">
        <ele>1434.91</ele>
        <time>2015-03-29T13:11:49Z</time>
      </trkpt>
      <trkpt lat="42.8033" lon="1.74326">
        <ele>1433.46</ele>
        <time>2015-03-29T13:11:56Z</time>
      </trkpt>
      <trkpt lat="42.80328" lon="1.74323">
        <ele>1433.46</ele>
        <time>2015-03-29T13:11:59Z</time>
      </trkpt>
      <trkpt lat="42.80323" lon="1.74306">
        <ele>1430.58</ele>
        <time>2015-03-29T13:12:14Z</time>
      </trkpt>
      <trkpt lat="42.80323" lon="1.74299">
        <ele>1429.14</ele>
        <time>2015-03-29T13:12:19Z</time>
      </trkpt>
      <trkpt lat="42.80323" lon="1.74292">
        <ele>1428.18</ele>
        <time>2015-03-29T13:12:24Z</time>
      </trkpt>
      <trkpt lat="42.80317" lon="1.74277">
        <ele>1424.81</ele>
        <time>2015-03-29T13:12:38Z</time>
      </trkpt>
      <trkpt lat="42.80317" lon="1.74276">
        <ele>1424.81</ele>
        <time>2015-03-29T13:12:39Z</time>
      </trkpt>
      <trkpt lat="42.80315" lon="1.74269">
        <ele>1422.89</ele>
        <time>2015-03-29T13:12:45Z</time>
      </trkpt>
      <trkpt lat="42.80312" lon="1.74262">
        <ele>1422.41</ele>
        <time>2015-03-29T13:12:51Z</time>
      </trkpt>
      <trkpt lat="42.80307" lon="1.74242">
        <ele>1419.04</ele>
        <time>2015-03-29T13:13:07Z</time>
      </trkpt>
      <trkpt lat="42.80306" lon="1.74237">
        <ele>1418.08</ele>
        <time>2015-03-29T13:13:11Z</time>
      </trkpt>
      <trkpt lat="42.80306" lon="1.74225">
        <ele>1417.6</ele>
        <time>2015-03-29T13:13:24Z</time>
      </trkpt>
      <trkpt lat="42.80303" lon="1.74219">
        <ele>1418.08</ele>
        <time>2015-03-29T13:13:39Z</time>
      </trkpt>
      <trkpt lat="42.80303" lon="1.74217">
        <ele>1418.08</ele>
        <time>2015-03-29T13:14:01Z</time>
      </trkpt>
      <trkpt lat="42.803" lon="1.74203">
        <ele>1416.16</ele>
        <time>2015-03-29T13:14:15Z</time>
      </trkpt>
      <trkpt lat="42.80301" lon="1.74196">
        <ele>1416.16</ele>
        <time>2015-03-29T13:14:20Z</time>
      </trkpt>
      <trkpt lat="42.803" lon="1.74194">
        <ele>1415.68</ele>
        <time>2015-03-29T13:14:22Z</time>
      </trkpt>
      <trkpt lat="42.80299" lon="1.74177">
        <ele>1412.79</ele>
        <time>2015-03-29T13:14:37Z</time>
      </trkpt>
      <trkpt lat="42.80297" lon="1.74162">
        <ele>1411.35</ele>
        <time>2015-03-29T13:14:50Z</time>
      </trkpt>
      <trkpt lat="42.80295" lon="1.7415">
        <ele>1407.99</ele>
        <time>2015-03-29T13:15:01Z</time>
      </trkpt>
      <trkpt lat="42.80292" lon="1.74139">
        <ele>1405.1</ele>
        <time>2015-03-29T13:15:13Z</time>
      </trkpt>
      <trkpt lat="42.80288" lon="1.74125">
        <ele>1402.7</ele>
        <time>2015-03-29T13:15:26Z</time>
      </trkpt>
      <trkpt lat="42.80288" lon="1.74114">
        <ele>1401.26</ele>
        <time>2015-03-29T13:15:37Z</time>
      </trkpt>
      <trkpt lat="42.80288" lon="1.74112">
        <ele>1400.78</ele>
        <time>2015-03-29T13:15:39Z</time>
      </trkpt>
      <trkpt lat="42.80289" lon="1.74098">
        <ele>1399.34</ele>
        <time>2015-03-29T13:15:52Z</time>
      </trkpt>
      <trkpt lat="42.8029" lon="1.74087">
        <ele>1397.41</ele>
        <time>2015-03-29T13:16:05Z</time>
      </trkpt>
      <trkpt lat="42.8029" lon="1.74084">
        <ele>1396.93</ele>
        <time>2015-03-29T13:16:07Z</time>
      </trkpt>
      <trkpt lat="42.80284" lon="1.74071">
        <ele>1394.53</ele>
        <time>2015-03-29T13:16:21Z</time>
      </trkpt>
      <trkpt lat="42.80279" lon="1.74063">
        <ele>1393.09</ele>
        <time>2015-03-29T13:16:32Z</time>
      </trkpt>
      <trkpt lat="42.80277" lon="1.7406">
        <ele>1392.61</ele>
        <time>2015-03-29T13:16:36Z</time>
      </trkpt>
      <trkpt lat="42.80265" lon="1.74053">
        <ele>1390.68</ele>
        <time>2015-03-29T13:16:50Z</time>
      </trkpt>
      <trkpt lat="42.80253" lon="1.74043">
        <ele>1389.72</ele>
        <time>2015-03-29T13:17:06Z</time>
      </trkpt>
      <trkpt lat="42.80251" lon="1.74042">
        <ele>1388.76</ele>
        <time>2015-03-29T13:17:10Z</time>
      </trkpt>
      <trkpt lat="42.80245" lon="1.74037">
        <ele>1388.76</ele>
        <time>2015-03-29T13:17:23Z</time>
      </trkpt>
      <trkpt lat="42.80237" lon="1.7404">
        <ele>1389.72</ele>
        <time>2015-03-29T13:17:43Z</time>
      </trkpt>
      <trkpt lat="42.80234" lon="1.74041">
        <ele>1388.28</ele>
        <time>2015-03-29T13:18:09Z</time>
      </trkpt>
      <trkpt lat="42.80232" lon="1.74043">
        <ele>1387.8</ele>
        <time>2015-03-29T13:18:34Z</time>
      </trkpt>
      <trkpt lat="42.80233" lon="1.74038">
        <ele>1388.28</ele>
        <time>2015-03-29T13:18:43Z</time>
      </trkpt>
      <trkpt lat="42.80226" lon="1.74027">
        <ele>1386.36</ele>
        <time>2015-03-29T13:18:58Z</time>
      </trkpt>
      <trkpt lat="42.80222" lon="1.74026">
        <ele>1384.92</ele>
        <time>2015-03-29T13:19:05Z</time>
      </trkpt>
      <trkpt lat="42.80213" lon="1.74031">
        <ele>1381.07</ele>
        <time>2015-03-29T13:19:17Z</time>
      </trkpt>
      <trkpt lat="42.80206" lon="1.74031">
        <ele>1379.63</ele>
        <time>2015-03-29T13:19:24Z</time>
      </trkpt>
      <trkpt lat="42.80199" lon="1.74031">
        <ele>1377.71</ele>
        <time>2015-03-29T13:19:31Z</time>
      </trkpt>
      <trkpt lat="42.80188" lon="1.7403">
        <ele>1374.82</ele>
        <time>2015-03-29T13:19:44Z</time>
      </trkpt>
      <trkpt lat="42.80175" lon="1.74026">
        <ele>1371.94</ele>
        <time>2015-03-29T13:19:56Z</time>
      </trkpt>
      <trkpt lat="42.80169" lon="1.74025">
        <ele>1370.98</ele>
        <time>2015-03-29T13:20:02Z</time>
      </trkpt>
      <trkpt lat="42.8015" lon="1.74021">
        <ele>1368.09</ele>
        <time>2015-03-29T13:20:19Z</time>
      </trkpt>
      <trkpt lat="42.80142" lon="1.74024">
        <ele>1364.73</ele>
        <time>2015-03-29T13:20:31Z</time>
      </trkpt>
      <trkpt lat="42.80134" lon="1.74023">
        <ele>1362.81</ele>
        <time>2015-03-29T13:20:43Z</time>
      </trkpt>
      <trkpt lat="42.80132" lon="1.74023">
        <ele>1362.33</ele>
        <time>2015-03-29T13:20:45Z</time>
      </trkpt>
      <trkpt lat="42.80124" lon="1.74025">
        <ele>1359.44</ele>
        <time>2015-03-29T13:20:57Z</time>
      </trkpt>
      <trkpt lat="42.80116" lon="1.7403">
        <ele>1356.56</ele>
        <time>2015-03-29T13:21:10Z</time>
      </trkpt>
      <trkpt lat="42.80113" lon="1.74039">
        <ele>1353.67</ele>
        <time>2015-03-29T13:21:22Z</time>
      </trkpt>
      <trkpt lat="42.8011" lon="1.74042">
        <ele>1352.71</ele>
        <time>2015-03-29T13:21:26Z</time>
      </trkpt>
      <trkpt lat="42.80103" lon="1.74048">
        <ele>1350.79</ele>
        <time>2015-03-29T13:21:38Z</time>
      </trkpt>
      <trkpt lat="42.80094" lon="1.74045">
        <ele>1347.43</ele>
        <time>2015-03-29T13:21:52Z</time>
      </trkpt>
      <trkpt lat="42.8009" lon="1.74046">
        <ele>1345.98</ele>
        <time>2015-03-29T13:21:59Z</time>
      </trkpt>
      <trkpt lat="42.80086" lon="1.74047">
        <ele>1344.06</ele>
        <time>2015-03-29T13:22:03Z</time>
      </trkpt>
      <trkpt lat="42.80084" lon="1.74046">
        <ele>1344.06</ele>
        <time>2015-03-29T13:22:06Z</time>
      </trkpt>
      <trkpt lat="42.80076" lon="1.74046">
        <ele>1340.7</ele>
        <time>2015-03-29T13:22:18Z</time>
      </trkpt>
      <trkpt lat="42.80064" lon="1.74043">
        <ele>1337.33</ele>
        <time>2015-03-29T13:22:32Z</time>
      </trkpt>
      <trkpt lat="42.80059" lon="1.74036">
        <ele>1333.97</ele>
        <time>2015-03-29T13:22:43Z</time>
      </trkpt>
      <trkpt lat="42.80049" lon="1.74028">
        <ele>1331.56</ele>
        <time>2015-03-29T13:22:58Z</time>
      </trkpt>
      <trkpt lat="42.80039" lon="1.74019">
        <ele>1330.6</ele>
        <time>2015-03-29T13:23:13Z</time>
      </trkpt>
      <trkpt lat="42.80036" lon="1.74015">
        <ele>1330.12</ele>
        <time>2015-03-29T13:23:18Z</time>
      </trkpt>
      <trkpt lat="42.80032" lon="1.74011">
        <ele>1328.2</ele>
        <time>2015-03-29T13:23:23Z</time>
      </trkpt>
      <trkpt lat="42.80029" lon="1.74">
        <ele>1324.83</ele>
        <time>2015-03-29T13:23:31Z</time>
      </trkpt>
      <trkpt lat="42.80029" lon="1.74">
        <ele>1324.83</ele>
        <time>2015-03-29T13:23:32Z</time>
      </trkpt>
      <trkpt lat="42.80022" lon="1.73983">
        <ele>1321.47</ele>
        <time>2015-03-29T13:23:46Z</time>
      </trkpt>
      <trkpt lat="42.80022" lon="1.73982">
        <ele>1320.99</ele>
        <time>2015-03-29T13:23:47Z</time>
      </trkpt>
      <trkpt lat="42.80011" lon="1.73964">
        <ele>1318.59</ele>
        <time>2015-03-29T13:24:02Z</time>
      </trkpt>
      <trkpt lat="42.80006" lon="1.73959">
        <ele>1317.62</ele>
        <time>2015-03-29T13:24:08Z</time>
      </trkpt>
      <trkpt lat="42.80005" lon="1.73959">
        <ele>1316.66</ele>
        <time>2015-03-29T13:24:10Z</time>
      </trkpt>
      <trkpt lat="42.80002" lon="1.73953">
        <ele>1315.7</ele>
        <time>2015-03-29T13:24:16Z</time>
      </trkpt>
      <trkpt lat="42.8" lon="1.73953">
        <ele>1314.26</ele>
        <time>2015-03-29T13:24:20Z</time>
      </trkpt>
      <trkpt lat="42.79998" lon="1.73949">
        <ele>1314.74</ele>
        <time>2015-03-29T13:24:23Z</time>
      </trkpt>
      <trkpt lat="42.79992" lon="1.73942">
        <ele>1313.78</ele>
        <time>2015-03-29T13:24:32Z</time>
      </trkpt>
      <trkpt lat="42.7999" lon="1.73941">
        <ele>1313.3</ele>
        <time>2015-03-29T13:24:34Z</time>
      </trkpt>
      <trkpt lat="42.7998" lon="1.73923">
        <ele>1311.86</ele>
        <time>2015-03-29T13:24:49Z</time>
      </trkpt>
      <trkpt lat="42.79969" lon="1.7391">
        <ele>1309.93</ele>
        <time>2015-03-29T13:25:03Z</time>
      </trkpt>
      <trkpt lat="42.79966" lon="1.73907">
        <ele>1308.97</ele>
        <time>2015-03-29T13:25:07Z</time>
      </trkpt>
      <trkpt lat="42.79954" lon="1.73899">
        <ele>1305.61</ele>
        <time>2015-03-29T13:25:20Z</time>
      </trkpt>
      <trkpt lat="42.79944" lon="1.73895">
        <ele>1302.72</ele>
        <time>2015-03-29T13:25:34Z</time>
      </trkpt>
      <trkpt lat="42.79933" lon="1.73891">
        <ele>1300.32</ele>
        <time>2015-03-29T13:25:48Z</time>
      </trkpt>
      <trkpt lat="42.79928" lon="1.73888">
        <ele>1298.88</ele>
        <time>2015-03-29T13:25:57Z</time>
      </trkpt>
      <trkpt lat="42.79917" lon="1.73891">
        <ele>1297.44</ele>
        <time>2015-03-29T13:26:10Z</time>
      </trkpt>
      <trkpt lat="42.79907" lon="1.73896">
        <ele>1295.99</ele>
        <time>2015-03-29T13:26:23Z</time>
      </trkpt>
      <trkpt lat="42.79901" lon="1.73903">
        <ele>1294.07</ele>
        <time>2015-03-29T13:26:35Z</time>
      </trkpt>
      <trkpt lat="42.79888" lon="1.7391">
        <ele>1291.19</ele>
        <time>2015-03-29T13:26:47Z</time>
      </trkpt>
      <trkpt lat="42.79881" lon="1.73919">
        <ele>1288.78</ele>
        <time>2015-03-29T13:26:59Z</time>
      </trkpt>
      <trkpt lat="42.79872" lon="1.73926">
        <ele>1286.86</ele>
        <time>2015-03-29T13:27:13Z</time>
      </trkpt>
      <trkpt lat="42.79865" lon="1.73932">
        <ele>1285.42</ele>
        <time>2015-03-29T13:27:23Z</time>
      </trkpt>
      <trkpt lat="42.79858" lon="1.7394">
        <ele>1281.57</ele>
        <time>2015-03-29T13:27:33Z</time>
      </trkpt>
      <trkpt lat="42.79848" lon="1.73946">
        <ele>1278.69</ele>
        <time>2015-03-29T13:27:44Z</time>
      </trkpt>
      <trkpt lat="42.79829" lon="1.7396">
        <ele>1277.25</ele>
        <time>2015-03-29T13:28:00Z</time>
      </trkpt>
      <trkpt lat="42.79823" lon="1.73973">
        <ele>1273.88</ele>
        <time>2015-03-29T13:28:12Z</time>
      </trkpt>
      <trkpt lat="42.79811" lon="1.73984">
        <ele>1271.48</ele>
        <time>2015-03-29T13:28:25Z</time>
      </trkpt>
      <trkpt lat="42.79799" lon="1.73992">
        <ele>1269.08</ele>
        <time>2015-03-29T13:28:36Z</time>
      </trkpt>
      <trkpt lat="42.79795" lon="1.73999">
        <ele>1268.12</ele>
        <time>2015-03-29T13:28:43Z</time>
      </trkpt>
      <trkpt lat="42.79786" lon="1.74007">
        <ele>1265.71</ele>
        <time>2015-03-29T13:28:53Z</time>
      </trkpt>
      <trkpt lat="42.79778" lon="1.7401">
        <ele>1264.75</ele>
        <time>2015-03-29T13:29:02Z</time>
      </trkpt>
      <trkpt lat="42.79774" lon="1.74012">
        <ele>1263.31</ele>
        <time>2015-03-29T13:29:07Z</time>
      </trkpt>
      <trkpt lat="42.79768" lon="1.74012">
        <ele>1262.35</ele>
        <time>2015-03-29T13:29:14Z</time>
      </trkpt>
      <trkpt lat="42.79754" lon="1.74013">
        <ele>1260.43</ele>
        <time>2015-03-29T13:29:29Z</time>
      </trkpt>
      <trkpt lat="42.79748" lon="1.74011">
        <ele>1258.5</ele>
        <time>2015-03-29T13:29:36Z</time>
      </trkpt>
      <trkpt lat="42.79737" lon="1.74012">
        <ele>1257.06</ele>
        <time>2015-03-29T13:29:47Z</time>
      </trkpt>
      <trkpt lat="42.79726" lon="1.74011">
        <ele>1255.62</ele>
        <time>2015-03-29T13:30:01Z</time>
      </trkpt>
      <trkpt lat="42.79714" lon="1.74009">
        <ele>1252.25</ele>
        <time>2015-03-29T13:30:15Z</time>
      </trkpt>
      <trkpt lat="42.79706" lon="1.74008">
        <ele>1249.37</ele>
        <time>2015-03-29T13:30:29Z</time>
      </trkpt>
      <trkpt lat="42.79696" lon="1.74008">
        <ele>1246.97</ele>
        <time>2015-03-29T13:30:42Z</time>
      </trkpt>
      <trkpt lat="42.79688" lon="1.74005">
        <ele>1244.08</ele>
        <time>2015-03-29T13:30:52Z</time>
      </trkpt>
      <trkpt lat="42.79678" lon="1.74">
        <ele>1242.16</ele>
        <time>2015-03-29T13:31:07Z</time>
      </trkpt>
      <trkpt lat="42.79671" lon="1.73999">
        <ele>1238.8</ele>
        <time>2015-03-29T13:31:17Z</time>
      </trkpt>
      <trkpt lat="42.79661" lon="1.73995">
        <ele>1236.39</ele>
        <time>2015-03-29T13:31:28Z</time>
      </trkpt>
      <trkpt lat="42.79659" lon="1.73993">
        <ele>1236.39</ele>
        <time>2015-03-29T13:31:31Z</time>
      </trkpt>
      <trkpt lat="42.79657" lon="1.73991">
        <ele>1235.43</ele>
        <time>2015-03-29T13:31:34Z</time>
      </trkpt>
      <trkpt lat="42.79652" lon="1.73988">
        <ele>1233.99</ele>
        <time>2015-03-29T13:31:42Z</time>
      </trkpt>
      <trkpt lat="42.7964" lon="1.73984">
        <ele>1230.14</ele>
        <time>2015-03-29T13:31:55Z</time>
      </trkpt>
      <trkpt lat="42.79622" lon="1.73968">
        <ele>1227.74</ele>
        <time>2015-03-29T13:32:15Z</time>
      </trkpt>
      <trkpt lat="42.79619" lon="1.73966">
        <ele>1227.74</ele>
        <time>2015-03-29T13:32:18Z</time>
      </trkpt>
      <trkpt lat="42.79604" lon="1.73964">
        <ele>1225.34</ele>
        <time>2015-03-29T13:32:34Z</time>
      </trkpt>
      <trkpt lat="42.79596" lon="1.73965">
        <ele>1222.45</ele>
        <time>2015-03-29T13:32:45Z</time>
      </trkpt>
      <trkpt lat="42.79595" lon="1.73964">
        <ele>1221.97</ele>
        <time>2015-03-29T13:32:46Z</time>
      </trkpt>
      <trkpt lat="42.7959" lon="1.73964">
        <ele>1221.01</ele>
        <time>2015-03-29T13:32:52Z</time>
      </trkpt>
      <trkpt lat="42.79586" lon="1.73962">
        <ele>1220.05</ele>
        <time>2015-03-29T13:32:57Z</time>
      </trkpt>
      <trkpt lat="42.7958" lon="1.73952">
        <ele>1218.13</ele>
        <time>2015-03-29T13:33:11Z</time>
      </trkpt>
      <trkpt lat="42.79572" lon="1.73941">
        <ele>1216.69</ele>
        <time>2015-03-29T13:33:25Z</time>
      </trkpt>
      <trkpt lat="42.7957" lon="1.73941">
        <ele>1215.72</ele>
        <time>2015-03-29T13:33:28Z</time>
      </trkpt>
      <trkpt lat="42.79564" lon="1.73939">
        <ele>1214.76</ele>
        <time>2015-03-29T13:33:34Z</time>
      </trkpt>
      <trkpt lat="42.79554" lon="1.73944">
        <ele>1212.84</ele>
        <time>2015-03-29T13:33:46Z</time>
      </trkpt>
      <trkpt lat="42.79548" lon="1.73954">
        <ele>1209.96</ele>
        <time>2015-03-29T13:33:58Z</time>
      </trkpt>
      <trkpt lat="42.79547" lon="1.73954">
        <ele>1209.48</ele>
        <time>2015-03-29T13:33:59Z</time>
      </trkpt>
      <trkpt lat="42.79541" lon="1.73964">
        <ele>1206.59</ele>
        <time>2015-03-29T13:34:13Z</time>
      </trkpt>
      <trkpt lat="42.79538" lon="1.73966">
        <ele>1206.11</ele>
        <time>2015-03-29T13:34:17Z</time>
      </trkpt>
      <trkpt lat="42.79531" lon="1.73968">
        <ele>1203.71</ele>
        <time>2015-03-29T13:34:28Z</time>
      </trkpt>
      <trkpt lat="42.79529" lon="1.73966">
        <ele>1203.71</ele>
        <time>2015-03-29T13:34:31Z</time>
      </trkpt>
      <trkpt lat="42.79521" lon="1.73951">
        <ele>1201.3</ele>
        <time>2015-03-29T13:34:47Z</time>
      </trkpt>
      <trkpt lat="42.7952" lon="1.73945">
        <ele>1200.34</ele>
        <time>2015-03-29T13:34:52Z</time>
      </trkpt>
      <trkpt lat="42.79521" lon="1.73941">
        <ele>1199.86</ele>
        <time>2015-03-29T13:34:55Z</time>
      </trkpt>
      <trkpt lat="42.79522" lon="1.73932">
        <ele>1197.46</ele>
        <time>2015-03-29T13:35:06Z</time>
      </trkpt>
      <trkpt lat="42.79524" lon="1.73925">
        <ele>1196.02</ele>
        <time>2015-03-29T13:35:18Z</time>
      </trkpt>
      <trkpt lat="42.79524" lon="1.7392">
        <ele>1194.09</ele>
        <time>2015-03-29T13:35:24Z</time>
      </trkpt>
      <trkpt lat="42.79526" lon="1.73911">
        <ele>1193.13</ele>
        <time>2015-03-29T13:35:31Z</time>
      </trkpt>
      <trkpt lat="42.79525" lon="1.73903">
        <ele>1193.61</ele>
        <time>2015-03-29T13:35:37Z</time>
      </trkpt>
      <trkpt lat="42.79527" lon="1.73897">
        <ele>1192.17</ele>
        <time>2015-03-29T13:35:42Z</time>
      </trkpt>
      <trkpt lat="42.79531" lon="1.73884">
        <ele>1188.81</ele>
        <time>2015-03-29T13:35:53Z</time>
      </trkpt>
      <trkpt lat="42.79533" lon="1.73873">
        <ele>1185.92</ele>
        <time>2015-03-29T13:36:05Z</time>
      </trkpt>
      <trkpt lat="42.79535" lon="1.73856">
        <ele>1184</ele>
        <time>2015-03-29T13:36:20Z</time>
      </trkpt>
      <trkpt lat="42.79534" lon="1.73845">
        <ele>1180.64</ele>
        <time>2015-03-29T13:36:33Z</time>
      </trkpt>
      <trkpt lat="42.79533" lon="1.73839">
        <ele>1180.64</ele>
        <time>2015-03-29T13:36:39Z</time>
      </trkpt>
      <trkpt lat="42.79531" lon="1.73828">
        <ele>1177.27</ele>
        <time>2015-03-29T13:36:52Z</time>
      </trkpt>
      <trkpt lat="42.79529" lon="1.73819">
        <ele>1175.83</ele>
        <time>2015-03-29T13:37:02Z</time>
      </trkpt>
      <trkpt lat="42.79528" lon="1.73806">
        <ele>1172.95</ele>
        <time>2015-03-29T13:37:14Z</time>
      </trkpt>
      <trkpt lat="42.79525" lon="1.73793">
        <ele>1170.06</ele>
        <time>2015-03-29T13:37:28Z</time>
      </trkpt>
      <trkpt lat="42.79524" lon="1.73792">
        <ele>1169.58</ele>
        <time>2015-03-29T13:37:29Z</time>
      </trkpt>
      <trkpt lat="42.79524" lon="1.7378">
        <ele>1168.14</ele>
        <time>2015-03-29T13:37:39Z</time>
      </trkpt>
      <trkpt lat="42.79527" lon="1.73766">
        <ele>1165.74</ele>
        <time>2015-03-29T13:37:51Z</time>
      </trkpt>
      <trkpt lat="42.79529" lon="1.73761">
        <ele>1164.29</ele>
        <time>2015-03-29T13:37:56Z</time>
      </trkpt>
      <trkpt lat="42.79535" lon="1.73749">
        <ele>1160.93</ele>
        <time>2015-03-29T13:38:09Z</time>
      </trkpt>
      <trkpt lat="42.7954" lon="1.73731">
        <ele>1157.56</ele>
        <time>2015-03-29T13:38:27Z</time>
      </trkpt>
      <trkpt lat="42.79544" lon="1.73722">
        <ele>1155.16</ele>
        <time>2015-03-29T13:38:39Z</time>
      </trkpt>
      <trkpt lat="42.79545" lon="1.73719">
        <ele>1154.68</ele>
        <time>2015-03-29T13:38:42Z</time>
      </trkpt>
      <trkpt lat="42.79547" lon="1.73708">
        <ele>1152.28</ele>
        <time>2015-03-29T13:38:56Z</time>
      </trkpt>
      <trkpt lat="42.79551" lon="1.737">
        <ele>1151.8</ele>
        <time>2015-03-29T13:39:07Z</time>
      </trkpt>
      <trkpt lat="42.79552" lon="1.73695">
        <ele>1150.84</ele>
        <time>2015-03-29T13:39:11Z</time>
      </trkpt>
      <trkpt lat="42.79554" lon="1.73692">
        <ele>1150.35</ele>
        <time>2015-03-29T13:39:14Z</time>
      </trkpt>
      <trkpt lat="42.79556" lon="1.73675">
        <ele>1146.99</ele>
        <time>2015-03-29T13:39:29Z</time>
      </trkpt>
      <trkpt lat="42.79557" lon="1.73663">
        <ele>1145.07</ele>
        <time>2015-03-29T13:39:40Z</time>
      </trkpt>
      <trkpt lat="42.79557" lon="1.73659">
        <ele>1144.59</ele>
        <time>2015-03-29T13:39:44Z</time>
      </trkpt>
      <trkpt lat="42.7956" lon="1.73641">
        <ele>1143.14</ele>
        <time>2015-03-29T13:39:59Z</time>
      </trkpt>
      <trkpt lat="42.79559" lon="1.73632">
        <ele>1140.74</ele>
        <time>2015-03-29T13:40:12Z</time>
      </trkpt>
      <trkpt lat="42.79557" lon="1.73622">
        <ele>1137.86</ele>
        <time>2015-03-29T13:40:27Z</time>
      </trkpt>
      <trkpt lat="42.79556" lon="1.73607">
        <ele>1135.45</ele>
        <time>2015-03-29T13:40:42Z</time>
      </trkpt>
      <trkpt lat="42.79557" lon="1.73595">
        <ele>1132.57</ele>
        <time>2015-03-29T13:40:58Z</time>
      </trkpt>
      <trkpt lat="42.79553" lon="1.73586">
        <ele>1130.17</ele>
        <time>2015-03-29T13:41:11Z</time>
      </trkpt>
      <trkpt lat="42.79549" lon="1.73573">
        <ele>1126.8</ele>
        <time>2015-03-29T13:41:23Z</time>
      </trkpt>
      <trkpt lat="42.79542" lon="1.73566">
        <ele>1123.44</ele>
        <time>2015-03-29T13:41:34Z</time>
      </trkpt>
      <trkpt lat="42.79538" lon="1.73564">
        <ele>1122</ele>
        <time>2015-03-29T13:41:45Z</time>
      </trkpt>
      <trkpt lat="42.79538" lon="1.73548">
        <ele>1119.59</ele>
        <time>2015-03-29T13:42:01Z</time>
      </trkpt>
      <trkpt lat="42.79538" lon="1.73547">
        <ele>1118.63</ele>
        <time>2015-03-29T13:42:03Z</time>
      </trkpt>
      <trkpt lat="42.79533" lon="1.73539">
        <ele>1115.27</ele>
        <time>2015-03-29T13:42:15Z</time>
      </trkpt>
      <trkpt lat="42.79525" lon="1.73544">
        <ele>1112.38</ele>
        <time>2015-03-29T13:42:26Z</time>
      </trkpt>
      <trkpt lat="42.79522" lon="1.73547">
        <ele>1111.42</ele>
        <time>2015-03-29T13:42:30Z</time>
      </trkpt>
      <trkpt lat="42.79516" lon="1.73554">
        <ele>1108.06</ele>
        <time>2015-03-29T13:42:43Z</time>
      </trkpt>
      <trkpt lat="42.79507" lon="1.73555">
        <ele>1104.69</ele>
        <time>2015-03-29T13:42:57Z</time>
      </trkpt>
      <trkpt lat="42.79505" lon="1.73558">
        <ele>1103.73</ele>
        <time>2015-03-29T13:43:00Z</time>
      </trkpt>
      <trkpt lat="42.79497" lon="1.7357">
        <ele>1100.37</ele>
        <time>2015-03-29T13:43:15Z</time>
      </trkpt>
      <trkpt lat="42.79493" lon="1.73569">
        <ele>1098.44</ele>
        <time>2015-03-29T13:43:26Z</time>
      </trkpt>
      <trkpt lat="42.79484" lon="1.73577">
        <ele>1097</ele>
        <time>2015-03-29T13:43:39Z</time>
      </trkpt>
      <trkpt lat="42.79484" lon="1.73583">
        <ele>1095.56</ele>
        <time>2015-03-29T13:43:51Z</time>
      </trkpt>
      <trkpt lat="42.79481" lon="1.73573">
        <ele>1092.68</ele>
        <time>2015-03-29T13:44:03Z</time>
      </trkpt>
      <trkpt lat="42.79481" lon="1.73569">
        <ele>1092.2</ele>
        <time>2015-03-29T13:44:08Z</time>
      </trkpt>
      <trkpt lat="42.79481" lon="1.73566">
        <ele>1091.71</ele>
        <time>2015-03-29T13:44:10Z</time>
      </trkpt>
      <trkpt lat="42.79481" lon="1.73565">
        <ele>1091.23</ele>
        <time>2015-03-29T13:44:11Z</time>
      </trkpt>
      <trkpt lat="42.7948" lon="1.73547">
        <ele>1088.35</ele>
        <time>2015-03-29T13:44:25Z</time>
      </trkpt>
      <trkpt lat="42.79479" lon="1.73534">
        <ele>1084.99</ele>
        <time>2015-03-29T13:44:38Z</time>
      </trkpt>
      <trkpt lat="42.79479" lon="1.7352">
        <ele>1082.1</ele>
        <time>2015-03-29T13:44:50Z</time>
      </trkpt>
      <trkpt lat="42.79478" lon="1.73505">
        <ele>1079.7</ele>
        <time>2015-03-29T13:45:05Z</time>
      </trkpt>
      <trkpt lat="42.79474" lon="1.73493">
        <ele>1078.26</ele>
        <time>2015-03-29T13:45:18Z</time>
      </trkpt>
      <trkpt lat="42.79474" lon="1.73492">
        <ele>1077.78</ele>
        <time>2015-03-29T13:45:20Z</time>
      </trkpt>
      <trkpt lat="42.79474" lon="1.73488">
        <ele>1076.33</ele>
        <time>2015-03-29T13:45:23Z</time>
      </trkpt>
      <trkpt lat="42.7947" lon="1.73476">
        <ele>1074.41</ele>
        <time>2015-03-29T13:45:34Z</time>
      </trkpt>
      <trkpt lat="42.7947" lon="1.73469">
        <ele>1073.45</ele>
        <time>2015-03-29T13:45:39Z</time>
      </trkpt>
      <trkpt lat="42.79467" lon="1.73456">
        <ele>1071.05</ele>
        <time>2015-03-29T13:45:49Z</time>
      </trkpt>
      <trkpt lat="42.79467" lon="1.73452">
        <ele>1070.57</ele>
        <time>2015-03-29T13:45:53Z</time>
      </trkpt>
      <trkpt lat="42.79467" lon="1.73446">
        <ele>1070.57</ele>
        <time>2015-03-29T13:45:58Z</time>
      </trkpt>
      <trkpt lat="42.79471" lon="1.73428">
        <ele>1069.6</ele>
        <time>2015-03-29T13:46:11Z</time>
      </trkpt>
      <trkpt lat="42.79471" lon="1.73425">
        <ele>1069.12</ele>
        <time>2015-03-29T13:46:13Z</time>
      </trkpt>
      <trkpt lat="42.79468" lon="1.73414">
        <ele>1066.72</ele>
        <time>2015-03-29T13:46:27Z</time>
      </trkpt>
      <trkpt lat="42.79469" lon="1.7341">
        <ele>1066.24</ele>
        <time>2015-03-29T13:46:39Z</time>
      </trkpt>
      <trkpt lat="42.7946" lon="1.73402">
        <ele>1064.32</ele>
        <time>2015-03-29T13:46:53Z</time>
      </trkpt>
      <trkpt lat="42.79455" lon="1.73405">
        <ele>1061.43</ele>
        <time>2015-03-29T13:47:05Z</time>
      </trkpt>
      <trkpt lat="42.7945" lon="1.73406">
        <ele>1059.51</ele>
        <time>2015-03-29T13:47:17Z</time>
      </trkpt>
      <trkpt lat="42.79449" lon="1.73406">
        <ele>1059.51</ele>
        <time>2015-03-29T13:47:18Z</time>
      </trkpt>
      <trkpt lat="42.79435" lon="1.73402">
        <ele>1058.55</ele>
        <time>2015-03-29T13:47:31Z</time>
      </trkpt>
      <trkpt lat="42.79411" lon="1.73396">
        <ele>1056.15</ele>
        <time>2015-03-29T13:47:47Z</time>
      </trkpt>
      <trkpt lat="42.79395" lon="1.73401">
        <ele>1053.74</ele>
        <time>2015-03-29T13:48:02Z</time>
      </trkpt>
      <trkpt lat="42.7938" lon="1.73401">
        <ele>1050.86</ele>
        <time>2015-03-29T13:48:17Z</time>
      </trkpt>
      <trkpt lat="42.79369" lon="1.73403">
        <ele>1047.49</ele>
        <time>2015-03-29T13:48:29Z</time>
      </trkpt>
      <trkpt lat="42.79358" lon="1.73399">
        <ele>1044.61</ele>
        <time>2015-03-29T13:48:42Z</time>
      </trkpt>
      <trkpt lat="42.79346" lon="1.73397">
        <ele>1041.25</ele>
        <time>2015-03-29T13:48:55Z</time>
      </trkpt>
      <trkpt lat="42.79336" lon="1.73399">
        <ele>1038.36</ele>
        <time>2015-03-29T13:49:09Z</time>
      </trkpt>
      <trkpt lat="42.79327" lon="1.734">
        <ele>1035.48</ele>
        <time>2015-03-29T13:49:20Z</time>
      </trkpt>
      <trkpt lat="42.79306" lon="1.734">
        <ele>1034.52</ele>
        <time>2015-03-29T13:49:27Z</time>
      </trkpt>
      <trkpt lat="42.793" lon="1.73402">
        <ele>1033.55</ele>
        <time>2015-03-29T13:49:30Z</time>
      </trkpt>
      <trkpt lat="42.793" lon="1.73405">
        <ele>1033.55</ele>
        <time>2015-03-29T13:49:32Z</time>
      </trkpt>
      <trkpt lat="42.79298" lon="1.73414">
        <ele>1032.59</ele>
        <time>2015-03-29T13:49:38Z</time>
      </trkpt>
      <trkpt lat="42.793" lon="1.73421">
        <ele>1031.15</ele>
        <time>2015-03-29T13:49:50Z</time>
      </trkpt>
      <trkpt lat="42.79296" lon="1.73412">
        <ele>1028.75</ele>
        <time>2015-03-29T13:50:04Z</time>
      </trkpt>
      <trkpt lat="42.79287" lon="1.73402">
        <ele>1025.38</ele>
        <time>2015-03-29T13:50:19Z</time>
      </trkpt>
      <trkpt lat="42.79275" lon="1.73398">
        <ele>1022.5</ele>
        <time>2015-03-29T13:50:33Z</time>
      </trkpt>
      <trkpt lat="42.79264" lon="1.73392">
        <ele>1020.1</ele>
        <time>2015-03-29T13:50:48Z</time>
      </trkpt>
      <trkpt lat="42.79261" lon="1.73384">
        <ele>1019.13</ele>
        <time>2015-03-29T13:50:57Z</time>
      </trkpt>
      <trkpt lat="42.79258" lon="1.73382">
        <ele>1019.13</ele>
        <time>2015-03-29T13:51:00Z</time>
      </trkpt>
      <trkpt lat="42.79254" lon="1.73372">
        <ele>1017.21</ele>
        <time>2015-03-29T13:51:08Z</time>
      </trkpt>
      <trkpt lat="42.79239" lon="1.73359">
        <ele>1015.29</ele>
        <time>2015-03-29T13:51:22Z</time>
      </trkpt>
      <trkpt lat="42.79224" lon="1.73347">
        <ele>1014.81</ele>
        <time>2015-03-29T13:51:37Z</time>
      </trkpt>
      <trkpt lat="42.79216" lon="1.73334">
        <ele>1011.93</ele>
        <time>2015-03-29T13:51:48Z</time>
      </trkpt>
      <trkpt lat="42.79206" lon="1.73315">
        <ele>1010.48</ele>
        <time>2015-03-29T13:52:04Z</time>
      </trkpt>
      <trkpt lat="42.79191" lon="1.73284">
        <ele>1008.08</ele>
        <time>2015-03-29T13:52:21Z</time>
      </trkpt>
      <trkpt lat="42.79184" lon="1.73277">
        <ele>1009.52</ele>
        <time>2015-03-29T13:52:34Z</time>
      </trkpt>
      <trkpt lat="42.79173" lon="1.73272">
        <ele>1007.6</ele>
        <time>2015-03-29T13:52:51Z</time>
      </trkpt>
      <trkpt lat="42.79173" lon="1.73274">
        <ele>1006.64</ele>
        <time>2015-03-29T13:53:02Z</time>
      </trkpt>
      <trkpt lat="42.79173" lon="1.73275">
        <ele>1007.6</ele>
        <time>2015-03-29T13:53:14Z</time>
      </trkpt>
      <trkpt lat="42.79175" lon="1.73275">
        <ele>1008.56</ele>
        <time>2015-03-29T13:53:25Z</time>
      </trkpt>
      <trkpt lat="42.79172" lon="1.73274">
        <ele>1007.12</ele>
        <time>2015-03-29T13:53:35Z</time>
      </trkpt>
      <trkpt lat="42.7917" lon="1.73275">
        <ele>1006.64</ele>
        <time>2015-03-29T13:53:39Z</time>
      </trkpt>
      <trkpt lat="42.79169" lon="1.73281">
        <ele>1007.6</ele>
        <time>2015-03-29T13:53:43Z</time>
      </trkpt>
      <trkpt lat="42.79175" lon="1.73296">
        <ele>1008.08</ele>
        <time>2015-03-29T13:53:57Z</time>
      </trkpt>
      <trkpt lat="42.79178" lon="1.73298">
        <ele>1007.6</ele>
        <time>2015-03-29T13:54:14Z</time>
      </trkpt>
      <trkpt lat="42.7918" lon="1.73298">
        <ele>1007.12</ele>
        <time>2015-03-29T13:54:41Z</time>
      </trkpt>
      <trkpt lat="42.79178" lon="1.73296">
        <ele>1004.72</ele>
        <time>2015-03-29T13:55:12Z</time>
      </trkpt>
      <trkpt lat="42.7918" lon="1.73299">
        <ele>1006.64</ele>
        <time>2015-03-29T13:55:44Z</time>
      </trkpt>
      <trkpt lat="42.79178" lon="1.73297">
        <ele>1004.23</ele>
        <time>2015-03-29T13:56:16Z</time>
      </trkpt>
      <trkpt lat="42.79179" lon="1.73297">
        <ele>1005.2</ele>
        <time>2015-03-29T13:56:17Z</time>
      </trkpt>
      <trkpt lat="42.7918" lon="1.73297">
        <ele>1006.16</ele>
        <time>2015-03-29T13:56:19Z</time>
      </trkpt>
      <trkpt lat="42.79178" lon="1.73295">
        <ele>1006.16</ele>
        <time>2015-03-29T13:56:34Z</time>
      </trkpt>
      <trkpt lat="42.79176" lon="1.73296">
        <ele>1004.23</ele>
        <time>2015-03-29T13:57:00Z</time>
      </trkpt>
      <trkpt lat="42.79176" lon="1.73295">
        <ele>1004.72</ele>
        <time>2015-03-29T13:57:19Z</time>
      </trkpt>
      <trkpt lat="42.7917" lon="1.73284">
        <ele>1004.23</ele>
        <time>2015-03-29T13:57:32Z</time>
      </trkpt>
      <trkpt lat="42.79171" lon="1.73278">
        <ele>1004.23</ele>
        <time>2015-03-29T13:57:44Z</time>
      </trkpt>
      <trkpt lat="42.7917" lon="1.73278">
        <ele>1003.75</ele>
        <time>2015-03-29T13:58:18Z</time>
      </trkpt>
      <trkpt lat="42.79171" lon="1.73278">
        <ele>1002.79</ele>
        <time>2015-03-29T13:58:38Z</time>
      </trkpt>
      <trkpt lat="42.79167" lon="1.73278">
        <ele>1002.79</ele>
        <time>2015-03-29T13:59:11Z</time>
      </trkpt>
      <trkpt lat="42.7917" lon="1.73278">
        <ele>1003.27</ele>
        <time>2015-03-29T13:59:30Z</time>
      </trkpt>
      <trkpt lat="42.7917" lon="1.73277">
        <ele>1003.27</ele>
        <time>2015-03-29T13:59:52Z</time>
      </trkpt>
      <trkpt lat="42.79172" lon="1.73277">
        <ele>1002.31</ele>
        <time>2015-03-29T14:00:28Z</time>
      </trkpt>
      <trkpt lat="42.7917" lon="1.73278">
        <ele>1002.79</ele>
        <time>2015-03-29T14:01:00Z</time>
      </trkpt>
      <trkpt lat="42.79174" lon="1.73278">
        <ele>1003.75</ele>
        <time>2015-03-29T14:01:22Z</time>
      </trkpt>
      <trkpt lat="42.79173" lon="1.73278">
        <ele>1002.79</ele>
        <time>2015-03-29T14:01:38Z</time>
      </trkpt>
    </trkseg>
  </trk>
</gpx>